Provisional Data: Sangerfield River near Poolville, NY


Please select a monitoring station.
Please select start date.
Please select start date.

Toggle Unit: C/F Toggle Unit: C/F
Sample Time Temperature (C) Temperature (F) Specific Conductivity (mS/cm) pH   Turbidity (NTU+) DO (mg/L)
6/22/2021 12:00:00 AM 21.72 71.096 0.403 8.11 4.62 7.08
6/22/2021 12:15:00 AM 21.63 70.934 0.403 8.1 4.09 7.07
6/22/2021 12:30:00 AM 21.51 70.718 0.404 8.1 3.87 7.11
6/22/2021 12:45:00 AM 21.37 70.466 0.404 8.1 4.91 7.14
6/22/2021 1:00:00 AM 21.25 70.25 0.404 8.1 4.81 7.14
6/22/2021 1:15:00 AM 21.13 70.034 0.404 8.1 4.43 7.17
6/22/2021 1:30:00 AM 21.03 69.854 0.404 8.1 4.08 7.21
6/22/2021 1:45:00 AM 20.91 69.638 0.404 8.1 4.66 7.21
6/22/2021 2:00:00 AM 20.8 69.44 0.404 8.09 4.28 7.24
6/22/2021 2:15:00 AM 20.67 69.206 0.405 8.09 5.07 7.26
6/22/2021 2:30:00 AM 20.56 69.008 0.405 8.1 4.56 7.28
6/22/2021 2:45:00 AM 20.45 68.81 0.405 8.1 4.41 7.3
6/22/2021 3:00:00 AM 20.36 68.648 0.405 8.09 4.89 7.32
6/22/2021 3:15:00 AM 20.26 68.468 0.405 8.09 4.05 7.36
6/22/2021 3:30:00 AM 20.17 68.306 0.405 8.09 190.23 7.36
6/22/2021 3:45:00 AM 20.07 68.126 0.405 8.09 4.49 7.38
6/22/2021 4:00:00 AM 19.95 67.91 0.405 8.09 3.9 7.43
6/22/2021 4:15:00 AM 19.85 67.73 0.405 8.09 4.77 7.44
6/22/2021 4:30:00 AM 19.75 67.55 0.405 8.09 6.79 7.45
6/22/2021 4:45:00 AM 19.65 67.37 0.406 8.09 4.45 7.46
6/22/2021 5:00:00 AM 19.56 67.208 0.405 8.09 4.71 7.47
6/22/2021 5:15:00 AM 19.46 67.028 0.405 8.09 4.41 7.44
6/22/2021 5:30:00 AM 19.37 66.866 0.406 8.09 3.82 7.52
6/22/2021 5:45:00 AM 19.28 66.704 0.406 8.09 4.89 7.52
6/22/2021 6:00:00 AM 19.21 66.578 0.406 8.09 4.7 7.59
6/22/2021 6:15:00 AM 19.14 66.452 0.406 8.1 4.83 7.61
6/22/2021 6:30:00 AM 19.07 66.326 0.406 8.09 4.56 7.64
6/22/2021 6:45:00 AM 19 66.2 0.406 8.1 3.68 7.68
6/22/2021 7:00:00 AM 18.93 66.074 0.406 8.11 3.86 7.78
6/22/2021 7:15:00 AM 18.86 65.948 0.406 8.12 4.89 7.9
6/22/2021 7:30:00 AM 18.81 65.858 0.406 8.13 3.7 8.05
6/22/2021 7:45:00 AM 18.75 65.75 0.406 8.14 3.91 7.98
6/22/2021 8:00:00 AM 18.69 65.642 0.406 8.14 3.44 8.02
6/22/2021 8:15:00 AM 18.63 65.534 0.406 8.15 6.37 8.21
6/22/2021 8:30:00 AM 18.57 65.426 0.406 8.16 3.13 8.2
6/22/2021 8:45:00 AM 18.51 65.318 0.406 8.17 6.2 8.36
6/22/2021 9:00:00 AM 18.45 65.21 0.405 8.18 2.72 8.39
6/22/2021 9:15:00 AM 18.39 65.102 0.406 8.19 3.19 8.45
6/22/2021 9:30:00 AM 18.34 65.012 0.406 8.2 2.87 8.46
6/22/2021 9:45:00 AM 18.28 64.904 0.406 8.21 2.96 8.46
6/22/2021 10:00:00 AM 18.23 64.814 0.406 8.21 3.01 8.51
6/22/2021 10:15:00 AM 18.19 64.742 0.406 8.22 2.53 8.56
6/22/2021 10:30:00 AM 18.14 64.652 0.405 8.23 2.68 8.67
6/22/2021 10:45:00 AM 18.11 64.598 0.406 8.24 2.69 8.8
6/22/2021 11:00:00 AM 18.06 64.508 0.405 8.25 2.74 8.85
6/22/2021 11:15:00 AM 18.01 64.418 0.405 8.25 2.77 8.84
6/22/2021 11:30:00 AM 17.97 64.346 0.405 8.26 2.87 8.88
6/22/2021 11:45:00 AM 17.92 64.256 0.405 8.27 2.33 9.03
6/22/2021 12:00:00 PM 17.89 64.202 0.405 8.27 5.93 9.13
6/22/2021 12:15:00 PM 17.88 64.184 0.405 8.3 2.59 9.23
6/22/2021 12:30:00 PM 17.91 64.238 0.404 8.32 3.01 9.41
6/22/2021 12:45:00 PM 17.92 64.256 0.404 8.34 2.48 9.57
6/22/2021 1:00:00 PM 17.9 64.22 0.404 8.34 2.48 9.58
6/22/2021 1:15:00 PM 17.86 64.148 0.404 8.34 2.97 9.57
6/22/2021 1:30:00 PM 17.81 64.058 0.404 8.35 2.41 9.49
6/22/2021 1:45:00 PM 17.83 64.094 0.403 8.37 3.17 9.64
6/22/2021 2:00:00 PM 17.83 64.094 0.404 8.37 2.44 9.65
6/22/2021 2:15:00 PM 17.86 64.148 0.403 8.39 2.74 9.76
6/22/2021 2:30:00 PM 17.85 64.13 0.403 8.4 2.51 9.88
6/22/2021 2:45:00 PM 17.78 64.004 0.403 8.39 2.29 9.72
6/22/2021 3:00:00 PM 17.71 63.878 0.403 8.39 2.59 9.64
6/22/2021 3:15:00 PM 17.63 63.734 0.404 8.38 2.51 9.53
6/22/2021 3:30:00 PM 17.56 63.608 0.404 8.38 2.44 9.5
6/22/2021 3:45:00 PM 17.5 63.5 0.405 8.38 2.66 9.48
6/22/2021 4:00:00 PM 17.46 63.428 0.405 8.38 2.36 9.48
6/22/2021 4:15:00 PM 17.4 63.32 0.405 8.38 2.34 9.5
6/22/2021 4:30:00 PM 17.35 63.23 0.405 8.38 2.37 9.54
6/22/2021 4:45:00 PM 17.33 63.194 0.405 8.39 2.3 9.61
6/22/2021 5:00:00 PM 17.29 63.122 0.405 8.39 4.94 9.48
6/22/2021 5:15:00 PM 17.23 63.014 0.405 8.39 2.56 9.6
6/22/2021 5:30:00 PM 17.22 62.996 0.405 8.4 3.74 9.62
6/22/2021 5:45:00 PM 17.23 63.014 0.405 8.4 2.61 9.71
6/22/2021 6:00:00 PM 17.29 63.122 0.405 8.42 2.21 9.82
6/22/2021 6:15:00 PM 17.28 63.104 0.405 8.42 2.46 9.78
6/22/2021 6:30:00 PM 17.23 63.014 0.404 8.42 2.44 9.72
6/22/2021 6:45:00 PM 17.2 62.96 0.405 8.41 2.49 9.7
6/22/2021 7:00:00 PM 17.14 62.852 0.402 8.41 2.87 9.71
6/22/2021 7:15:00 PM 17.09 62.762 0.405 8.41 2.56 9.63
6/22/2021 7:30:00 PM 17.05 62.69 0.405 8.4 2.55 9.49
6/22/2021 7:45:00 PM 17 62.6 0.405 8.39 2.87 9.46
6/22/2021 8:00:00 PM 16.94 62.492 0.406 8.38 2.58 9.39
6/22/2021 8:15:00 PM 16.84 62.312 0.406 8.37 2.67 9.25
6/22/2021 8:30:00 PM 16.74 62.132 0.407 8.35 2.68 9.18
6/22/2021 8:45:00 PM 16.63 61.934 0.408 8.34 2.38 9.08
6/22/2021 9:00:00 PM 16.53 61.754 0.409 8.32 3.24 8.99
6/22/2021 9:15:00 PM 16.41 61.538 0.409 8.3 3.29 8.95
6/22/2021 9:30:00 PM 16.3 61.34 0.41 8.29 3.69 8.89
6/22/2021 9:45:00 PM 16.19 61.142 0.41 8.28 3.37 8.84
6/22/2021 10:00:00 PM 16.08 60.944 0.411 8.27 3.25 8.81
6/22/2021 10:15:00 PM 15.97 60.746 0.411 8.25 3.07 8.79
6/22/2021 10:30:00 PM 15.84 60.512 0.412 8.24 3.41 8.77
6/22/2021 10:45:00 PM 15.74 60.332 0.412 8.23 3.69 8.77
6/22/2021 11:00:00 PM 15.62 60.116 0.413 8.23 3.14 8.77
6/22/2021 11:15:00 PM 15.51 59.918 0.413 8.22 3.6 8.77
6/22/2021 11:30:00 PM 15.4 59.72 0.413 8.21 3.57 8.78
6/22/2021 11:45:00 PM 15.31 59.558 0.414 8.21 3.49 8.8
6/23/2021 12:00:00 AM 15.22 59.396 0.414 8.2 3.72 8.8
6/23/2021 12:15:00 AM 15.11 59.198 0.414 8.2 3.36 8.82
6/23/2021 12:30:00 AM 15 59 0.415 8.2 3.64 8.83
6/23/2021 12:45:00 AM 14.9 58.82 0.415 8.19 3.36 8.86
6/23/2021 1:00:00 AM 14.8 58.64 0.415 8.19 3.69 8.87
6/23/2021 1:15:00 AM 14.69 58.442 0.416 8.18 3.52 8.89
6/23/2021 1:30:00 AM 14.59 58.262 0.416 8.18 3.48 8.92
6/23/2021 1:45:00 AM 14.49 58.082 0.416 8.18 3.38 8.94
6/23/2021 2:00:00 AM 14.4 57.92 0.416 8.18 3.83 8.96
6/23/2021 2:15:00 AM 14.31 57.758 0.416 8.17 3.4 8.98
6/23/2021 2:30:00 AM 14.21 57.578 0.416 8.17 3.07 9
6/23/2021 2:45:00 AM 14.12 57.416 0.417 8.17 3.28 9.02
6/23/2021 3:00:00 AM 14.03 57.254 0.417 8.17 3.12 9.03
6/23/2021 3:15:00 AM 13.96 57.128 0.417 8.17 3.23 9.06
6/23/2021 3:30:00 AM 13.88 56.984 0.417 8.16 3.87 9.08
6/23/2021 3:45:00 AM 14.02 57.236 0.414 8.16 3.49 9.01
6/23/2021 4:00:00 AM 13.93 57.074 0.415 8.15 7.11 9.04
6/23/2021 4:15:00 AM 13.84 56.912 0.415 8.15 8.95 9.07
6/23/2021 4:30:00 AM 13.75 56.75 0.414 8.16 3.94 9.08
6/23/2021 4:45:00 AM 13.67 56.606 0.414 8.16 3.55 9.04
6/23/2021 5:00:00 AM 13.58 56.444 0.414 8.15 4.08 9.05
6/23/2021 5:15:00 AM 13.5 56.3 0.415 8.14 6.75 9.1
6/23/2021 5:30:00 AM 13.43 56.174 0.415 8.15 3.4 8.94
6/23/2021 5:45:00 AM 13.35 56.03 0.414 8.15 3.81 9.14
6/23/2021 6:00:00 AM 13.28 55.904 0.414 8.15 2.92 9.2
6/23/2021 6:15:00 AM 13.22 55.796 0.415 8.15 6.24 9.25
6/23/2021 6:30:00 AM 13.17 55.706 0.414 8.16 2.94 9.17
6/23/2021 6:45:00 AM 13.13 55.634 0.415 8.17 2.7 9.36
6/23/2021 7:00:00 AM 13.1 55.58 0.413 8.17 6.36 9.48
6/23/2021 7:15:00 AM 13.08 55.544 0.414 8.19 2.62 9.53
6/23/2021 7:30:00 AM 13.07 55.526 0.412 8.19 5.33 9.62
6/23/2021 7:45:00 AM 13.08 55.544 0.412 8.2 2.59 9.7
6/23/2021 8:00:00 AM 13.12 55.616 0.412 8.23 2.6 9.86
6/23/2021 8:15:00 AM 13.14 55.652 0.411 8.23 5.44 9.85
6/23/2021 8:30:00 AM 13.19 55.742 0.411 8.24 5.67 10
6/23/2021 8:45:00 AM 13.34 56.012 0.413 8.25 5.17 10.13
6/23/2021 9:00:00 AM 13.46 56.228 0.412 8.28 2.32 10.14
6/23/2021 9:15:00 AM 13.56 56.408 0.411 8.28 2.37 10.15
6/23/2021 9:30:00 AM 13.67 56.606 0.411 8.31 2.44 10.29
6/23/2021 9:45:00 AM 13.83 56.894 0.411 8.31 5.34 10.44
6/23/2021 10:00:00 AM 13.95 57.11 0.411 8.33 2.3 10.26
6/23/2021 10:15:00 AM 14.04 57.272 0.411 8.33 2.3 10.05
6/23/2021 10:30:00 AM 14.18 57.524 0.41 8.34 5.51 10.55
6/23/2021 10:45:00 AM 14.43 57.974 0.409 8.37 2.66 10.73
6/23/2021 11:00:00 AM 14.75 58.55 0.409 8.38 5.61 10.87
6/23/2021 11:15:00 AM 15.01 59.018 0.409 8.4 2.32 10.86
6/23/2021 11:30:00 AM 15.14 59.252 0.407 8.4 5.3 10.8
6/23/2021 11:45:00 AM 15.35 59.63 0.407 8.42 2.57 10.82
6/23/2021 12:00:00 PM 15.7 60.26 0.406 8.44 2.27 10.81
6/23/2021 12:15:00 PM 16.02 60.836 0.407 8.45 2.19 10.75
6/23/2021 12:30:00 PM 16.38 61.484 0.406 8.47 2.43 10.79
6/23/2021 12:45:00 PM 16.77 62.186 0.404 8.48 2.86 10.86
6/23/2021 1:00:00 PM 16.96 62.528 0.405 8.49 2.33 10.73
6/23/2021 1:15:00 PM 17.21 62.978 0.403 8.49 2.45 10.64
6/23/2021 1:30:00 PM 17.33 63.194 0.403 8.5 2.49 10.69
6/23/2021 1:45:00 PM 17.74 63.932 0.403 8.51 2.45 10.92
6/23/2021 2:00:00 PM 18.16 64.688 0.403 8.52 2.52 10.9
6/23/2021 2:15:00 PM 18.49 65.282 0.402 8.53 2.87 10.84
6/23/2021 2:30:00 PM 18.84 65.912 0.401 8.54 2.55 10.93
6/23/2021 2:45:00 PM 19.03 66.254 0.401 8.53 5.85 10.82
6/23/2021 3:00:00 PM 19.42 66.956 0.401 8.55 2.41 10.61
6/23/2021 3:15:00 PM 19.82 67.676 0.4 8.56 3.2 10.74
6/23/2021 3:30:00 PM 19.99 67.982 0.4 8.56 2.45 10.6
6/23/2021 3:45:00 PM 20.24 68.432 0.4 8.56 2.43 10.69
6/23/2021 4:00:00 PM 20.45 68.81 0.399 8.56 2.65 10.72
6/23/2021 4:15:00 PM 20.57 69.026 0.4 8.56 2.68 10.55
6/23/2021 4:30:00 PM 20.69 69.242 0.399 8.55 5.57 10.57
6/23/2021 4:45:00 PM 20.65 69.17 0.399 8.56 2.81 10.36
6/23/2021 5:00:00 PM 20.5 68.9 0.4 8.55 2.73 10.32
6/23/2021 5:15:00 PM 20.35 68.63 0.4 8.54 2.75 10.17
6/23/2021 5:30:00 PM 20.2 68.36 0.4 8.54 3 9.93
6/23/2021 5:45:00 PM 20.17 68.306 0.4 8.53 2.85 10.03
6/23/2021 6:00:00 PM 20.08 68.144 0.402 8.52 2.63 9.74
6/23/2021 6:15:00 PM 19.92 67.856 0.401 8.52 2.55 9.82
6/23/2021 6:30:00 PM 19.71 67.478 0.402 8.51 2.55 9.58
6/23/2021 6:45:00 PM 19.49 67.082 0.402 8.49 2.92 9.61
6/23/2021 7:00:00 PM 19.25 66.65 0.404 8.48 3.07 9.47
6/23/2021 7:15:00 PM 19.03 66.254 0.404 8.45 2.71 9.26
6/23/2021 7:30:00 PM 18.82 65.876 0.405 8.42 5.85 9.2
6/23/2021 7:45:00 PM 18.58 65.444 0.406 8.41 3.06 9.06
6/23/2021 8:00:00 PM 18.36 65.048 0.407 8.4 2.98 8.99
6/23/2021 8:15:00 PM 18.13 64.634 0.407 8.38 3.06 8.8
6/23/2021 8:30:00 PM 17.91 64.238 0.408 8.36 3.04 8.79
6/23/2021 8:45:00 PM 17.69 63.842 0.409 8.34 3.22 8.64
6/23/2021 9:00:00 PM 17.53 63.554 0.408 8.31 3.34 8.62
6/23/2021 9:15:00 PM 17.34 63.212 0.41 8.3 3.33 8.63
6/23/2021 9:30:00 PM 17.18 62.924 0.41 8.29 3.52 8.64
6/23/2021 9:45:00 PM 17.04 62.672 0.411 8.28 3.35 8.61
6/23/2021 10:00:00 PM 16.91 62.438 0.411 8.27 3.48 8.6
6/23/2021 10:15:00 PM 16.79 62.222 0.412 8.25 3.37 8.58
6/23/2021 10:30:00 PM 16.66 61.988 0.412 8.24 3.24 8.56
6/23/2021 10:45:00 PM 16.55 61.79 0.412 8.24 2.97 8.56
6/23/2021 11:00:00 PM 16.44 61.592 0.413 8.23 3.06 8.55
6/23/2021 11:15:00 PM 16.32 61.376 0.413 8.22 3.96 8.55
6/23/2021 11:30:00 PM 16.22 61.196 0.413 8.21 3 8.56
6/23/2021 11:45:00 PM 16.11 60.998 0.414 8.19 6.55 8.58
6/24/2021 12:00:00 AM 15.99 60.782 0.414 8.19 3.58 8.59
6/24/2021 12:15:00 AM 15.89 60.602 0.414 8.19 3.07 8.61
6/24/2021 12:30:00 AM 15.78 60.404 0.415 8.19 3.67 8.62
6/24/2021 12:45:00 AM 15.66 60.188 0.415 8.18 3.41 8.66
6/24/2021 1:00:00 AM 15.54 59.972 0.415 8.18 2.72 8.67
6/24/2021 1:15:00 AM 15.43 59.774 0.416 8.17 3.9 8.68
6/24/2021 1:30:00 AM 15.31 59.558 0.416 8.17 3.24 8.74
6/24/2021 1:45:00 AM 15.2 59.36 0.416 8.17 4.56 8.75
6/24/2021 2:00:00 AM 15.09 59.162 0.417 8.16 3.34 8.77
6/24/2021 2:15:00 AM 14.97 58.946 0.417 8.15 3.63 8.72
6/24/2021 2:30:00 AM 14.86 58.748 0.417 8.15 3.41 8.79
6/24/2021 2:45:00 AM 14.76 58.568 0.418 8.14 6.56 8.83
6/24/2021 3:00:00 AM 14.65 58.37 0.418 8.15 4.3 8.84
6/24/2021 3:15:00 AM 14.54 58.172 0.418 8.14 3.23 8.9
6/24/2021 3:30:00 AM 14.45 58.01 0.418 8.14 3.23 8.9
6/24/2021 3:45:00 AM 14.35 57.83 0.419 8.14 3.71 8.93
6/24/2021 4:00:00 AM 14.26 57.668 0.419 8.14 4.64 8.95
6/24/2021 4:15:00 AM 14.17 57.506 0.419 8.14 3.56 8.98
6/24/2021 4:30:00 AM 14.08 57.344 0.419 8.13 3.97 8.93
6/24/2021 4:45:00 AM 14 57.2 0.419 8.13 5.14 8.98
6/24/2021 5:00:00 AM 13.94 57.092 0.419 8.13 4.5 8.97
6/24/2021 5:15:00 AM 13.86 56.948 0.419 8.12 10.34 9
6/24/2021 5:30:00 AM 14.02 57.236 0.417 8.12 4.43 8.91
6/24/2021 5:45:00 AM 13.94 57.092 0.417 8.12 3.09 8.9
6/24/2021 6:00:00 AM 13.87 56.966 0.417 8.12 6.46 8.96
6/24/2021 6:15:00 AM 13.81 56.858 0.417 8.13 2.92 9.01
6/24/2021 6:30:00 AM 13.75 56.75 0.417 8.13 4.15 9.09
6/24/2021 6:45:00 AM 13.72 56.696 0.417 8.14 3.03 9.17
6/24/2021 7:00:00 AM 13.69 56.642 0.417 8.15 2.93 9.26
6/24/2021 7:15:00 AM 13.68 56.624 0.417 8.14 5.72 9.35
6/24/2021 7:30:00 AM 13.69 56.642 0.417 8.16 2.57 9.35
6/24/2021 7:45:00 AM 13.73 56.714 0.417 8.18 2.65 9.44
6/24/2021 8:00:00 AM 13.78 56.804 0.417 8.19 2.65 9.66
6/24/2021 8:15:00 AM 13.84 56.912 0.417 8.2 2.47 9.7
6/24/2021 8:30:00 AM 13.92 57.056 0.416 8.21 2.41 9.75
6/24/2021 8:45:00 AM 14.02 57.236 0.416 8.21 5.69 9.89
6/24/2021 9:00:00 AM 14.13 57.434 0.416 8.23 3.32 9.94
6/24/2021 9:15:00 AM 14.26 57.668 0.416 8.25 2.3 10.08
6/24/2021 9:30:00 AM 14.42 57.956 0.415 8.25 5.83 10.15
6/24/2021 9:45:00 AM 14.58 58.244 0.415 8.28 2.35 10.19
6/24/2021 10:00:00 AM 14.77 58.586 0.415 8.28 5.29 10.31
6/24/2021 10:15:00 AM 14.99 58.982 0.414 8.3 2.26 10.34
6/24/2021 10:30:00 AM 15.21 59.378 0.414 8.31 2.27 10.35
6/24/2021 10:45:00 AM 15.49 59.882 0.414 8.32 5.14 10.47
6/24/2021 11:00:00 AM 15.75 60.35 0.413 8.34 2.13 10.57
6/24/2021 11:15:00 AM 16.05 60.89 0.413 8.36 2.34 10.62
6/24/2021 11:30:00 AM 16.39 61.502 0.413 8.37 2.15 10.6
6/24/2021 11:45:00 AM 16.74 62.132 0.412 8.38 2.81 10.61
6/24/2021 12:00:00 PM 17.13 62.834 0.411 8.4 2.24 10.65
6/24/2021 12:15:00 PM 17.5 63.5 0.411 8.41 2.46 10.69
6/24/2021 12:30:00 PM 17.92 64.256 0.41 8.43 2.67 10.71
6/24/2021 12:45:00 PM 18.36 65.048 0.41 8.43 5.49 10.77
6/24/2021 1:00:00 PM 18.8 65.84 0.409 8.44 5.4 10.84
6/24/2021 1:15:00 PM 19.26 66.668 0.408 8.46 2.31 10.89
6/24/2021 1:30:00 PM 19.72 67.496 0.408 8.49 2.64 10.9
6/24/2021 1:45:00 PM 20.17 68.306 0.407 8.5 2.89 10.96
6/24/2021 2:00:00 PM 20.6 69.08 0.407 8.51 2.55 10.92
6/24/2021 2:15:00 PM 21.03 69.854 0.406 8.52 2.98 10.89
6/24/2021 2:30:00 PM 21.43 70.574 0.405 8.53 2.77 10.91
6/24/2021 2:45:00 PM 21.82 71.276 0.404 8.54 2.37 10.87
6/24/2021 3:00:00 PM 22.19 71.942 0.404 8.55 2.71 10.81
6/24/2021 3:15:00 PM 22.5 72.5 0.403 8.56 2.78 10.75
6/24/2021 3:30:00 PM 22.76 72.968 0.403 8.56 2.83 10.68
6/24/2021 3:45:00 PM 23.02 73.436 0.403 8.57 2.6 10.57
6/24/2021 4:00:00 PM 23.23 73.814 0.402 8.57 3.61 10.53
6/24/2021 4:15:00 PM 23.37 74.066 0.402 8.57 2.93 10.38
6/24/2021 4:30:00 PM 23.46 74.228 0.402 8.57 2.67 10.35
6/24/2021 4:45:00 PM 23.52 74.336 0.402 8.56 2.73 10.16
6/24/2021 5:00:00 PM 23.55 74.39 0.402 8.56 3.11 10.14
6/24/2021 5:15:00 PM 23.53 74.354 0.402 8.56 3.05 9.92
6/24/2021 5:30:00 PM 23.44 74.192 0.403 8.55 2.94 9.88
6/24/2021 5:45:00 PM 23.33 73.994 0.403 8.55 2.92 9.73
6/24/2021 6:00:00 PM 23.18 73.724 0.404 8.53 2.93 9.58
6/24/2021 6:15:00 PM 22.99 73.382 0.404 8.52 2.87 9.41
6/24/2021 6:30:00 PM 22.79 73.022 0.405 8.51 3.01 9.25
6/24/2021 6:45:00 PM 22.55 72.59 0.406 8.49 3.26 9.09
6/24/2021 7:00:00 PM 22.29 72.122 0.407 8.47 3.32 8.83
6/24/2021 7:15:00 PM 22.02 71.636 0.408 8.46 3.94 8.78
6/24/2021 7:30:00 PM 21.76 71.168 0.41 8.44 3.42 8.58
6/24/2021 7:45:00 PM 21.48 70.664 0.411 8.41 3.41 8.46
6/24/2021 8:00:00 PM 21.22 70.196 0.411 8.38 3.38 8.28
6/24/2021 8:15:00 PM 20.97 69.746 0.413 8.36 3.39 8.11
6/24/2021 8:30:00 PM 20.73 69.314 0.414 8.33 3.43 8.05
6/24/2021 8:45:00 PM 20.49 68.882 0.415 8.31 3.14 7.95
6/24/2021 9:00:00 PM 20.28 68.504 0.415 8.29 3.81 7.96
6/24/2021 9:15:00 PM 20.09 68.162 0.416 8.27 3.51 7.89
6/24/2021 9:30:00 PM 19.93 67.874 0.416 8.26 50.26 7.84
6/24/2021 9:45:00 PM 19.76 67.568 0.417 8.24 6.69 7.85
6/24/2021 10:00:00 PM 19.63 67.334 0.417 8.24 3.45 7.81
6/24/2021 10:15:00 PM 19.49 67.082 0.417 8.21 5.51 7.78
6/24/2021 10:30:00 PM 19.36 66.848 0.417 8.21 3.63 7.81
6/24/2021 10:45:00 PM 19.23 66.614 0.418 8.2 3.31 7.79
6/24/2021 11:00:00 PM 19.1 66.38 0.418 8.2 3.79 7.81
6/24/2021 11:15:00 PM 18.98 66.164 0.418 8.19 4.97 7.81
6/24/2021 11:30:00 PM 18.87 65.966 0.419 8.18 3.51 7.79
6/24/2021 11:45:00 PM 18.75 65.75 0.419 8.18 3.46 7.82
6/25/2021 12:00:00 AM 18.63 65.534 0.416 8.16 3.85 7.85
6/25/2021 12:15:00 AM 18.52 65.336 0.419 8.17 3.94 7.87
6/25/2021 12:30:00 AM 18.41 65.138 0.42 8.16 3.58 7.88
6/25/2021 12:45:00 AM 18.29 64.922 0.42 8.16 3.85 7.91
6/25/2021 1:00:00 AM 18.16 64.688 0.42 8.16 3.54 7.94
6/25/2021 1:15:00 AM 18.05 64.49 0.421 8.14 6.8 7.97
6/25/2021 1:30:00 AM 17.94 64.292 0.421 8.15 3.62 7.96
6/25/2021 1:45:00 AM 17.81 64.058 0.421 8.14 3.81 7.98
6/25/2021 2:00:00 AM 17.7 63.86 0.422 8.14 3.78 8.01
6/25/2021 2:15:00 AM 17.57 63.626 0.422 8.13 4.02 8.05
6/25/2021 2:30:00 AM 17.45 63.41 0.422 8.14 3.88 8.08
6/25/2021 2:45:00 AM 17.33 63.194 0.423 8.13 6.69 8.13
6/25/2021 3:00:00 AM 17.22 62.996 0.423 8.13 3.53 8.11
6/25/2021 3:15:00 AM 17.1 62.78 0.424 8.13 3.62 8.13
6/25/2021 3:30:00 AM 16.99 62.582 0.424 8.13 3.48 8.18
6/25/2021 3:45:00 AM 16.89 62.402 0.424 8.13 3.42 8.2
6/25/2021 4:00:00 AM 16.78 62.204 0.425 8.13 3.98 8.23
6/25/2021 4:15:00 AM 16.66 61.988 0.425 8.12 3.74 8.24
6/25/2021 4:30:00 AM 16.56 61.808 0.426 8.12 5.62 8.24
6/25/2021 4:45:00 AM 16.44 61.592 0.426 8.12 5.29 8.28
6/25/2021 5:00:00 AM 16.34 61.412 0.426 8.12 16.8 8.3
6/25/2021 5:15:00 AM 16.22 61.196 0.426 8.12 4.72 8.31
6/25/2021 5:30:00 AM 16.13 61.034 0.427 8.12 3.93 8.37
6/25/2021 5:45:00 AM 16.03 60.854 0.427 8.12 3.74 8.4
6/25/2021 6:00:00 AM 15.94 60.692 0.427 8.12 3.37 8.39
6/25/2021 6:15:00 AM 15.86 60.548 0.427 8.12 3.21 8.45
6/25/2021 6:30:00 AM 15.79 60.422 0.427 8.13 3.44 8.5
6/25/2021 6:45:00 AM 15.74 60.332 0.427 8.13 3.05 8.68
6/25/2021 7:00:00 AM 15.71 60.278 0.427 8.14 3.61 8.74
6/25/2021 7:15:00 AM 15.69 60.242 0.427 8.16 3.01 8.9
6/25/2021 7:30:00 AM 15.69 60.242 0.427 8.17 6.04 9.03
6/25/2021 7:45:00 AM 15.69 60.242 0.427 8.19 3.98 9.16
6/25/2021 8:00:00 AM 15.7 60.26 0.427 8.2 3.75 9.24
6/25/2021 8:15:00 AM 15.75 60.35 0.426 8.22 3.09 9.47
6/25/2021 8:30:00 AM 15.83 60.494 0.426 8.24 2.99 9.61
6/25/2021 8:45:00 AM 15.9 60.62 0.426 8.26 2.91 9.76
6/25/2021 9:00:00 AM 15.98 60.764 0.425 8.27 2.72 9.77
6/25/2021 9:15:00 AM 16.09 60.962 0.425 8.29 2.69 9.93
6/25/2021 9:30:00 AM 16.23 61.214 0.424 8.31 2.59 10.03
6/25/2021 9:45:00 AM 16.39 61.502 0.424 8.32 5.68 10.23
6/25/2021 10:00:00 AM 16.56 61.808 0.423 8.34 2.56 10.24
6/25/2021 10:15:00 AM 16.75 62.15 0.423 8.36 2.41 10.27
6/25/2021 10:30:00 AM 16.98 62.564 0.422 8.37 2.63 10.46
6/25/2021 10:45:00 AM 17.19 62.942 0.421 8.39 2.76 10.56
6/25/2021 11:00:00 AM 17.45 63.41 0.421 8.41 2.79 10.69
6/25/2021 11:15:00 AM 17.7 63.86 0.42 8.42 3.04 10.72
6/25/2021 11:30:00 AM 17.97 64.346 0.419 8.44 2.47 10.82
6/25/2021 11:45:00 AM 18.29 64.922 0.419 8.45 2.63 10.89
6/25/2021 12:00:00 PM 18.63 65.534 0.418 8.47 2.85 10.93
6/25/2021 12:15:00 PM 19.06 66.308 0.417 8.47 5.81 11.01
6/25/2021 12:30:00 PM 19.38 66.884 0.416 8.49 2.52 11.05
6/25/2021 12:45:00 PM 19.81 67.658 0.416 8.51 2.73 11.12
6/25/2021 1:00:00 PM 20.21 68.378 0.415 8.52 4.86 11.12
6/25/2021 1:15:00 PM 20.63 69.134 0.414 8.54 4.73 11.14
6/25/2021 1:30:00 PM 21.05 69.89 0.413 8.54 3.35 11.2
6/25/2021 1:45:00 PM 21.4 70.52 0.412 8.56 5.27 11.21
6/25/2021 2:00:00 PM 21.78 71.204 0.411 8.57 3.04 11.06
6/25/2021 2:15:00 PM 22.17 71.906 0.41 8.58 3.28 11.08
6/25/2021 2:30:00 PM 22.47 72.446 0.41 8.58 2.73 11.05
6/25/2021 2:45:00 PM 22.72 72.896 0.409 8.59 2.85 11
6/25/2021 3:00:00 PM 22.89 73.202 0.408 8.61 2.96 11.01
6/25/2021 3:15:00 PM 23.03 73.454 0.407 8.62 2.87 10.96
6/25/2021 3:30:00 PM 23.22 73.796 0.406 8.62 4.08 10.84
6/25/2021 3:45:00 PM 23.34 74.012 0.405 8.63 2.6 10.83
6/25/2021 4:00:00 PM 23.42 74.156 0.405 8.63 2.48 10.66
6/25/2021 4:15:00 PM 23.49 74.282 0.405 8.63 3.24 10.66
6/25/2021 4:30:00 PM 23.56 74.408 0.405 8.63 2.81 10.43
6/25/2021 4:45:00 PM 23.6 74.48 0.404 8.63 3.22 10.47
6/25/2021 5:00:00 PM 23.61 74.498 0.404 8.62 2.78 10.24
6/25/2021 5:15:00 PM 23.63 74.534 0.404 8.62 4.65 10.21
6/25/2021 5:30:00 PM 23.63 74.534 0.404 8.61 3.7 10.16
6/25/2021 5:45:00 PM 23.56 74.408 0.405 8.6 3.68 10.02
6/25/2021 6:00:00 PM 23.45 74.21 0.405 8.6 3.62 9.86
6/25/2021 6:15:00 PM 23.3 73.94 0.405 8.58 3.51 9.63
6/25/2021 6:30:00 PM 23.14 73.652 0.407 8.57 3.06 9.46
6/25/2021 6:45:00 PM 22.97 73.346 0.408 8.55 3.58 9.33
6/25/2021 7:00:00 PM 22.8 73.04 0.409 8.54 4.65 9.19
6/25/2021 7:15:00 PM 22.63 72.734 0.41 8.52 2.82 8.98
6/25/2021 7:30:00 PM 22.48 72.464 0.411 8.5 2.94 8.8
6/25/2021 7:45:00 PM 22.33 72.194 0.413 8.48 4.91 8.59
6/25/2021 8:00:00 PM 22.18 71.924 0.413 8.46 2.79 8.53
6/25/2021 8:15:00 PM 22.01 71.618 0.415 8.44 3.1 8.38
6/25/2021 8:30:00 PM 21.83 71.294 0.416 8.41 2.94 8.21
6/25/2021 8:45:00 PM 21.62 70.916 0.418 8.38 3.17 8.04
6/25/2021 9:00:00 PM 21.45 70.61 0.419 8.36 3.18 7.88
6/25/2021 9:15:00 PM 21.25 70.25 0.42 8.33 4.34 7.79
6/25/2021 9:30:00 PM 21.09 69.962 0.421 8.31 3.31 7.69
6/25/2021 9:45:00 PM 20.93 69.674 0.422 8.29 3.71 7.65
6/25/2021 10:00:00 PM 20.79 69.422 0.423 8.27 22.62 7.57
6/25/2021 10:15:00 PM 20.65 69.17 0.424 8.25 3.61 7.53
6/25/2021 10:30:00 PM 20.53 68.954 0.424 8.23 3.29 7.49
6/25/2021 10:45:00 PM 20.42 68.756 0.425 8.22 3.28 7.44
6/25/2021 11:00:00 PM 20.3 68.54 0.425 8.21 3.23 7.46
6/25/2021 11:15:00 PM 20.19 68.342 0.426 8.2 3.45 7.44
6/25/2021 11:30:00 PM 20.09 68.162 0.426 8.18 6.22 7.44
6/25/2021 11:45:00 PM 19.98 67.964 0.426 8.17 6.79 7.46
6/26/2021 12:00:00 AM 19.88 67.784 0.426 8.16 3.56 7.44
6/26/2021 12:15:00 AM 19.78 67.604 0.427 8.16 6.54 7.47
6/26/2021 12:30:00 AM 19.67 67.406 0.427 8.14 7 7.46
6/26/2021 12:45:00 AM 19.57 67.226 0.427 8.15 3.12 7.48
6/26/2021 1:00:00 AM 19.48 67.064 0.427 8.15 3.26 7.49
6/26/2021 1:15:00 AM 19.38 66.884 0.427 8.14 3.83 7.5
6/26/2021 1:30:00 AM 19.3 66.74 0.427 8.14 3.86 7.51
6/26/2021 1:45:00 AM 19.21 66.578 0.427 8.13 4.4 7.53
6/26/2021 2:00:00 AM 19.12 66.416 0.428 8.13 3.53 7.54
6/26/2021 2:15:00 AM 19.03 66.254 0.428 8.13 3.93 7.58
6/26/2021 2:30:00 AM 18.94 66.092 0.428 8.13 3.62 7.58
6/26/2021 2:45:00 AM 18.87 65.966 0.428 8.12 4.24 7.62
6/26/2021 3:00:00 AM 18.79 65.82201 0.428 8.12 3.57 7.63
6/26/2021 3:15:00 AM 18.71 65.67799 0.428 8.12 4.23 7.64
6/26/2021 3:30:00 AM 18.64 65.552 0.429 8.12 4.22 7.68
6/26/2021 3:45:00 AM 18.56 65.408 0.429 8.12 4.26 7.7
6/26/2021 4:00:00 AM 18.48 65.264 0.429 8.11 3.96 7.71
6/26/2021 4:15:00 AM 18.42 65.156 0.429 8.11 4.7 7.73
6/26/2021 4:30:00 AM 18.36 65.048 0.429 8.11 3.98 7.75
6/26/2021 4:45:00 AM 18.3 64.94 0.43 8.1 5.13 7.73
6/26/2021 5:00:00 AM 18.24 64.832 0.43 8.1 4.39 7.75
6/26/2021 5:15:00 AM 18.18 64.724 0.43 8.1 4.47 7.72
6/26/2021 5:30:00 AM 18.12 64.616 0.431 8.1 4.28 7.76
6/26/2021 5:45:00 AM 18.07 64.526 0.431 8.1 4.4 7.81
6/26/2021 6:00:00 AM 18.02 64.436 0.431 8.1 4.07 7.81
6/26/2021 6:15:00 AM 17.97 64.346 0.431 8.11 4.78 7.89
6/26/2021 6:30:00 AM 17.93 64.274 0.431 8.11 3.96 7.93
6/26/2021 6:45:00 AM 17.9 64.22 0.431 8.11 4.67 8.01
6/26/2021 7:00:00 AM 17.87 64.166 0.431 8.12 3.69 8.1
6/26/2021 7:15:00 AM 17.85 64.13 0.432 8.13 4.26 8.16
6/26/2021 7:30:00 AM 17.84 64.112 0.432 8.13 7.65 8.26
6/26/2021 7:45:00 AM 17.84 64.112 0.432 8.14 3.21 8.33
6/26/2021 8:00:00 AM 17.84 64.112 0.432 8.15 3.23 8.4
6/26/2021 8:15:00 AM 17.86 64.148 0.432 8.17 4.97 8.47
6/26/2021 8:30:00 AM 17.89 64.202 0.432 8.19 3.74 8.67
6/26/2021 8:45:00 AM 17.93 64.274 0.432 8.18 2.85 8.75
6/26/2021 9:00:00 AM 17.98 64.364 0.431 8.2 2.99 8.88
6/26/2021 9:15:00 AM 18.06 64.508 0.431 8.22 3.15 9.04
6/26/2021 9:30:00 AM 18.14 64.652 0.431 8.24 2.86 9.25
6/26/2021 9:45:00 AM 18.18 64.724 0.43 8.25 3 9.27
6/26/2021 10:00:00 AM 18.2 64.76 0.43 8.27 2.71 9.28
6/26/2021 10:15:00 AM 18.26 64.868 0.43 8.28 3 9.28
6/26/2021 10:30:00 AM 18.38 65.084 0.43 8.3 3.01 9.51
6/26/2021 10:45:00 AM 18.52 65.336 0.429 8.32 3.32 9.7
6/26/2021 11:00:00 AM 18.67 65.606 0.428 8.35 2.69 9.87
6/26/2021 11:15:00 AM 18.79 65.82201 0.428 8.37 3.11 10.04
6/26/2021 11:30:00 AM 18.86 65.948 0.428 8.37 5.91 10.08
6/26/2021 11:45:00 AM 18.94 66.092 0.427 8.38 5.73 10.07
6/26/2021 12:00:00 PM 19.04 66.272 0.427 8.4 2.51 10.16
6/26/2021 12:15:00 PM 19.13 66.434 0.427 8.41 3.22 10.18
6/26/2021 12:30:00 PM 19.27 66.686 0.426 8.43 2.67 10.34
6/26/2021 12:45:00 PM 19.44 66.992 0.425 8.45 2.69 10.43
6/26/2021 1:00:00 PM 19.78 67.604 0.425 8.47 2.85 10.61
6/26/2021 1:15:00 PM 20.04 68.07201 0.424 8.48 4.24 10.73
6/26/2021 1:30:00 PM 20.28 68.504 0.423 8.5 5.3 10.84
6/26/2021 1:45:00 PM 20.51 68.918 0.422 8.51 4.24 10.95
6/26/2021 2:00:00 PM 20.82 69.476 0.421 8.53 2.85 11.07
6/26/2021 2:15:00 PM 21.19 70.142 0.421 8.54 3.2 11.1
6/26/2021 2:30:00 PM 21.65 70.97 0.42 8.55 3.23 11.21
6/26/2021 2:45:00 PM 21.96 71.528 0.42 8.56 7.31 11.11
6/26/2021 3:00:00 PM 22.14 71.852 0.419 8.57 3.32 11.07
6/26/2021 3:15:00 PM 22.39 72.302 0.418 8.58 3.15 11.05
6/26/2021 3:30:00 PM 22.52 72.536 0.418 8.58 2.76 10.92
6/26/2021 3:45:00 PM 22.79 73.022 0.417 8.59 2.59 11
6/26/2021 4:00:00 PM 23.15 73.67 0.416 8.6 4.2 10.99
6/26/2021 4:15:00 PM 23.48 74.264 0.416 8.6 4.26 10.9
6/26/2021 4:30:00 PM 23.71 74.67799 0.415 8.6 3.01 10.79
6/26/2021 4:45:00 PM 23.87 74.966 0.415 8.6 6.72 10.7
6/26/2021 5:00:00 PM 23.81 74.858 0.415 8.59 2.99 10.34
6/26/2021 5:15:00 PM 23.78 74.804 0.415 8.58 2.83 10.18
6/26/2021 5:30:00 PM 23.74 74.732 0.415 8.58 2.77 10.17
6/26/2021 5:45:00 PM 23.75 74.75 0.415 8.58 2.74 10.02
6/26/2021 6:00:00 PM 23.73 74.714 0.416 8.56 3.12 9.66
6/26/2021 6:15:00 PM 23.72 74.696 0.416 8.55 3.23 9.5
6/26/2021 6:30:00 PM 23.66 74.588 0.416 8.54 3.24 9.32
6/26/2021 6:45:00 PM 23.62 74.516 0.417 8.54 3.33 9.28
6/26/2021 7:00:00 PM 23.53 74.354 0.417 8.52 3.24 9.02
6/26/2021 7:15:00 PM 23.39 74.102 0.419 8.5 3.27 8.88
6/26/2021 7:30:00 PM 23.22 73.796 0.42 8.47 2.94 8.61
6/26/2021 7:45:00 PM 23.03 73.454 0.421 8.45 2.84 8.37
6/26/2021 8:00:00 PM 22.88 73.184 0.422 8.43 2.88 8.15
6/26/2021 8:15:00 PM 22.71 72.878 0.424 8.41 2.97 8.05
6/26/2021 8:30:00 PM 22.53 72.554 0.425 8.38 3.2 7.92
6/26/2021 8:45:00 PM 22.36 72.248 0.426 8.35 3.78 7.74
6/26/2021 9:00:00 PM 22.19 71.942 0.427 8.33 3.3 7.64
6/26/2021 9:15:00 PM 22 71.6 0.428 8.31 3.54 7.63
6/26/2021 9:30:00 PM 21.88 71.384 0.429 8.29 4.26 7.49
6/26/2021 9:45:00 PM 21.74 71.132 0.43 8.27 3.6 7.42
6/26/2021 10:00:00 PM 21.63 70.934 0.431 8.24 4 7.35
6/26/2021 10:15:00 PM 21.51 70.718 0.431 8.23 3.54 7.31
6/26/2021 10:30:00 PM 21.42 70.556 0.432 8.22 3.66 7.29
6/26/2021 10:45:00 PM 21.33 70.394 0.432 8.2 3.44 7.23
6/26/2021 11:00:00 PM 21.25 70.25 0.433 8.18 3.76 7.2
6/26/2021 11:15:00 PM 21.17 70.106 0.433 8.18 3.95 7.19
6/26/2021 11:30:00 PM 21.1 69.98 0.433 8.16 3.7 7.21
6/26/2021 11:45:00 PM 21.03 69.854 0.433 8.16 4.26 7.17
6/27/2021 12:00:00 AM 20.96 69.728 0.434 8.15 4.68 7.16
6/27/2021 12:15:00 AM 20.9 69.62 0.434 8.14 4.14 7.15
6/27/2021 12:30:00 AM 20.82 69.476 0.434 8.13 3.75 7.16
6/27/2021 12:45:00 AM 20.75 69.35 0.434 8.13 4.11 7.2
6/27/2021 1:00:00 AM 20.69 69.242 0.434 8.12 3.35 7.21
6/27/2021 1:15:00 AM 20.63 69.134 0.434 8.12 4.22 7.2
6/27/2021 1:30:00 AM 20.58 69.044 0.434 8.11 3.66 7.2
6/27/2021 1:45:00 AM 20.52 68.936 0.434 8.11 4.16 7.2
6/27/2021 2:00:00 AM 20.47 68.846 0.434 8.11 4.25 7.23
6/27/2021 2:15:00 AM 20.41 68.738 0.434 8.11 4.47 7.26
6/27/2021 2:30:00 AM 20.36 68.648 0.434 8.1 3.86 7.27
6/27/2021 2:45:00 AM 20.3 68.54 0.434 8.1 4.71 7.27
6/27/2021 3:00:00 AM 20.25 68.45 0.434 8.09 4.53 7.25
6/27/2021 3:15:00 AM 20.18 68.324 0.434 8.09 4.19 7.31
6/27/2021 3:30:00 AM 20.12 68.216 0.435 8.09 4.09 7.32
6/27/2021 3:45:00 AM 20.06 68.108 0.435 8.09 4.26 7.33
6/27/2021 4:00:00 AM 20 68 0.435 8.09 4.97 7.35
6/27/2021 4:15:00 AM 19.95 67.91 0.435 8.08 5.05 7.34
6/27/2021 4:30:00 AM 19.89 67.802 0.435 8.08 6.7 7.39
6/27/2021 4:45:00 AM 19.84 67.712 0.435 8.08 5.28 7.39
6/27/2021 5:00:00 AM 19.78 67.604 0.436 8.08 4.42 7.32
6/27/2021 5:15:00 AM 19.72 67.496 0.436 8.07 7.83 7.4
6/27/2021 5:30:00 AM 19.67 67.406 0.436 8.06 7.5 7.38
6/27/2021 5:45:00 AM 19.61 67.298 0.436 8.08 6.28 7.43
6/27/2021 6:00:00 AM 19.57 67.226 0.436 8.08 4.79 7.42
6/27/2021 6:15:00 AM 19.53 67.154 0.436 8.07 7.2 7.5
6/27/2021 6:30:00 AM 19.5 67.1 0.437 8.09 4.16 7.57
6/27/2021 6:45:00 AM 19.48 67.064 0.436 8.1 4.31 7.67
6/27/2021 7:00:00 AM 19.47 67.046 0.437 8.09 6.5 7.78
6/27/2021 7:15:00 AM 19.45 67.01 0.436 8.12 3.6 7.89
6/27/2021 7:30:00 AM 19.45 67.01 0.436 8.12 6.86 7.97
6/27/2021 7:45:00 AM 19.45 67.01 0.436 8.14 3.96 8.1
6/27/2021 8:00:00 AM 19.48 67.064 0.436 8.15 6.46 8.2
6/27/2021 8:15:00 AM 19.53 67.154 0.436 8.17 6.31 8.37
6/27/2021 8:30:00 AM 19.61 67.298 0.436 8.17 6.23 8.46
6/27/2021 8:45:00 AM 19.69 67.442 0.435 8.2 4.03 8.58
6/27/2021 9:00:00 AM 19.79 67.622 0.435 8.22 4.51 8.71
6/27/2021 9:15:00 AM 19.91 67.838 0.435 8.24 3.63 8.86
6/27/2021 9:30:00 AM 20.06 68.108 0.434 8.26 4.15 9
6/27/2021 9:45:00 AM 20.22 68.396 0.434 8.26 4.27 9.08
6/27/2021 10:00:00 AM 20.4 68.72 0.434 8.28 5.11 9.16
6/27/2021 10:15:00 AM 20.62 69.116 0.433 8.29 3.43 9.31
6/27/2021 10:30:00 AM 20.82 69.476 0.433 8.31 3.34 9.25
6/27/2021 10:45:00 AM 20.99 69.782 0.433 8.32 4.6 9.35
6/27/2021 11:00:00 AM 21.2 70.16 0.433 8.34 3.34 9.5
6/27/2021 11:15:00 AM 21.47 70.646 0.432 8.36 3.38 9.69
6/27/2021 11:30:00 AM 21.8 71.24 0.431 8.38 2.74 9.79
6/27/2021 11:45:00 AM 22.07 71.726 0.43 8.4 3.47 9.85
6/27/2021 12:00:00 PM 22.24 72.032 0.428 8.41 3.53 10.04
6/27/2021 12:15:00 PM 22.52 72.536 0.428 8.42 3.23 10.11
6/27/2021 12:30:00 PM 22.66 72.788 0.427 8.45 2.81 10.1
6/27/2021 12:45:00 PM 22.85 73.13 0.427 8.46 3 10.14
6/27/2021 1:00:00 PM 22.99 73.382 0.426 8.47 3.2 10.02
6/27/2021 1:15:00 PM 23.2 73.76 0.426 8.49 3.07 10.29
6/27/2021 1:30:00 PM 23.5 74.3 0.424 8.5 3.61 10.23
6/27/2021 1:45:00 PM 23.97 75.146 0.424 8.5 3.23 10.25
6/27/2021 2:00:00 PM 24.45 76.01 0.423 8.51 3.29 10.31
6/27/2021 2:15:00 PM 24.92 76.856 0.422 8.53 3.36 10.34
6/27/2021 2:30:00 PM 25.3 77.54 0.421 8.54 3.12 10.33
6/27/2021 2:45:00 PM 25.55 77.99 0.42 8.53 3.05 10.11
6/27/2021 3:00:00 PM 25.94 78.692 0.42 8.54 2.96 10.07
6/27/2021 3:15:00 PM 26.25 79.25 0.42 8.55 3.03 10.16
6/27/2021 3:30:00 PM 26.48 79.664 0.419 8.55 3.91 10.09
6/27/2021 3:45:00 PM 26.68 80.024 0.418 8.55 3.62 10.04
6/27/2021 4:00:00 PM 26.86 80.348 0.418 8.55 6.12 10
6/27/2021 4:15:00 PM 27.03 80.654 0.418 8.55 3.44 9.9
6/27/2021 4:30:00 PM 27.2 80.96 0.419 8.55 3.18 9.69
6/27/2021 4:45:00 PM 27.33 81.194 0.419 8.54 3.38 9.64
6/27/2021 5:00:00 PM 27.42 81.356 0.419 8.53 3.49 9.43
6/27/2021 5:15:00 PM 27.44 81.392 0.419 8.53 3.04 9.29
6/27/2021 5:30:00 PM 27.42 81.356 0.42 8.52 3.31 9.22
6/27/2021 5:45:00 PM 27.37 81.266 0.42 8.51 3.98 8.97
6/27/2021 6:00:00 PM 27.3 81.14 0.421 8.49 3.84 8.8
6/27/2021 6:15:00 PM 27.22 80.996 0.421 8.49 4.12 8.61
6/27/2021 6:30:00 PM 27.09 80.762 0.422 8.47 5.99 8.45
6/27/2021 6:45:00 PM 26.94 80.492 0.424 8.45 5.08 8.18
6/27/2021 7:00:00 PM 26.76 80.168 0.425 8.44 3.98 7.92
6/27/2021 7:15:00 PM 26.58 79.844 0.426 8.42 3.84 7.82
6/27/2021 7:30:00 PM 26.38 79.484 0.427 8.39 3.48 7.52
6/27/2021 7:45:00 PM 26.17 79.106 0.428 8.38 3.67 7.46
6/27/2021 8:00:00 PM 25.97 78.746 0.43 8.36 5.43 7.38
6/27/2021 8:15:00 PM 25.77 78.386 0.431 8.33 3.48 7.05
6/27/2021 8:30:00 PM 25.54 77.972 0.432 8.31 3.63 7.09
6/27/2021 8:45:00 PM 25.32 77.576 0.434 8.28 4.3 6.85
6/27/2021 9:00:00 PM 25.1 77.18 0.435 8.25 4.22 6.76
6/27/2021 9:15:00 PM 24.86 76.748 0.436 8.24 4.57 6.74
6/27/2021 9:30:00 PM 24.65 76.37 0.437 8.22 5.2 6.69
6/27/2021 9:45:00 PM 24.44 75.992 0.437 8.2 4.15 6.64
6/27/2021 10:00:00 PM 24.25 75.65 0.438 8.19 4.5 6.6
6/27/2021 10:15:00 PM 24.09 75.362 0.439 8.17 5.71 6.57
6/27/2021 10:30:00 PM 23.95 75.11 0.439 8.16 3.91 6.53
6/27/2021 10:45:00 PM 23.82 74.876 0.439 8.14 4.33 6.5
6/27/2021 11:00:00 PM 23.69 74.642 0.439 8.13 3.57 6.53
6/27/2021 11:15:00 PM 23.57 74.426 0.44 8.13 3.88 6.54
6/27/2021 11:30:00 PM 23.47 74.246 0.44 8.12 3.71 6.54
6/27/2021 11:45:00 PM 23.37 74.066 0.44 8.11 4.93 6.53
6/28/2021 12:00:00 AM 23.27 73.886 0.44 8.11 4.16 6.55
6/28/2021 12:15:00 AM 23.17 73.706 0.44 8.1 4.15 6.52
6/28/2021 12:30:00 AM 23.07 73.526 0.44 8.09 4.09 6.58
6/28/2021 12:45:00 AM 22.99 73.382 0.44 8.09 5.28 6.6
6/28/2021 1:00:00 AM 22.9 73.22 0.44 8.08 3.91 6.59
6/28/2021 1:15:00 AM 22.82 73.076 0.44 8.08 4.41 6.62
6/28/2021 1:30:00 AM 22.73 72.914 0.44 8.08 7.5 6.69
6/28/2021 1:45:00 AM 22.64 72.752 0.44 8.08 5.08 6.66
6/28/2021 2:00:00 AM 22.56 72.608 0.44 8.07 5.01 6.65
6/28/2021 2:15:00 AM 22.47 72.446 0.44 8.08 4.21 6.73
6/28/2021 2:30:00 AM 22.39 72.302 0.44 8.07 4.51 6.76
6/28/2021 2:45:00 AM 22.31 72.158 0.44 8.07 4.75 6.72
6/28/2021 3:00:00 AM 22.22 71.996 0.44 8.07 5.17 6.76
6/28/2021 3:15:00 AM 22.15 71.87 0.44 8.06 4.57 6.77
6/28/2021 3:30:00 AM 22.07 71.726 0.441 8.06 4.95 6.75
6/28/2021 3:45:00 AM 22 71.6 0.441 8.06 4.1 6.84
6/28/2021 4:00:00 AM 21.93 71.474 0.441 8.06 4.48 6.82
6/28/2021 4:15:00 AM 21.86 71.348 0.441 8.06 5.1 6.86
6/28/2021 4:30:00 AM 21.79 71.222 0.441 8.06 5.13 6.87
6/28/2021 4:45:00 AM 21.72 71.096 0.441 8.06 4.77 6.88
6/28/2021 5:00:00 AM 21.66 70.988 0.442 8.05 6.06 6.88
6/28/2021 5:15:00 AM 21.61 70.898 0.442 8.05 5.75 6.84
6/28/2021 5:30:00 AM 21.56 70.808 0.442 8.05 5.51 6.67
6/28/2021 5:45:00 AM 21.5 70.7 0.443 8.05 5.41 6.86
6/28/2021 6:00:00 AM 21.44 70.592 0.443 8.05 4.23 6.78
6/28/2021 6:15:00 AM 21.41 70.538 0.443 8.05 4.25 6.71
6/28/2021 6:30:00 AM 21.37 70.466 0.443 8.06 3.98 6.85
6/28/2021 6:45:00 AM 21.35 70.43 0.443 8.07 4.19 7.09
6/28/2021 7:00:00 AM 21.33 70.394 0.443 8.08 4.19 7.27
6/28/2021 7:15:00 AM 21.32 70.376 0.443 8.09 4.03 7.25
6/28/2021 7:30:00 AM 21.31 70.358 0.443 8.1 3.54 7.47
6/28/2021 7:45:00 AM 21.32 70.376 0.443 8.12 3.7 7.61
6/28/2021 8:00:00 AM 21.32 70.376 0.443 8.13 3.8 7.72
6/28/2021 8:15:00 AM 21.31 70.358 0.443 8.14 3.74 7.76
6/28/2021 8:30:00 AM 21.32 70.376 0.443 8.15 3.44 7.89
6/28/2021 8:45:00 AM 21.37 70.466 0.442 8.17 3.28 8
6/28/2021 9:00:00 AM 21.49 70.682 0.442 8.19 3.59 8.38
6/28/2021 9:15:00 AM 21.59 70.862 0.441 8.21 3.3 8.39
6/28/2021 9:30:00 AM 21.71 71.078 0.441 8.24 3.97 8.59
6/28/2021 9:45:00 AM 21.81 71.258 0.44 8.25 3.27 8.79
6/28/2021 10:00:00 AM 21.96 71.528 0.44 8.27 3.84 8.83
6/28/2021 10:15:00 AM 22.11 71.798 0.439 8.28 3.51 8.99
6/28/2021 10:30:00 AM 22.24 72.032 0.438 8.3 4.23 8.93
6/28/2021 10:45:00 AM 22.4 72.32 0.437 8.32 3.97 9.38
6/28/2021 11:00:00 AM 22.6 72.68 0.437 8.34 3.6 9.33
6/28/2021 11:15:00 AM 22.91 73.238 0.436 8.35 4.72 9.51
6/28/2021 11:30:00 AM 23.15 73.67 0.435 8.38 3.21 9.68
6/28/2021 11:45:00 AM 23.34 74.012 0.434 8.39 2.99 9.54
6/28/2021 12:00:00 PM 23.69 74.642 0.434 8.41 3.03 9.69
6/28/2021 12:15:00 PM 23.76 74.768 0.433 8.41 3.77 9.64
6/28/2021 12:30:00 PM 23.93 75.074 0.433 8.42 2.77 9.71
6/28/2021 12:45:00 PM 24.17 75.506 0.433 8.44 3.71 9.81
6/28/2021 1:00:00 PM 24.43 75.974 0.431 8.45 3.27 9.79
6/28/2021 1:15:00 PM 24.81 76.658 0.43 8.46 3.23 9.84
6/28/2021 1:30:00 PM 25.24 77.432 0.43 8.47 2.96 9.65
6/28/2021 1:45:00 PM 25.68 78.224 0.429 8.48 3.43 9.94
6/28/2021 2:00:00 PM 26.11 78.998 0.429 8.49 3.09 9.86
6/28/2021 2:15:00 PM 26.37 79.466 0.428 8.49 3.09 9.96
6/28/2021 2:30:00 PM 26.61 79.898 0.428 8.5 3.46 9.8
6/28/2021 2:45:00 PM 26.79 80.222 0.427 8.5 3.52 9.86
6/28/2021 3:00:00 PM 26.98 80.564 0.427 8.5 4.32 9.7
6/28/2021 3:15:00 PM 27.06 80.708 0.427 8.5 3.23 9.47
6/28/2021 3:30:00 PM 27.26 81.068 0.427 8.5 3.15 9.32
6/28/2021 3:45:00 PM 27.38 81.284 0.427 8.49 2.9 9.34
6/28/2021 4:00:00 PM 27.5 81.5 0.426 8.49 3.28 9.18
6/28/2021 4:15:00 PM 27.55 81.59 0.427 8.49 3.65 8.97
6/28/2021 4:30:00 PM 27.51 81.518 0.427 8.48 3.32 8.95
6/28/2021 4:45:00 PM 27.26 81.068 0.42 8.46 5.42 8.34
6/28/2021 5:00:00 PM 27.17 80.906 0.417 8.45 6.16 8.2
6/28/2021 5:15:00 PM 27.16 80.888 0.417 8.44 4.59 8.22
6/28/2021 5:30:00 PM 27.11 80.798 0.418 8.42 4.65 7.93
6/28/2021 5:45:00 PM 26.99 80.582 0.42 8.4 5.29 7.7
6/28/2021 6:00:00 PM 26.98 80.564 0.421 8.41 4.38 7.83
6/28/2021 6:15:00 PM 26.79 80.222 0.419 8.38 4.74 7.85
6/28/2021 6:30:00 PM 26.55 79.79 0.418 8.38 4.36 7.77
6/28/2021 6:45:00 PM 26.34 79.412 0.416 8.36 3.89 7.75
6/28/2021 7:00:00 PM 26.13 79.034 0.416 8.35 4.57 7.7
6/28/2021 7:15:00 PM 25.95 78.71 0.416 8.32 4.99 7.5
6/28/2021 7:30:00 PM 25.79 78.422 0.417 8.3 4.84 7.41
6/28/2021 7:45:00 PM 25.63 78.134 0.418 8.28 4.76 7.32
6/28/2021 8:00:00 PM 25.45 77.81 0.42 8.26 5 7.16
6/28/2021 8:15:00 PM 25.29 77.522 0.422 8.25 5.23 7.03
6/28/2021 8:30:00 PM 25.14 77.252 0.425 8.23 4.8 6.98
6/28/2021 8:45:00 PM 24.99 76.982 0.429 8.22 4.77 6.96
6/28/2021 9:00:00 PM 24.87 76.766 0.432 8.2 5.18 6.83
6/28/2021 9:15:00 PM 24.73 76.514 0.434 8.18 5.86 6.76
6/28/2021 9:30:00 PM 24.61 76.298 0.435 8.16 5.67 6.74
6/28/2021 9:45:00 PM 24.48 76.064 0.435 8.16 6.14 6.7
6/28/2021 10:00:00 PM 24.37 75.866 0.434 8.14 4.27 6.65
6/28/2021 10:15:00 PM 24.26 75.668 0.434 8.13 5.2 6.63
6/28/2021 10:30:00 PM 24.17 75.506 0.433 8.12 5.44 6.63
6/28/2021 10:45:00 PM 24.07 75.326 0.433 8.11 5.5 6.64
6/28/2021 11:00:00 PM 23.98 75.164 0.432 8.1 4.76 6.63
6/28/2021 11:15:00 PM 23.88 74.984 0.431 8.1 5.61 6.61
6/28/2021 11:30:00 PM 23.79 74.82201 0.43 8.09 5.9 6.61
6/28/2021 11:45:00 PM 23.7 74.66 0.429 8.09 5.49 6.66
6/29/2021 12:00:00 AM 23.62 74.516 0.429 8.08 5.33 6.64
6/29/2021 12:15:00 AM 23.55 74.39 0.428 8.08 5.48 6.66
6/29/2021 12:30:00 AM 23.48 74.264 0.428 8.07 5.72 6.62
6/29/2021 12:45:00 AM 23.4 74.12 0.427 8.06 5.51 6.66
6/29/2021 1:00:00 AM 23.32 73.976 0.427 8.06 5.46 6.66
6/29/2021 1:15:00 AM 23.23 73.814 0.426 8.06 5.65 6.64
6/29/2021 1:30:00 AM 23.14 73.652 0.426 8.05 5.66 6.66
6/29/2021 1:45:00 AM 23.05 73.49 0.426 8.05 5.77 6.68
6/29/2021 2:00:00 AM 22.95 73.31 0.426 8.05 5.35 6.68
6/29/2021 2:15:00 AM 22.85 73.13 0.426 8.04 5.76 6.7
6/29/2021 2:30:00 AM 22.75 72.95 0.427 8.04 5.53 6.76
6/29/2021 2:45:00 AM 22.67 72.806 0.427 8.04 5.32 6.69
6/29/2021 3:00:00 AM 22.57 72.626 0.427 8.04 6.35 6.76
6/29/2021 3:15:00 AM 22.47 72.446 0.428 8.04 5.85 6.78
6/29/2021 3:30:00 AM 22.39 72.302 0.428 8.03 5.65 6.78
6/29/2021 3:45:00 AM 22.3 72.14 0.429 8.03 5.14 6.81
6/29/2021 4:00:00 AM 22.2 71.96 0.429 8.03 5.91 6.83
6/29/2021 4:15:00 AM 22.12 71.816 0.429 8.03 5.12 6.86
6/29/2021 4:30:00 AM 22.03 71.654 0.43 8.02 10.81 6.84
6/29/2021 4:45:00 AM 21.94 71.492 0.43 8.02 18.85 6.89
6/29/2021 5:00:00 AM 21.85 71.33 0.431 8.02 7.62 6.85
6/29/2021 5:15:00 AM 21.77 71.186 0.431 8.02 11.16 6.83
6/29/2021 5:30:00 AM 21.68 71.024 0.432 8.02 6.85 6.86
6/29/2021 5:45:00 AM 21.6 70.88 0.432 8.01 5.27 6.93
6/29/2021 6:00:00 AM 21.53 70.754 0.432 8.02 5.21 6.97
6/29/2021 6:15:00 AM 21.47 70.646 0.433 8.02 5.63 6.96
6/29/2021 6:30:00 AM 21.42 70.556 0.433 8.03 4.16 7.09
6/29/2021 6:45:00 AM 21.38 70.484 0.433 8.04 6.39 7.19
6/29/2021 7:00:00 AM 21.35 70.43 0.434 8.05 4.28 7.35
6/29/2021 7:15:00 AM 21.35 70.43 0.434 8.06 4.29 7.43
6/29/2021 7:30:00 AM 21.33 70.394 0.434 8.08 4.24 7.57
6/29/2021 7:45:00 AM 21.33 70.394 0.434 8.09 4.48 7.59
6/29/2021 8:00:00 AM 21.34 70.412 0.434 8.11 3.94 7.78
6/29/2021 8:15:00 AM 21.38 70.484 0.435 8.12 4.04 7.89
6/29/2021 8:30:00 AM 21.44 70.592 0.435 8.13 3.78 7.88
6/29/2021 8:45:00 AM 21.51 70.718 0.435 8.15 4.07 8.17
6/29/2021 9:00:00 AM 21.6 70.88 0.435 8.16 3.66 8.22
6/29/2021 9:15:00 AM 21.71 71.078 0.435 8.18 3.65 8.31
6/29/2021 9:30:00 AM 21.84 71.312 0.435 8.19 3.74 8.43
6/29/2021 9:45:00 AM 21.98 71.564 0.435 8.21 3.97 8.63
6/29/2021 10:00:00 AM 22.16 71.888 0.435 8.22 3.54 8.69
6/29/2021 10:15:00 AM 22.35 72.23 0.434 8.24 3.48 8.79
6/29/2021 10:30:00 AM 22.54 72.57201 0.434 8.25 3.42 8.86
6/29/2021 10:45:00 AM 22.73 72.914 0.434 8.27 3.51 8.91
6/29/2021 11:00:00 AM 22.98 73.364 0.434 8.28 3.56 9.04
6/29/2021 11:15:00 AM 23.28 73.904 0.433 8.3 3.71 9.25
6/29/2021 11:30:00 AM 23.42 74.156 0.433 8.31 3.89 9.21
6/29/2021 11:45:00 AM 23.76 74.768 0.432 8.33 3.43 9.38
6/29/2021 12:00:00 PM 24.09 75.362 0.432 8.34 3.66 9.25
6/29/2021 12:15:00 PM 24.44 75.992 0.431 8.37 3.42 9.55
6/29/2021 12:30:00 PM 24.72 76.496 0.43 8.38 3.13 9.63
6/29/2021 12:45:00 PM 24.99 76.982 0.43 8.38 3.36 9.55
6/29/2021 1:00:00 PM 25.15 77.27 0.429 8.39 3.47 9.48
6/29/2021 1:15:00 PM 25.48 77.864 0.429 8.4 2.95 9.51
6/29/2021 1:30:00 PM 25.82 78.476 0.428 8.42 3.05 9.48
6/29/2021 1:45:00 PM 26.12 79.016 0.428 8.43 3.35 9.52
6/29/2021 2:00:00 PM 26.46 79.628 0.427 8.44 3.64 9.65
6/29/2021 2:15:00 PM 26.83 80.294 0.426 8.45 3.48 9.66
6/29/2021 2:30:00 PM 27.18 80.924 0.426 8.45 4.02 9.38
6/29/2021 2:45:00 PM 27.55 81.59 0.425 8.46 4.23 9.51
6/29/2021 3:00:00 PM 27.68 81.824 0.425 8.46 3.57 9.4
6/29/2021 3:15:00 PM 27.97 82.346 0.426 8.47 3.9 9.38
6/29/2021 3:30:00 PM 28.22 82.796 0.425 8.47 4.15 9.41
6/29/2021 3:45:00 PM 28.39 83.102 0.425 8.47 3.49 9.23
6/29/2021 4:00:00 PM 28.62 83.51601 0.424 8.48 5.01 9.02
6/29/2021 4:15:00 PM 28.73 83.714 0.424 8.47 3.76 9.08
6/29/2021 4:30:00 PM 28.76 83.768 0.426 8.46 3.77 8.79
6/29/2021 4:45:00 PM 28.62 83.51601 0.425 8.45 3.78 8.43
6/29/2021 5:00:00 PM 28.44 83.192 0.426 8.42 3.95 7.97
6/29/2021 5:15:00 PM 28.49 83.282 0.426 8.43 4.13 8.22
6/29/2021 5:30:00 PM 28.43 83.174 0.427 8.42 4.13 8.11
6/29/2021 5:45:00 PM 28.45 83.21001 0.427 8.41 4.37 7.99
6/29/2021 6:00:00 PM 28.41 83.138 0.427 8.42 4.27 8
6/29/2021 6:15:00 PM 28.37 83.066 0.428 8.4 4.58 7.94
6/29/2021 6:30:00 PM 28.23 82.814 0.428 8.4 4.65 7.87
6/29/2021 6:45:00 PM 28.01 82.418 0.43 8.37 4.24 7.24
6/29/2021 7:00:00 PM 27.75 81.95 0.431 8.33 3.89 7.25
6/29/2021 7:15:00 PM 27.5 81.5 0.432 8.32 4.5 7.06
6/29/2021 7:30:00 PM 27.24 81.032 0.433 8.29 3.94 6.91
6/29/2021 7:45:00 PM 27.02 80.636 0.435 8.28 5.25 6.8
6/29/2021 8:00:00 PM 26.79 80.222 0.435 8.26 4.57 6.8
6/29/2021 8:15:00 PM 26.6 79.88 0.436 8.24 3.33 6.68
6/29/2021 8:30:00 PM 26.4 79.52 0.437 8.22 3.34 6.58
6/29/2021 8:45:00 PM 26.22 79.196 0.438 8.2 4.16 6.49
6/29/2021 9:00:00 PM 26.04 78.872 0.439 8.19 3.97 6.42
6/29/2021 9:15:00 PM 25.86 78.548 0.44 8.17 4.5 6.39
6/29/2021 9:30:00 PM 25.7 78.26 0.44 8.16 4.41 6.36
6/29/2021 9:45:00 PM 25.54 77.972 0.441 8.15 4.56 6.39
6/29/2021 10:00:00 PM 25.4 77.72 0.442 8.13 3.79 6.32
6/29/2021 10:15:00 PM 25.26 77.468 0.442 8.13 4.67 6.34
6/29/2021 10:30:00 PM 25.12 77.216 0.442 8.12 4.61 6.34
6/29/2021 10:45:00 PM 24.99 76.982 0.443 8.11 4.56 6.36
6/29/2021 11:00:00 PM 24.87 76.766 0.443 8.11 4.57 6.33
6/29/2021 11:15:00 PM 24.76 76.568 0.443 8.1 4.59 6.37
6/29/2021 11:30:00 PM 24.65 76.37 0.443 8.1 4.54 6.37
6/29/2021 11:45:00 PM 24.56 76.208 0.443 8.09 4.87 6.33
6/30/2021 12:00:00 AM 24.46 76.028 0.443 8.09 4.7 6.37
6/30/2021 12:15:00 AM 24.36 75.848 0.443 8.09 4.89 6.42
6/30/2021 12:30:00 AM 24.26 75.668 0.444 8.08 4.8 6.38
6/30/2021 12:45:00 AM 24.16 75.488 0.444 8.08 4.22 6.44
6/30/2021 1:00:00 AM 24.05 75.29 0.444 8.07 4.79 6.41
6/30/2021 1:15:00 AM 23.94 75.092 0.444 8.07 4.49 6.42
6/30/2021 1:30:00 AM 23.84 74.912 0.444 8.07 4.25 6.46
6/30/2021 1:45:00 AM 23.73 74.714 0.444 8.07 5.15 6.49
6/30/2021 2:00:00 AM 23.65 74.57 0.445 8.06 4.41 6.46
6/30/2021 2:15:00 AM 23.55 74.39 0.445 8.06 4.39 6.51
6/30/2021 2:30:00 AM 23.48 74.264 0.445 8.06 4.36 6.53
6/30/2021 2:45:00 AM 23.39 74.102 0.446 8.06 4.41 6.55
6/30/2021 3:00:00 AM 23.31 73.958 0.446 8.07 4.63 6.61
6/30/2021 3:15:00 AM 23.24 73.832 0.446 8.06 4.46 6.59
6/30/2021 3:30:00 AM 23.17 73.706 0.446 8.07 4.61 6.61
6/30/2021 3:45:00 AM 23.09 73.562 0.446 8.06 5.61 6.62
6/30/2021 4:00:00 AM 23.01 73.418 0.447 8.06 4.53 6.62
6/30/2021 4:15:00 AM 22.94 73.292 0.447 8.06 5.27 6.61
6/30/2021 4:30:00 AM 22.84 73.112 0.447 8.06 6.77 6.69
6/30/2021 4:45:00 AM 22.75 72.95 0.448 8.06 11.68 6.68
6/30/2021 5:00:00 AM 22.66 72.788 0.448 8.05 7.84 6.56
6/30/2021 5:15:00 AM 22.57 72.626 0.448 8.06 6.31 6.73
6/30/2021 5:30:00 AM 22.5 72.5 0.449 8.05 5.64 6.66
6/30/2021 5:45:00 AM 22.42 72.356 0.449 8.04 6.64 6.55
6/30/2021 6:00:00 AM 22.33 72.194 0.449 8.05 6.68 6.72
6/30/2021 6:15:00 AM 22.27 72.086 0.449 8.05 9.17 6.58
6/30/2021 6:30:00 AM 22.23 72.014 0.449 8.06 4.46 6.7
6/30/2021 6:45:00 AM 22.19 71.942 0.449 8.07 4.74 6.76
6/30/2021 7:00:00 AM 22.15 71.87 0.45 8.07 4.75 6.86
6/30/2021 7:15:00 AM 22.11 71.798 0.449 8.08 4.21 7.04
6/30/2021 7:30:00 AM 22.06 71.708 0.449 8.1 3.91 7.14
6/30/2021 7:45:00 AM 22.04 71.672 0.449 8.1 3.94 7.17
6/30/2021 8:00:00 AM 22.03 71.654 0.449 8.12 3.53 7.42
6/30/2021 8:15:00 AM 22.06 71.708 0.449 8.14 4.11 7.36
6/30/2021 8:30:00 AM 22.08 71.744 0.449 8.15 4.17 7.48
6/30/2021 8:45:00 AM 22.13 71.834 0.448 8.17 3.78 7.76
6/30/2021 9:00:00 AM 22.21 71.978 0.448 8.18 3.57 7.98
6/30/2021 9:15:00 AM 22.3 72.14 0.447 8.2 3.5 8.07
6/30/2021 9:30:00 AM 22.42 72.356 0.447 8.21 3.68 8.29
6/30/2021 9:45:00 AM 22.52 72.536 0.447 8.23 3.16 8.45
6/30/2021 10:00:00 AM 22.67 72.806 0.446 8.25 3.34 8.52
6/30/2021 10:15:00 AM 22.82 73.076 0.446 8.26 3.1 8.67
6/30/2021 10:30:00 AM 22.95 73.31 0.445 8.28 3.63 8.81
6/30/2021 10:45:00 AM 23.14 73.652 0.444 8.29 3.45 8.92
6/30/2021 11:00:00 AM 23.38 74.084 0.443 8.32 3.53 9.22
6/30/2021 11:15:00 AM 23.54 74.372 0.443 8.33 13.25 9.28
6/30/2021 11:30:00 AM 23.71 74.67799 0.442 8.35 3.39 9.35
6/30/2021 11:45:00 AM 23.9 75.02 0.441 8.36 3.05 9.42
6/30/2021 12:00:00 PM 24.11 75.398 0.441 8.38 3.58 9.5
6/30/2021 12:15:00 PM 24.19 75.542 0.441 8.39 4.39 9.46
6/30/2021 12:30:00 PM 24.37 75.866 0.441 8.4 3.28 9.49
6/30/2021 12:45:00 PM 24.69 76.442 0.44 8.42 3.24 9.66
6/30/2021 1:00:00 PM 25.04 77.07201 0.44 8.42 3.38 9.61
6/30/2021 1:15:00 PM 25.42 77.756 0.439 8.44 3.25 9.73
6/30/2021 1:30:00 PM 25.57 78.026 0.438 8.45 2.95 9.64
6/30/2021 1:45:00 PM 25.77 78.386 0.437 8.46 3.08 9.63
6/30/2021 2:00:00 PM -99999.99 -179968 -99999.99 -99999.99 -99999.99 -99999.99
6/30/2021 2:15:00 PM 26.38 79.484 0.435 8.47 7.4 9.67
6/30/2021 2:30:00 PM 26.62 79.916 0.435 8.48 3.55 9.57
6/30/2021 2:45:00 PM 26.77 80.186 0.434 8.48 3.39 9.42
6/30/2021 3:00:00 PM 26.8 80.24 0.434 8.48 3.02 9.18
6/30/2021 3:15:00 PM 26.77 80.186 0.433 8.47 3.95 8.83
6/30/2021 3:30:00 PM 26.55 79.79 0.428 8.47 3.97 8.82
6/30/2021 3:45:00 PM 25.79 78.422 0.396 8.45 13.37 8.25
6/30/2021 4:00:00 PM 25.74 78.332 0.402 8.43 6.3 7.97
6/30/2021 4:15:00 PM 25.64 78.152 0.402 8.4 5.65 7.79
6/30/2021 4:30:00 PM 25.58 78.044 0.406 8.38 6.32 7.66
6/30/2021 4:45:00 PM 25.19 77.342 0.401 8.35 12.3 7.52
6/30/2021 5:00:00 PM 24.86 76.748 0.394 8.32 9.99 7.42
6/30/2021 5:15:00 PM 24.75 76.55 0.391 8.31 10.33 7.37
6/30/2021 5:30:00 PM 24.68 76.424 0.389 8.31 10.71 7.59
6/30/2021 5:45:00 PM 24.62 76.316 0.389 8.3 9.42 7.79
6/30/2021 6:00:00 PM 24.52 76.136 0.389 8.29 10.01 7.75
6/30/2021 6:15:00 PM 24.42 75.956 0.391 8.28 9.22 7.72
6/30/2021 6:30:00 PM 24.35 75.83 0.396 8.27 9.76 7.57
6/30/2021 6:45:00 PM 24.32 75.776 0.404 8.26 15.9 7.61
6/30/2021 7:00:00 PM 24.3 75.74 0.413 8.25 12.81 7.58
6/30/2021 7:15:00 PM 24.29 75.722 0.42 8.25 13.31 7.55
6/30/2021 7:30:00 PM 24.27 75.686 0.425 8.25 12.33 7.56
6/30/2021 7:45:00 PM 24.22 75.596 0.427 8.24 12.84 7.52
6/30/2021 8:00:00 PM 24.14 75.452 0.429 8.23 10.57 7.43
6/30/2021 8:15:00 PM 24.04 75.272 0.429 8.22 8.74 7.34
6/30/2021 8:30:00 PM 23.91 75.038 0.428 8.21 9.47 7.21
6/30/2021 8:45:00 PM 23.78 74.804 0.428 8.2 8.9 7.19
6/30/2021 9:00:00 PM 23.66 74.588 0.427 8.19 8.83 7.12
6/30/2021 9:15:00 PM 23.56 74.408 0.427 8.18 8.41 7.1
6/30/2021 9:30:00 PM 23.47 74.246 0.424 8.18 7.92 7.06
6/30/2021 9:45:00 PM 23.33 73.994 0.418 8.17 8.15 7.08
6/30/2021 10:00:00 PM 23.26 73.868 0.417 8.16 9.15 7.05
6/30/2021 10:15:00 PM 23.17 73.706 0.414 8.15 8.12 7.05
6/30/2021 10:30:00 PM 23.09 73.562 0.415 8.14 7.88 7.04
6/30/2021 10:45:00 PM 22.96 73.328 0.413 8.14 9.58 7.05
6/30/2021 11:00:00 PM 22.8 73.04 0.411 8.13 8.82 7.06
6/30/2021 11:15:00 PM 22.66 72.788 0.408 8.11 8.64 7.06
6/30/2021 11:30:00 PM 22.54 72.57201 0.406 8.1 9.98 7.05
6/30/2021 11:45:00 PM 22.45 72.41 0.405 8.09 9.85 7.07
7/1/2021 12:00:00 AM 22.37 72.266 0.405 8.09 10.14 7.05
7/1/2021 12:15:00 AM 22.3 72.14 0.407 8.08 9.1 7.06
7/1/2021 12:30:00 AM 22.24 72.032 0.409 8.08 9.09 7.07
7/1/2021 12:45:00 AM 22.18 71.924 0.414 8.08 9.12 7.1
7/1/2021 1:00:00 AM 22.12 71.816 0.419 8.08 8.93 7.09
7/1/2021 1:15:00 AM 22.05 71.69 0.423 8.08 9.44 7.11
7/1/2021 1:30:00 AM 21.99 71.582 0.426 8.08 9.26 7.11
7/1/2021 1:45:00 AM 21.92 71.456 0.428 8.08 9.35 7.13
7/1/2021 2:00:00 AM 21.85 71.33 0.428 8.07 9.64 7.18
7/1/2021 2:15:00 AM 21.78 71.204 0.429 8.07 9.66 7.21
7/1/2021 2:30:00 AM 21.71 71.078 0.428 8.08 9.95 7.21
7/1/2021 2:45:00 AM 21.64 70.952 0.428 8.08 8.98 7.23
7/1/2021 3:00:00 AM 21.57 70.826 0.428 8.08 11.5 7.23
7/1/2021 3:15:00 AM 21.5 70.7 0.428 8.08 8.62 7.28
7/1/2021 3:30:00 AM 21.43 70.574 0.427 8.08 11.48 7.32
7/1/2021 3:45:00 AM 21.36 70.448 0.427 8.08 9.95 7.31
7/1/2021 4:00:00 AM 21.29 70.32201 0.427 8.08 8.54 7.31
7/1/2021 4:15:00 AM 21.22 70.196 0.426 8.08 8.46 7.35
7/1/2021 4:30:00 AM 21.15 70.07 0.425 8.08 9.8 7.36
7/1/2021 4:45:00 AM 21.08 69.944 0.425 8.08 9.88 7.36
7/1/2021 5:00:00 AM 21.02 69.836 0.424 8.08 9.38 7.36
7/1/2021 5:15:00 AM 20.95 69.71 0.423 8.08 7.72 7.35
7/1/2021 5:30:00 AM 20.89 69.602 0.423 8.08 8.36 7.37
7/1/2021 5:45:00 AM 20.82 69.476 0.422 8.08 8.01 7.38
7/1/2021 6:00:00 AM 20.77 69.386 0.422 8.08 9.31 7.36
7/1/2021 6:15:00 AM 20.71 69.278 0.421 8.09 7.1 7.45
7/1/2021 6:30:00 AM 20.66 69.188 0.42 8.09 7.9 7.47
7/1/2021 6:45:00 AM 20.63 69.134 0.42 8.1 6.37 7.57
7/1/2021 7:00:00 AM 20.59 69.062 0.42 8.1 6.66 7.63
7/1/2021 7:15:00 AM 20.55 68.99 0.419 8.11 8.99 7.68
7/1/2021 7:30:00 AM 20.52 68.936 0.419 8.11 6.29 7.68
7/1/2021 7:45:00 AM 20.5 68.9 0.419 8.12 6.38 7.71
7/1/2021 8:00:00 AM 20.49 68.882 0.418 8.12 5.68 7.83
7/1/2021 8:15:00 AM 20.51 68.918 0.418 8.14 5.99 7.97
7/1/2021 8:30:00 AM 20.56 69.008 0.417 8.16 5.42 8.15
7/1/2021 8:45:00 AM 20.62 69.116 0.417 8.17 5.57 8.29
7/1/2021 9:00:00 AM 20.67 69.206 0.416 8.19 5.44 8.41
7/1/2021 9:15:00 AM 20.73 69.314 0.416 8.21 5.1 8.56
7/1/2021 9:30:00 AM 20.79 69.422 0.415 8.23 4.68 8.62
7/1/2021 9:45:00 AM 20.83 69.494 0.415 8.24 4.64 8.73
7/1/2021 10:00:00 AM 20.88 69.584 0.414 8.25 5.11 8.75
7/1/2021 10:15:00 AM 20.93 69.674 0.414 8.26 5.39 8.84
7/1/2021 10:30:00 AM 20.99 69.782 0.414 8.28 4.58 8.94
7/1/2021 10:45:00 AM 21.01 69.818 0.414 8.28 4.04 8.92
7/1/2021 11:00:00 AM 21.03 69.854 0.414 8.29 4.59 8.84
7/1/2021 11:15:00 AM 21.07 69.926 0.414 8.29 4.6 8.91
7/1/2021 11:30:00 AM 21.11 69.998 0.414 8.3 4.14 8.93
7/1/2021 11:45:00 AM 21.17 70.106 0.414 8.31 4.55 9.05
7/1/2021 12:00:00 PM 21.2 70.16 0.414 8.32 3.82 9.06
7/1/2021 12:15:00 PM 21.24 70.232 0.414 8.33 4.31 9.06
7/1/2021 12:30:00 PM 21.39 70.502 0.413 8.34 4.39 9.22
7/1/2021 12:45:00 PM 21.55 70.79 0.413 8.36 3.6 9.36
7/1/2021 1:00:00 PM 21.7 71.06 0.413 8.37 3.75 9.34
7/1/2021 1:15:00 PM 21.71 71.078 0.412 8.37 3.9 9.38
7/1/2021 1:30:00 PM 21.72 71.096 0.412 8.37 3.8 9.32
7/1/2021 1:45:00 PM 21.9 71.42 0.412 8.4 4.01 9.45
7/1/2021 2:00:00 PM 22.12 71.816 0.411 8.41 4.06 9.59
7/1/2021 2:15:00 PM 22.41 72.338 0.41 8.43 4.04 9.75
7/1/2021 2:30:00 PM 22.49 72.482 0.41 8.44 3.82 9.69
7/1/2021 2:45:00 PM 22.51 72.518 0.409 8.44 3.44 9.63
7/1/2021 3:00:00 PM 22.53 72.554 0.409 8.44 3.42 9.49
7/1/2021 3:15:00 PM 22.56 72.608 0.409 8.44 3.73 9.43
7/1/2021 3:30:00 PM 22.56 72.608 0.409 8.44 3.65 9.33
7/1/2021 3:45:00 PM 22.51 72.518 0.41 8.43 3.52 9.09
7/1/2021 4:00:00 PM 22.45 72.41 0.41 8.41 3.38 8.89
7/1/2021 4:15:00 PM 22.39 72.302 0.41 8.4 3.68 8.73
7/1/2021 4:30:00 PM 22.29 72.122 0.41 8.38 4.12 8.54
7/1/2021 4:45:00 PM 22.18 71.924 0.407 8.37 3.49 8.4
7/1/2021 5:00:00 PM 22.08 71.744 0.406 8.35 4.08 8.3
7/1/2021 5:15:00 PM 21.97 71.546 0.406 8.33 4.5 8.18
7/1/2021 5:30:00 PM 21.88 71.384 0.407 8.32 4.26 8.13
7/1/2021 5:45:00 PM 21.77 71.186 0.405 8.3 3.72 8.05
7/1/2021 6:00:00 PM 21.67 71.006 0.404 8.29 4.44 7.96
7/1/2021 6:15:00 PM 21.58 70.844 0.403 8.28 4.32 7.99
7/1/2021 6:30:00 PM 21.5 70.7 0.402 8.27 5 8
7/1/2021 6:45:00 PM 21.42 70.556 0.402 8.26 6.33 8
7/1/2021 7:00:00 PM 21.33 70.394 0.402 8.24 20.37 8
7/1/2021 7:15:00 PM 21.4 70.52 0.407 8.16 75.76 7.93
7/1/2021 7:30:00 PM 21.34 70.412 0.406 8.13 98.5 7.82
7/1/2021 7:45:00 PM 21.21 70.17799 0.387 8.1 126.94 7.72
7/1/2021 8:00:00 PM 21.03 69.854 0.336 8.04 113.58 7.67
7/1/2021 8:15:00 PM 20.65 69.17 0.271 7.97 155.29 7.7
7/1/2021 8:30:00 PM 20.27 68.486 0.221 7.89 185.97 7.76
7/1/2021 8:45:00 PM 20 68 0.196 7.85 167.39 7.81
7/1/2021 9:00:00 PM 19.83 67.694 0.186 7.83 172.82 7.85
7/1/2021 9:15:00 PM 19.76 67.568 0.186 7.83 158.11 7.86
7/1/2021 9:30:00 PM 19.74 67.532 0.19 7.83 119.96 7.85
7/1/2021 9:45:00 PM 19.75 67.55 0.197 7.83 132.04 7.84
7/1/2021 10:00:00 PM 19.77 67.586 0.204 7.83 109.63 7.82
7/1/2021 10:15:00 PM 19.76 67.568 0.211 7.84 81.91 7.81
7/1/2021 10:30:00 PM 19.76 67.568 0.22 7.85 69.31 7.8
7/1/2021 10:45:00 PM 19.75 67.55 0.228 7.86 62.87 7.79
7/1/2021 11:00:00 PM 19.75 67.55 0.235 7.87 61.16 7.78
7/1/2021 11:15:00 PM 19.74 67.532 0.241 7.87 56.16 7.77
7/1/2021 11:30:00 PM 19.73 67.514 0.245 7.88 50.64 7.77
7/1/2021 11:45:00 PM 19.72 67.496 0.247 7.88 46.99 7.76
7/2/2021 12:00:00 AM 19.7 67.46 0.248 7.88 52.56 7.76
7/2/2021 12:15:00 AM 19.69 67.442 0.25 7.88 43.95 7.76
7/2/2021 12:30:00 AM 19.69 67.442 0.252 7.88 42.29 7.75
7/2/2021 12:45:00 AM 19.68 67.424 0.255 7.89 41.86 7.75
7/2/2021 1:00:00 AM 19.67 67.406 0.258 7.89 40.3 7.75
7/2/2021 1:15:00 AM 19.67 67.406 0.261 7.89 37.27 7.75
7/2/2021 1:30:00 AM 19.66 67.388 0.264 7.9 35.67 7.75
7/2/2021 1:45:00 AM 19.65 67.37 0.266 7.9 35.99 7.75
7/2/2021 2:00:00 AM 19.63 67.334 0.268 7.9 32.29 7.76
7/2/2021 2:15:00 AM 19.6 67.28 0.268 7.9 33.02 7.76
7/2/2021 2:30:00 AM 19.56 67.208 0.268 7.9 25.49 7.77
7/2/2021 2:45:00 AM 19.52 67.136 0.266 7.9 29.98 7.78
7/2/2021 3:00:00 AM 19.47 67.046 0.264 7.9 30.77 7.79
7/2/2021 3:15:00 AM 19.42 66.956 0.263 7.89 29.15 7.79
7/2/2021 3:30:00 AM 19.37 66.866 0.262 7.89 28.72 7.78
7/2/2021 3:45:00 AM 19.33 66.794 0.263 7.89 33.41 7.8
7/2/2021 4:00:00 AM 19.28 66.704 0.264 7.89 28 7.8
7/2/2021 4:15:00 AM 19.24 66.632 0.266 7.89 26.25 7.81
7/2/2021 4:30:00 AM 19.21 66.578 0.268 7.9 24.6 7.81
7/2/2021 4:45:00 AM 19.19 66.542 0.272 7.9 25.69 7.82
7/2/2021 5:00:00 AM 19.17 66.506 0.275 7.91 26.13 7.82
7/2/2021 5:15:00 AM 19.17 66.506 0.278 7.91 25.25 7.84
7/2/2021 5:30:00 AM 19.16 66.488 0.281 7.91 24.85 7.84
7/2/2021 5:45:00 AM 19.16 66.488 0.285 7.92 23.48 7.85
7/2/2021 6:00:00 AM 19.16 66.488 0.288 7.93 22.71 7.85
7/2/2021 6:15:00 AM 19.16 66.488 0.291 7.94 24.21 7.83
7/2/2021 6:30:00 AM 19.17 66.506 0.294 7.94 22.11 7.83
7/2/2021 6:45:00 AM 19.17 66.506 0.298 7.95 21.38 7.81
7/2/2021 7:00:00 AM 19.19 66.542 0.301 7.94 20.83 7.84
7/2/2021 7:15:00 AM 19.2 66.56 0.304 7.96 20.65 7.87
7/2/2021 7:30:00 AM 19.23 66.614 0.308 7.95 15.39 7.9
7/2/2021 7:45:00 AM 19.27 66.686 0.311 7.97 18.06 7.94
7/2/2021 8:00:00 AM 19.3 66.74 0.314 7.99 19.11 7.97
7/2/2021 8:15:00 AM 19.34 66.812 0.317 8 18.44 8
7/2/2021 8:30:00 AM 19.37 66.866 0.319 8.01 15.86 8.01
7/2/2021 8:45:00 AM 19.41 66.938 0.322 8.01 17.73 8.02
7/2/2021 9:00:00 AM 19.44 66.992 0.324 8.01 17.71 8.02
7/2/2021 9:15:00 AM 19.46 67.028 0.326 8.02 16.53 8
7/2/2021 9:30:00 AM 19.5 67.1 0.328 8.02 16.94 8.02
7/2/2021 9:45:00 AM 19.56 67.208 0.329 8.03 16.13 8.08
7/2/2021 10:00:00 AM 19.63 67.334 0.331 8.04 16.2 8.13
7/2/2021 10:15:00 AM 19.71 67.478 0.333 8.04 15.73 8.17
7/2/2021 10:30:00 AM 19.77 67.586 0.335 8.06 15.15 8.18
7/2/2021 10:45:00 AM 19.76 67.568 0.333 8.06 15.45 8.2
7/2/2021 11:00:00 AM 19.73 67.514 0.331 8.06 14.05 8.19
7/2/2021 11:15:00 AM 19.72 67.496 0.329 8.07 17.46 8.19
7/2/2021 11:30:00 AM 19.77 67.586 0.333 8.06 14.76 8.16
7/2/2021 11:45:00 AM 19.8 67.64 0.336 8.07 19.44 8.22
7/2/2021 12:00:00 PM 20 68 0.339 8.07 17.99 8.31
7/2/2021 12:15:00 PM 20.11 68.198 0.341 8.1 16.11 8.41
7/2/2021 12:30:00 PM 20.28 68.504 0.343 8.11 18.49 8.49
7/2/2021 12:45:00 PM 20.41 68.738 0.346 8.14 16.36 8.58
7/2/2021 1:00:00 PM 20.61 69.098 0.35 8.17 16.87 8.71
7/2/2021 1:15:00 PM 20.78 69.404 0.351 8.18 17.42 8.78
7/2/2021 1:30:00 PM 20.86 69.548 0.352 8.19 22.76 8.74
7/2/2021 1:45:00 PM 20.95 69.71 0.353 8.17 38.41 8.61
7/2/2021 2:00:00 PM 21.02 69.836 0.351 8.12 61.44 8.42
7/2/2021 2:15:00 PM 21 69.8 0.338 8.09 61.68 8.23
7/2/2021 2:30:00 PM 20.62 69.116 0.293 8.01 102.48 8.11
7/2/2021 2:45:00 PM 20.05 68.09 0.25 7.93 124.18 8.09
7/2/2021 3:00:00 PM 19.72 67.496 0.231 7.89 122.28 8.12
7/2/2021 3:15:00 PM 19.58 67.244 0.228 7.88 136.02 8.15
7/2/2021 3:30:00 PM 19.55 67.19 0.229 7.88 112.7 8.14
7/2/2021 3:45:00 PM 19.59 67.262 0.232 7.88 106.68 8.16
7/2/2021 4:00:00 PM 19.65 67.37 0.238 7.88 111.33 8.15
7/2/2021 4:15:00 PM 19.68 67.424 0.244 7.9 103.76 8.14
7/2/2021 4:30:00 PM 19.77 67.586 0.25 7.9 79.73 8.14
7/2/2021 4:45:00 PM 19.8 67.64 0.255 7.91 68.83 8.12
7/2/2021 5:00:00 PM 19.91 67.838 0.259 7.91 68.1 8.12
7/2/2021 5:15:00 PM 20.05 68.09 0.263 7.93 54.17 8.13
7/2/2021 5:30:00 PM 20.13 68.234 0.265 7.94 48.02 8.14
7/2/2021 5:45:00 PM 20.13 68.234 0.267 7.94 42.74 8.12
7/2/2021 6:00:00 PM 20.08 68.144 0.268 7.93 39.28 8.1
7/2/2021 6:15:00 PM 20.04 68.07201 0.269 7.93 38.4 8.07
7/2/2021 6:30:00 PM 20.01 68.018 0.269 7.91 35.73 8.02
7/2/2021 6:45:00 PM 20.03 68.054 0.269 7.92 34.32 8
7/2/2021 7:00:00 PM 20.01 68.018 0.269 7.9 33.91 7.97
7/2/2021 7:15:00 PM 19.95 67.91 0.268 7.9 33.28 7.95
7/2/2021 7:30:00 PM 19.88 67.784 0.268 7.89 31.42 7.91
7/2/2021 7:45:00 PM 19.82 67.676 0.267 7.88 28.47 7.9
7/2/2021 8:00:00 PM 19.75 67.55 0.266 7.88 30.76 7.89
7/2/2021 8:15:00 PM 19.69 67.442 0.265 7.87 30.85 7.88
7/2/2021 8:30:00 PM 19.61 67.298 0.263 7.85 26.51 7.86
7/2/2021 8:45:00 PM 19.54 67.172 0.262 7.85 30.47 7.84
7/2/2021 9:00:00 PM 19.48 67.064 0.262 7.83 28.33 7.84
7/2/2021 9:15:00 PM 19.42 66.956 0.261 7.83 35.58 7.82
7/2/2021 9:30:00 PM 19.36 66.848 0.261 7.83 29.96 7.8
7/2/2021 9:45:00 PM 19.31 66.758 0.261 7.82 28.36 7.79
7/2/2021 10:00:00 PM 19.26 66.668 0.261 7.82 32.79 7.78
7/2/2021 10:15:00 PM 19.22 66.596 0.261 7.82 30.04 7.77
7/2/2021 10:30:00 PM 19.18 66.524 0.261 7.81 29.71 7.77
7/2/2021 10:45:00 PM 19.14 66.452 0.261 7.81 28.93 7.76
7/2/2021 11:00:00 PM 19.11 66.398 0.261 7.81 27.53 7.76
7/2/2021 11:15:00 PM 19.08 66.344 0.261 7.8 28.36 7.75
7/2/2021 11:30:00 PM 19.05 66.29 0.261 7.8 28.53 7.74
7/2/2021 11:45:00 PM 19.03 66.254 0.261 7.8 28.48 7.74
7/3/2021 12:00:00 AM 19 66.2 0.261 7.79 28.15 7.73
7/3/2021 12:15:00 AM 18.97 66.146 0.26 7.79 27.54 7.73
7/3/2021 12:30:00 AM 18.94 66.092 0.26 7.78 29 7.73
7/3/2021 12:45:00 AM 18.91 66.038 0.259 7.78 29.11 7.73
7/3/2021 1:00:00 AM 18.87 65.966 0.259 7.78 28.82 7.73
7/3/2021 1:15:00 AM 18.83 65.894 0.258 7.78 27.31 7.73
7/3/2021 1:30:00 AM 18.8 65.84 0.258 7.78 28.71 7.74
7/3/2021 1:45:00 AM 18.76 65.768 0.257 7.77 25.44 7.74
7/3/2021 2:00:00 AM 18.72 65.696 0.257 7.77 28.41 7.74
7/3/2021 2:15:00 AM 18.68 65.624 0.256 7.75 28.45 7.74
7/3/2021 2:30:00 AM 18.64 65.552 0.254 7.77 26.36 7.76
7/3/2021 2:45:00 AM 18.59 65.462 0.253 7.77 28.32 7.78
7/3/2021 3:00:00 AM 18.57 65.426 0.254 7.76 27.05 7.75
7/3/2021 3:15:00 AM 18.54 65.372 0.254 7.75 26.86 7.74
7/3/2021 3:30:00 AM 18.51 65.318 0.253 7.76 35.73 7.74
7/3/2021 3:45:00 AM 18.48 65.264 0.252 7.75 26.92 7.74
7/3/2021 4:00:00 AM 18.45 65.21 0.252 7.74 26.67 7.74
7/3/2021 4:15:00 AM 18.42 65.156 0.251 7.74 24.66 7.75
7/3/2021 4:30:00 AM 18.37 65.066 0.25 7.74 26.33 7.76
7/3/2021 4:45:00 AM 18.34 65.012 0.249 7.72 27.18 7.76
7/3/2021 5:00:00 AM 18.31 64.958 0.249 7.74 28.94 7.75
7/3/2021 5:15:00 AM 18.27 64.886 0.248 7.73 26.48 7.73
7/3/2021 5:30:00 AM 18.24 64.832 0.248 7.72 28.53 7.71
7/3/2021 5:45:00 AM 18.21 64.778 0.247 7.72 27.69 7.73
7/3/2021 6:00:00 AM 18.17 64.706 0.247 7.72 26.46 7.73
7/3/2021 6:15:00 AM 18.14 64.652 0.246 7.72 26.13 7.73
7/3/2021 6:30:00 AM 18.11 64.598 0.246 7.72 26.72 7.74
7/3/2021 6:45:00 AM 18.08 64.544 0.245 7.71 26.55 7.74
7/3/2021 7:00:00 AM 18.06 64.508 0.245 7.72 26.72 7.75
7/3/2021 7:15:00 AM 18.04 64.472 0.244 7.72 27.32 7.76
7/3/2021 7:30:00 AM 18.04 64.472 0.244 7.71 25.91 7.77
7/3/2021 7:45:00 AM 18.03 64.454 0.243 7.72 25.76 7.77
7/3/2021 8:00:00 AM 18.05 64.49 0.243 7.73 24.81 7.8
7/3/2021 8:15:00 AM 18.05 64.49 0.243 7.73 24.86 7.83
7/3/2021 8:30:00 AM 18.06 64.508 0.242 7.72 21.4 7.84
7/3/2021 8:45:00 AM 18.07 64.526 0.242 7.72 24.25 7.85
7/3/2021 9:00:00 AM 18.08 64.544 0.241 7.71 22.3 7.86
7/3/2021 9:15:00 AM 18.09 64.562 0.241 7.73 23.78 7.88
7/3/2021 9:30:00 AM 18.12 64.616 0.241 7.73 25.48 7.91
7/3/2021 9:45:00 AM 18.16 64.688 0.241 7.73 22.52 7.92
7/3/2021 10:00:00 AM 18.17 64.706 0.241 7.72 19.35 7.93
7/3/2021 10:15:00 AM 18.19 64.742 0.241 7.72 22.2 7.93
7/3/2021 10:30:00 AM 18.21 64.778 0.24 7.73 22.06 7.95
7/3/2021 10:45:00 AM 18.21 64.778 0.24 7.73 22.51 7.93
7/3/2021 11:00:00 AM 18.23 64.814 0.24 7.72 20.52 7.94
7/3/2021 11:15:00 AM 18.25 64.85 0.239 7.72 21.16 7.94
7/3/2021 11:30:00 AM 18.29 64.922 0.239 7.72 20.84 7.97
7/3/2021 11:45:00 AM 18.34 65.012 0.239 7.73 20.58 7.97
7/3/2021 12:00:00 PM 18.44 65.192 0.238 7.73 21.83 8.04
7/3/2021 12:15:00 PM 18.59 65.462 0.238 7.74 22.02 8.09
7/3/2021 12:30:00 PM 18.58 65.444 0.238 7.73 20.57 8.04
7/3/2021 12:45:00 PM 18.77 65.786 0.237 7.74 20.17 8.07
7/3/2021 1:00:00 PM 18.91 66.038 0.237 7.74 18.91 8.07
7/3/2021 1:15:00 PM 18.97 66.146 0.236 7.73 20.98 8.07
7/3/2021 1:30:00 PM 18.95 66.11 0.236 7.73 16.98 8.06
7/3/2021 1:45:00 PM 19.05 66.29 0.236 7.75 20.23 8.07
7/3/2021 2:00:00 PM 19.14 66.452 0.235 7.74 19.64 8.06
7/3/2021 2:15:00 PM 19.23 66.614 0.235 7.74 20.31 8.04
7/3/2021 2:30:00 PM 19.28 66.704 0.234 7.74 21.3 8.05
7/3/2021 2:45:00 PM 19.28 66.704 0.234 7.73 20.53 8.02
7/3/2021 3:00:00 PM 19.22 66.596 0.234 7.74 21.27 7.98
7/3/2021 3:15:00 PM 19.26 66.668 0.233 7.72 21.82 7.98
7/3/2021 3:30:00 PM 19.29 66.722 0.233 7.74 21.36 7.96
7/3/2021 3:45:00 PM 19.33 66.794 0.232 7.74 22.38 7.95
7/3/2021 4:00:00 PM 19.48 67.064 0.232 7.74 23.55 7.96
7/3/2021 4:15:00 PM 19.55 67.19 0.231 7.74 22 7.94
7/3/2021 4:30:00 PM 19.61 67.298 0.231 7.75 25.59 7.94
7/3/2021 4:45:00 PM 19.55 67.19 0.23 7.72 22.71 7.88
7/3/2021 5:00:00 PM 19.52 67.136 0.23 7.73 25.82 7.86
7/3/2021 5:15:00 PM 19.5 67.1 0.229 7.73 24.57 7.85
7/3/2021 5:30:00 PM 19.47 67.046 0.229 7.73 23.85 7.85
7/3/2021 5:45:00 PM 19.41 66.938 0.228 7.72 27.91 7.83
7/3/2021 6:00:00 PM 19.36 66.848 0.228 7.71 23.9 7.79
7/3/2021 6:15:00 PM 19.34 66.812 0.227 7.71 26.96 7.78
7/3/2021 6:30:00 PM 19.33 66.794 0.227 7.71 24.19 7.77
7/3/2021 6:45:00 PM 19.3 66.74 0.227 7.71 25.37 7.75
7/3/2021 7:00:00 PM 19.26 66.668 0.226 7.7 24.32 7.74
7/3/2021 7:15:00 PM 19.22 66.596 0.226 7.71 26.68 7.75
7/3/2021 7:30:00 PM 19.19 66.542 0.225 7.7 24.58 7.71
7/3/2021 7:45:00 PM 19.18 66.524 0.225 7.69 26.25 7.7
7/3/2021 8:00:00 PM 19.15 66.47 0.224 7.69 34.04 7.69
7/3/2021 8:15:00 PM 19.1 66.38 0.224 7.69 25.66 7.69
7/3/2021 8:30:00 PM 19.05 66.29 0.224 7.68 27.37 7.67
7/3/2021 8:45:00 PM 18.99 66.182 0.223 7.67 25.25 7.66
7/3/2021 9:00:00 PM 18.93 66.074 0.223 7.68 69.74 7.66
7/3/2021 9:15:00 PM 18.89 66.002 0.222 7.66 26.62 7.65
7/3/2021 9:30:00 PM 18.84 65.912 0.222 7.66 28.31 7.64
7/3/2021 9:45:00 PM 18.8 65.84 0.222 7.67 28.07 7.63
7/3/2021 10:00:00 PM 18.75 65.75 0.221 7.66 30.74 7.63
7/3/2021 10:15:00 PM 18.71 65.67799 0.221 7.66 27.8 7.62
7/3/2021 10:30:00 PM 18.66 65.588 0.221 7.65 28.47 7.62
7/3/2021 10:45:00 PM 18.62 65.516 0.221 7.65 27.63 7.63
7/3/2021 11:00:00 PM 18.57 65.426 0.22 7.66 28.25 7.63
7/3/2021 11:15:00 PM 18.53 65.354 0.22 7.64 28.26 7.63
7/3/2021 11:30:00 PM 18.49 65.282 0.22 7.65 27.91 7.63
7/3/2021 11:45:00 PM 18.45 65.21 0.219 7.65 32.79 7.63
7/4/2021 12:00:00 AM 18.41 65.138 0.219 7.64 28.52 7.63
7/4/2021 12:15:00 AM 18.37 65.066 0.219 7.65 28.74 7.64
7/4/2021 12:30:00 AM 18.33 64.994 0.218 7.64 29.36 7.65
7/4/2021 12:45:00 AM 18.29 64.922 0.218 7.65 33.39 7.65
7/4/2021 1:00:00 AM 18.25 64.85 0.217 7.64 28.63 7.65
7/4/2021 1:15:00 AM 18.21 64.778 0.217 7.64 28.41 7.66
7/4/2021 1:30:00 AM 18.18 64.724 0.217 7.63 29.2 7.66
7/4/2021 1:45:00 AM 18.14 64.652 0.216 7.65 28.87 7.67
7/4/2021 2:00:00 AM 18.1 64.58 0.216 7.64 29.08 7.68
7/4/2021 2:15:00 AM 18.07 64.526 0.216 7.64 27.78 7.68
7/4/2021 2:30:00 AM 18.03 64.454 0.216 7.63 30.28 7.68
7/4/2021 2:45:00 AM 17.99 64.382 0.215 7.64 26.98 7.69
7/4/2021 3:00:00 AM 17.94 64.292 0.215 7.63 29.46 7.68
7/4/2021 3:15:00 AM 17.89 64.202 0.215 7.64 29.47 7.69
7/4/2021 3:30:00 AM 17.85 64.13 0.215 7.63 29.18 7.7
7/4/2021 3:45:00 AM 17.81 64.058 0.215 7.63 29.32 7.7
7/4/2021 4:00:00 AM 17.77 63.986 0.215 7.62 28.94 7.7
7/4/2021 4:15:00 AM 17.73 63.914 0.215 7.63 34.6 7.71
7/4/2021 4:30:00 AM 17.69 63.842 0.215 7.62 28.79 7.71
7/4/2021 4:45:00 AM 17.64 63.752 0.215 7.63 30.1 7.71
7/4/2021 5:00:00 AM 17.6 63.68 0.215 7.63 25.5 7.71
7/4/2021 5:15:00 AM 17.55 63.59 0.214 7.62 29.86 7.72
7/4/2021 5:30:00 AM 17.51 63.518 0.214 7.63 28.15 7.72
7/4/2021 5:45:00 AM 17.47 63.446 0.214 7.62 35.19 7.73
7/4/2021 6:00:00 AM 17.44 63.392 0.214 7.61 30.21 7.74
7/4/2021 6:15:00 AM 17.41 63.338 0.214 7.62 30.08 7.74
7/4/2021 6:30:00 AM 17.39 63.302 0.214 7.62 30.47 7.75
7/4/2021 6:45:00 AM 17.38 63.284 0.214 7.62 30.66 7.69
7/4/2021 7:00:00 AM 17.38 63.284 0.213 7.62 30.6 7.76
7/4/2021 7:15:00 AM 17.38 63.284 0.213 7.62 30.98 7.75
7/4/2021 7:30:00 AM 17.39 63.302 0.213 7.61 29.39 7.77
7/4/2021 7:45:00 AM 17.4 63.32 0.213 7.62 29.5 7.79
7/4/2021 8:00:00 AM 17.42 63.356 0.213 7.62 30.35 7.78
7/4/2021 8:15:00 AM 17.43 63.374 0.213 7.62 30.34 7.83
7/4/2021 8:30:00 AM 17.45 63.41 0.213 7.63 29.01 7.82
7/4/2021 8:45:00 AM 17.48 63.464 0.213 7.63 30.37 7.84
7/4/2021 9:00:00 AM 17.5 63.5 0.213 7.63 29.18 7.85
7/4/2021 9:15:00 AM 17.54 63.572 0.213 7.63 29.11 7.85
7/4/2021 9:30:00 AM 17.59 63.662 0.213 7.64 30.09 7.86
7/4/2021 9:45:00 AM 17.64 63.752 0.213 7.64 29.56 7.87
7/4/2021 10:00:00 AM 17.69 63.842 0.213 7.64 29.38 7.89
7/4/2021 10:15:00 AM 17.74 63.932 0.213 7.64 29.9 7.89
7/4/2021 10:30:00 AM 17.8 64.04 0.213 7.64 24.82 7.91
7/4/2021 10:45:00 AM 17.93 64.274 0.213 7.65 29.43 7.92
7/4/2021 11:00:00 AM 17.99 64.382 0.213 7.64 29.02 7.94
7/4/2021 11:15:00 AM 18.01 64.418 0.213 7.65 29.41 7.96
7/4/2021 11:30:00 AM 18.08 64.544 0.213 7.66 28.48 7.97
7/4/2021 11:45:00 AM 18.17 64.706 0.213 7.64 30.35 7.95
7/4/2021 12:00:00 PM 18.36 65.048 0.213 7.66 28.82 7.99
7/4/2021 12:15:00 PM 18.49 65.282 0.213 7.66 28.79 7.99
7/4/2021 12:30:00 PM 18.53 65.354 0.213 7.67 31.04 7.99
7/4/2021 12:45:00 PM 18.6 65.48 0.213 7.66 28.98 7.96
7/4/2021 1:00:00 PM 18.67 65.606 0.213 7.66 27.28 7.96
7/4/2021 1:15:00 PM 18.77 65.786 0.213 7.65 28.56 7.99
7/4/2021 1:30:00 PM 18.87 65.966 0.213 7.67 28.68 8.02
7/4/2021 1:45:00 PM 18.99 66.182 0.213 7.66 27.71 8.04
7/4/2021 2:00:00 PM 19.1 66.38 0.214 7.67 32.98 8.03
7/4/2021 2:15:00 PM 19.38 66.884 0.214 7.69 29.32 8.06
7/4/2021 2:30:00 PM 19.49 67.082 0.214 7.7 29.5 8.05
7/4/2021 2:45:00 PM 19.54 67.172 0.214 7.69 29.18 8.03
7/4/2021 3:00:00 PM 19.61 67.298 0.214 7.7 30.8 8.03
7/4/2021 3:15:00 PM 19.63 67.334 0.214 7.68 38.82 8.03
7/4/2021 3:30:00 PM 19.57 67.226 0.214 7.69 31.37 7.97
7/4/2021 3:45:00 PM 19.74 67.532 0.215 7.69 29.69 8.01
7/4/2021 4:00:00 PM 19.74 67.532 0.215 7.7 29.81 7.98
7/4/2021 4:15:00 PM 19.69 67.442 0.215 7.69 30.32 7.97
7/4/2021 4:30:00 PM 19.65 67.37 0.215 7.69 29.45 7.92
7/4/2021 4:45:00 PM 19.62 67.316 0.215 7.68 30.27 7.87
7/4/2021 5:00:00 PM 19.7 67.46 0.216 7.69 29.36 7.88
7/4/2021 5:15:00 PM 19.69 67.442 0.216 7.68 31.14 7.86
7/4/2021 5:30:00 PM 19.69 67.442 0.216 7.68 29.1 7.84
7/4/2021 5:45:00 PM 19.68 67.424 0.216 7.68 27.81 7.81
7/4/2021 6:00:00 PM 19.65 67.37 0.217 7.67 30.27 7.78
7/4/2021 6:15:00 PM 19.59 67.262 0.217 7.66 30.17 7.77
7/4/2021 6:30:00 PM 19.52 67.136 0.217 7.66 30.3 7.75
7/4/2021 6:45:00 PM 19.44 66.992 0.217 7.66 28.09 7.73
7/4/2021 7:00:00 PM 19.36 66.848 0.218 7.66 28.11 7.7
7/4/2021 7:15:00 PM 19.29 66.722 0.218 7.65 28.89 7.68
7/4/2021 7:30:00 PM 19.23 66.614 0.218 7.65 29.46 7.66
7/4/2021 7:45:00 PM 19.17 66.506 0.219 7.65 29.55 7.65
7/4/2021 8:00:00 PM 19.11 66.398 0.219 7.61 30.42 7.64
7/4/2021 8:15:00 PM 19.04 66.272 0.219 7.62 29.34 7.62
7/4/2021 8:30:00 PM 18.96 66.128 0.22 7.62 26.91 7.63
7/4/2021 8:45:00 PM 18.9 66.02 0.219 7.61 29.4 7.62
7/4/2021 9:00:00 PM 18.83 65.894 0.22 7.62 29.06 7.62
7/4/2021 9:15:00 PM 18.76 65.768 0.221 7.62 29.9 7.62
7/4/2021 9:30:00 PM 18.7 65.66 0.221 7.62 30.63 7.63
7/4/2021 9:45:00 PM 18.64 65.552 0.222 7.62 28.8 7.62
7/4/2021 10:00:00 PM 18.58 65.444 0.222 7.62 29.25 7.63
7/4/2021 10:15:00 PM 18.52 65.336 0.222 7.62 29.22 7.63
7/4/2021 10:30:00 PM 18.46 65.228 0.223 7.61 29.32 7.64
7/4/2021 10:45:00 PM 18.4 65.12 0.223 7.6 27.45 7.64
7/4/2021 11:00:00 PM 18.34 65.012 0.224 7.6 29.63 7.65
7/4/2021 11:15:00 PM 18.28 64.904 0.224 7.62 28.49 7.66
7/4/2021 11:30:00 PM 18.22 64.796 0.225 7.62 27.23 7.67
7/4/2021 11:45:00 PM 18.16 64.688 0.225 7.6 27.03 7.68
7/5/2021 12:00:00 AM 18.09 64.562 0.226 7.62 28.45 7.68
7/5/2021 12:15:00 AM 18.03 64.454 0.226 7.61 26.44 7.7
7/5/2021 12:30:00 AM 17.97 64.346 0.227 7.62 28.2 7.71
7/5/2021 12:45:00 AM 17.9 64.22 0.227 7.62 25.73 7.72
7/5/2021 1:00:00 AM 17.84 64.112 0.228 7.62 26.4 7.73
7/5/2021 1:15:00 AM 17.78 64.004 0.228 7.63 82.57 7.74
7/5/2021 1:30:00 AM 17.71 63.878 0.229 7.62 26.27 7.75
7/5/2021 1:45:00 AM 17.66 63.788 0.229 7.63 22.9 7.77
7/5/2021 2:00:00 AM 17.6 63.68 0.23 7.62 25.38 7.78
7/5/2021 2:15:00 AM 17.55 63.59 0.231 7.63 24.5 7.79
7/5/2021 2:30:00 AM 17.51 63.518 0.231 7.63 23.66 7.79
7/5/2021 2:45:00 AM 17.48 63.464 0.232 7.63 24.57 7.8
7/5/2021 3:00:00 AM 17.44 63.392 0.232 7.62 25.65 7.81
7/5/2021 3:15:00 AM 17.41 63.338 0.233 7.63 23.95 7.82
7/5/2021 3:30:00 AM 17.37 63.266 0.234 7.63 23.75 7.83
7/5/2021 3:45:00 AM 17.32 63.176 0.234 7.63 23.96 7.84
7/5/2021 4:00:00 AM 17.27 63.086 0.235 7.63 22.64 7.84
7/5/2021 4:15:00 AM 17.22 62.996 0.235 7.63 24.77 7.86
7/5/2021 4:30:00 AM 17.18 62.924 0.236 7.63 28.7 7.86
7/5/2021 4:45:00 AM 17.14 62.852 0.237 7.63 23.32 7.87
7/5/2021 5:00:00 AM 17.1 62.78 0.237 7.64 22.14 7.87
7/5/2021 5:15:00 AM 17.07 62.726 0.238 7.64 22.05 7.87
7/5/2021 5:30:00 AM 17.03 62.654 0.238 7.64 22.36 7.89
7/5/2021 5:45:00 AM 17 62.6 0.239 7.64 21.87 7.89
7/5/2021 6:00:00 AM 16.97 62.546 0.24 7.64 21.31 7.9
7/5/2021 6:15:00 AM 16.95 62.51 0.24 7.64 21.14 7.91
7/5/2021 6:30:00 AM 16.93 62.474 0.241 7.65 20.17 7.92
7/5/2021 6:45:00 AM 16.92 62.456 0.241 7.63 20.85 7.94
7/5/2021 7:00:00 AM 16.91 62.438 0.242 7.65 20.45 7.95
7/5/2021 7:15:00 AM 16.91 62.438 0.242 7.65 19.97 7.97
7/5/2021 7:30:00 AM 16.91 62.438 0.243 7.66 19.29 7.99
7/5/2021 7:45:00 AM 16.92 62.456 0.243 7.66 20.43 8.01
7/5/2021 8:00:00 AM 16.94 62.492 0.244 7.67 19.16 8.05
7/5/2021 8:15:00 AM 16.97 62.546 0.244 7.67 18.23 8.08
7/5/2021 8:30:00 AM 16.99 62.582 0.245 7.68 16.95 8.11
7/5/2021 8:45:00 AM 17.02 62.636 0.245 7.68 17.43 8.12
7/5/2021 9:00:00 AM 17.08 62.744 0.246 7.69 16.47 8.14
7/5/2021 9:15:00 AM 17.16 62.888 0.246 7.69 17.4 8.17
7/5/2021 9:30:00 AM 17.24 63.032 0.247 7.7 17.27 8.19
7/5/2021 9:45:00 AM 17.34 63.212 0.247 7.71 16.69 8.22
7/5/2021 10:00:00 AM 17.44 63.392 0.248 7.71 16.24 8.26
7/5/2021 10:15:00 AM 17.55 63.59 0.248 7.72 15.88 8.29
7/5/2021 10:30:00 AM 17.69 63.842 0.249 7.73 15.92 8.33
7/5/2021 10:45:00 AM 17.83 64.094 0.249 7.74 15.59 8.38
7/5/2021 11:00:00 AM 17.98 64.364 0.249 7.75 15.64 8.42
7/5/2021 11:15:00 AM 18.14 64.652 0.25 7.76 14.73 8.46
7/5/2021 11:30:00 AM 18.31 64.958 0.25 7.75 11.26 8.49
7/5/2021 11:45:00 AM 18.48 65.264 0.251 7.76 13.96 8.53
7/5/2021 12:00:00 PM 18.66 65.588 0.251 7.79 14.49 8.56
7/5/2021 12:15:00 PM 18.83 65.894 0.252 7.8 13.99 8.58
7/5/2021 12:30:00 PM 19.01 66.218 0.252 7.81 13.44 8.61
7/5/2021 12:45:00 PM 19.19 66.542 0.252 7.82 13.74 8.63
7/5/2021 1:00:00 PM 19.36 66.848 0.253 7.81 13.52 8.65
7/5/2021 1:15:00 PM 19.51 67.118 0.253 7.84 13.45 8.65
7/5/2021 1:30:00 PM 19.68 67.424 0.254 7.85 12.98 8.67
7/5/2021 1:45:00 PM 19.83 67.694 0.254 7.84 12.94 8.68
7/5/2021 2:00:00 PM 19.96 67.92799 0.255 7.86 13.02 8.7
7/5/2021 2:15:00 PM 20.09 68.162 0.255 7.87 12.68 8.69
7/5/2021 2:30:00 PM 20.21 68.378 0.255 7.87 13.09 8.69
7/5/2021 2:45:00 PM 20.34 68.612 0.256 7.88 12.46 8.69
7/5/2021 3:00:00 PM 20.44 68.792 0.256 7.87 12.32 8.67
7/5/2021 3:15:00 PM 20.56 69.008 0.257 7.87 12.03 8.66
7/5/2021 3:30:00 PM 20.64 69.152 0.257 7.88 12.57 8.63
7/5/2021 3:45:00 PM 20.72 69.296 0.257 7.9 12.58 8.61
7/5/2021 4:00:00 PM 20.76 69.368 0.258 7.9 12.26 8.57
7/5/2021 4:15:00 PM 20.79 69.422 0.258 7.9 12.75 8.55
7/5/2021 4:30:00 PM 20.82 69.476 0.259 7.89 13.14 8.52
7/5/2021 4:45:00 PM 20.84 69.512 0.259 7.89 12.62 8.48
7/5/2021 5:00:00 PM 20.85 69.53 0.26 7.89 12.69 8.44
7/5/2021 5:15:00 PM 20.84 69.512 0.26 7.88 12.61 8.39
7/5/2021 5:30:00 PM 20.81 69.458 0.261 7.88 12.27 8.35
7/5/2021 5:45:00 PM 20.77 69.386 0.261 7.88 12.63 8.29
7/5/2021 6:00:00 PM 20.69 69.242 0.262 7.87 12.8 8.22
7/5/2021 6:15:00 PM 20.63 69.134 0.262 7.85 12.37 8.17
7/5/2021 6:30:00 PM 20.59 69.062 0.262 7.86 12.33 8.14
7/5/2021 6:45:00 PM 20.53 68.954 0.263 7.85 12.64 8.1
7/5/2021 7:00:00 PM 20.47 68.846 0.263 7.84 12.37 8.07
7/5/2021 7:15:00 PM 20.39 68.702 0.264 7.83 12.65 8.01
7/5/2021 7:30:00 PM 20.31 68.558 0.264 7.83 12.79 7.98
7/5/2021 7:45:00 PM 20.24 68.432 0.265 7.8 12.43 7.95
7/5/2021 8:00:00 PM 20.17 68.306 0.265 7.82 12.52 7.91
7/5/2021 8:15:00 PM 20.09 68.162 0.266 7.81 12.42 7.88
7/5/2021 8:30:00 PM 20.01 68.018 0.266 7.79 12.6 7.85
7/5/2021 8:45:00 PM 19.93 67.874 0.267 7.8 12.33 7.83
7/5/2021 9:00:00 PM 19.85 67.73 0.267 7.79 12.75 7.81
7/5/2021 9:15:00 PM 19.77 67.586 0.268 7.77 13.15 7.79
7/5/2021 9:30:00 PM 19.7 67.46 0.268 7.78 12.73 7.78
7/5/2021 9:45:00 PM 19.64 67.352 0.269 7.78 13.2 7.77
7/5/2021 10:00:00 PM 19.58 67.244 0.269 7.78 13 7.76
7/5/2021 10:15:00 PM 19.52 67.136 0.269 7.77 13.76 7.76
7/5/2021 10:30:00 PM 19.47 67.046 0.27 7.77 13.11 7.75
7/5/2021 10:45:00 PM 19.42 66.956 0.27 7.77 13.11 7.75
7/5/2021 11:00:00 PM 19.37 66.866 0.271 7.77 12.9 7.75
7/5/2021 11:15:00 PM 19.33 66.794 0.271 7.77 12.98 7.75
7/5/2021 11:30:00 PM 19.29 66.722 0.272 7.77 13.11 7.75
7/5/2021 11:45:00 PM 19.26 66.668 0.272 7.77 12.94 7.75
7/6/2021 12:00:00 AM 19.24 66.632 0.272 7.77 13.21 7.76
7/6/2021 12:15:00 AM 19.22 66.596 0.273 7.77 12.72 7.76
7/6/2021 12:30:00 AM 19.19 66.542 0.273 7.77 13.23 7.76
7/6/2021 12:45:00 AM 19.17 66.506 0.273 7.77 13.63 7.77
7/6/2021 1:00:00 AM 19.14 66.452 0.273 7.77 13.41 7.77
7/6/2021 1:15:00 AM 19.11 66.398 0.274 7.77 12.93 7.77
7/6/2021 1:30:00 AM 19.08 66.344 0.274 7.77 13.44 7.78
7/6/2021 1:45:00 AM 19.05 66.29 0.275 7.77 12.96 7.78
7/6/2021 2:00:00 AM 19.02 66.236 0.275 7.77 12.68 7.78
7/6/2021 2:15:00 AM 18.98 66.164 0.275 7.77 12.06 7.79
7/6/2021 2:30:00 AM 18.95 66.11 0.275 7.78 12.88 7.79
7/6/2021 2:45:00 AM 18.91 66.038 0.275 7.76 12.69 7.8
7/6/2021 3:00:00 AM 18.88 65.984 0.276 7.77 12.48 7.8
7/6/2021 3:15:00 AM 18.85 65.93 0.276 7.78 12.22 7.81
7/6/2021 3:30:00 AM 18.82 65.876 0.277 7.78 12.19 7.82
7/6/2021 3:45:00 AM 18.79 65.82201 0.277 7.77 12.4 7.82
7/6/2021 4:00:00 AM 18.77 65.786 0.278 7.78 12.12 7.83
7/6/2021 4:15:00 AM 18.74 65.732 0.278 7.78 12.43 7.84
7/6/2021 4:30:00 AM 18.72 65.696 0.279 7.78 12.42 7.84
7/6/2021 4:45:00 AM 18.7 65.66 0.28 7.78 13.07 7.84
7/6/2021 5:00:00 AM 18.68 65.624 0.28 7.78 11.95 7.85
7/6/2021 5:15:00 AM 18.66 65.588 0.281 7.78 12.13 7.85
7/6/2021 5:30:00 AM 18.64 65.552 0.282 7.79 14.27 7.86
7/6/2021 5:45:00 AM 18.62 65.516 0.283 7.79 13.4 7.87
7/6/2021 6:00:00 AM 18.61 65.498 0.283 7.79 12.45 7.87
7/6/2021 6:15:00 AM 18.59 65.462 0.284 7.79 11.89 7.88
7/6/2021 6:30:00 AM 18.59 65.462 0.284 7.79 12.08 7.91
7/6/2021 6:45:00 AM 18.59 65.462 0.285 7.8 11.52 7.94
7/6/2021 7:00:00 AM 18.6 65.48 0.286 7.8 11.67 7.98
7/6/2021 7:15:00 AM 18.61 65.498 0.286 7.81 11.39 8.01
7/6/2021 7:30:00 AM 18.62 65.516 0.287 7.82 10.75 8.05
7/6/2021 7:45:00 AM 18.64 65.552 0.287 7.83 11.03 8.09
7/6/2021 8:00:00 AM 18.67 65.606 0.287 7.83 11.16 8.12
7/6/2021 8:15:00 AM 18.69 65.642 0.288 7.82 14.94 8.16
7/6/2021 8:30:00 AM 18.74 65.732 0.288 7.85 10.24 8.21
7/6/2021 8:45:00 AM 18.81 65.858 0.289 7.86 9.73 8.27
7/6/2021 9:00:00 AM 18.88 65.984 0.289 7.87 9.95 8.34
7/6/2021 9:15:00 AM 18.93 66.074 0.289 7.88 9.57 8.39
7/6/2021 9:30:00 AM 19 66.2 0.29 7.89 9.56 8.4
7/6/2021 9:45:00 AM 19.13 66.434 0.29 7.91 9.48 8.49
7/6/2021 10:00:00 AM 19.26 66.668 0.29 7.92 9.29 8.53
7/6/2021 10:15:00 AM 19.39 66.902 0.291 7.93 9.48 8.58
7/6/2021 10:30:00 AM 19.53 67.154 0.291 7.95 9.49 8.64
7/6/2021 10:45:00 AM 19.69 67.442 0.291 7.95 8.87 8.7
7/6/2021 11:00:00 AM 19.86 67.748 0.292 7.98 8.71 8.78
7/6/2021 11:15:00 AM 20.06 68.108 0.292 8 8.85 8.84
7/6/2021 11:30:00 AM 20.24 68.432 0.293 8.02 8.47 8.88
7/6/2021 11:45:00 AM 20.43 68.774 0.293 8.03 8.29 8.91
7/6/2021 12:00:00 PM 20.65 69.17 0.293 8.04 12.73 8.98
7/6/2021 12:15:00 PM 20.82 69.476 0.294 8.07 7.74 8.98
7/6/2021 12:30:00 PM 21 69.8 0.294 8.08 7.63 9
7/6/2021 12:45:00 PM 21.07 69.926 0.294 8.08 7.82 8.93
7/6/2021 1:00:00 PM 21.07 69.926 0.295 8.07 7.66 8.81
7/6/2021 1:15:00 PM 21.31 70.358 0.295 8.1 7.43 8.92
7/6/2021 1:30:00 PM 21.5 70.7 0.296 8.11 7.48 8.94
7/6/2021 1:45:00 PM 21.74 71.132 0.296 8.13 7.22 9.01
7/6/2021 2:00:00 PM 21.77 71.186 0.297 8.12 7.12 8.92
7/6/2021 2:15:00 PM 21.77 71.186 0.297 8.12 6.88 8.85
7/6/2021 2:30:00 PM 21.66 70.988 0.298 8.11 6.99 8.73
7/6/2021 2:45:00 PM 21.57 70.826 0.298 8.1 6.73 8.63
7/6/2021 3:00:00 PM 21.49 70.682 0.298 8.08 12.47 8.48
7/6/2021 3:15:00 PM 21.46 70.628 0.298 8.07 7.05 8.39
7/6/2021 3:30:00 PM 21.44 70.592 0.298 8.06 6.79 8.32
7/6/2021 3:45:00 PM 21.42 70.556 0.299 8.06 6.88 8.34
7/6/2021 4:00:00 PM 21.41 70.538 0.299 8.05 12.23 8.37
7/6/2021 4:15:00 PM 21.43 70.574 0.3 8.07 7.19 8.46
7/6/2021 4:30:00 PM 21.48 70.664 0.3 8.09 7.35 8.55
7/6/2021 4:45:00 PM 21.6 70.88 0.3 8.11 7.48 8.64
7/6/2021 5:00:00 PM 21.64 70.952 0.301 8.12 7.38 8.64
7/6/2021 5:15:00 PM 21.59 70.862 0.301 8.1 7.24 8.52
7/6/2021 5:30:00 PM 21.53 70.754 0.302 8.09 7.41 8.41
7/6/2021 5:45:00 PM 21.49 70.682 0.302 8.08 7.63 8.37
7/6/2021 6:00:00 PM 21.46 70.628 0.302 8.07 7.48 8.31
7/6/2021 6:15:00 PM 21.46 70.628 0.302 8.06 7.9 8.29
7/6/2021 6:30:00 PM 21.48 70.664 0.303 8.07 7.61 8.32
7/6/2021 6:45:00 PM 21.48 70.664 0.303 8.07 7.97 8.31
7/6/2021 7:00:00 PM 21.46 70.628 0.303 8.06 7.78 8.32
7/6/2021 7:15:00 PM 21.42 70.556 0.303 8.06 7.94 8.29
7/6/2021 7:30:00 PM 21.36 70.448 0.303 8.05 8.03 8.25
7/6/2021 7:45:00 PM 21.3 70.34 0.303 8.04 8.39 8.19
7/6/2021 8:00:00 PM 21.24 70.232 0.303 8.03 8.18 8.12
7/6/2021 8:15:00 PM 21.17 70.106 0.303 8.02 8.5 8.05
7/6/2021 8:30:00 PM 21.11 69.998 0.303 8 8.85 8
7/6/2021 8:45:00 PM 21.04 69.872 0.303 7.99 9.83 7.95
7/6/2021 9:00:00 PM 20.97 69.746 0.303 7.98 10.03 7.91
7/6/2021 9:15:00 PM 20.89 69.602 0.303 7.97 10.5 7.88
7/6/2021 9:30:00 PM 20.81 69.458 0.303 7.96 10.34 7.85
7/6/2021 9:45:00 PM 20.74 69.332 0.303 7.95 10.73 7.83
7/6/2021 10:00:00 PM 20.66 69.188 0.303 7.94 10.96 7.81
7/6/2021 10:15:00 PM 20.59 69.062 0.303 7.93 14.83 7.8
7/6/2021 10:30:00 PM 20.53 68.954 0.303 7.93 14.63 7.78
7/6/2021 10:45:00 PM 20.46 68.828 0.303 7.92 10.61 7.78
7/6/2021 11:00:00 PM 20.4 68.72 0.303 7.92 10.88 7.77
7/6/2021 11:15:00 PM 20.34 68.612 0.303 7.91 10.73 7.77
7/6/2021 11:30:00 PM 20.29 68.522 0.304 7.9 10.3 7.77
7/6/2021 11:45:00 PM 20.25 68.45 0.304 7.91 9.93 7.77
7/7/2021 12:00:00 AM 20.2 68.36 0.304 7.9 10.14 7.77
7/7/2021 12:15:00 AM 20.16 68.288 0.304 7.9 9.74 7.77
7/7/2021 12:30:00 AM 20.13 68.234 0.304 7.9 10.09 7.77
7/7/2021 12:45:00 AM 20.09 68.162 0.304 7.9 10.16 7.78
7/7/2021 1:00:00 AM 20.06 68.108 0.304 7.9 10.21 7.78
7/7/2021 1:15:00 AM 20.02 68.036 0.304 7.89 9.99 7.78
7/7/2021 1:30:00 AM 19.99 67.982 0.304 7.89 9.88 7.78
7/7/2021 1:45:00 AM 19.96 67.92799 0.304 7.89 10.47 7.78
7/7/2021 2:00:00 AM 19.92 67.856 0.305 7.88 10.24 7.78
7/7/2021 2:15:00 AM 19.89 67.802 0.305 7.89 10.37 7.79
7/7/2021 2:30:00 AM 19.85 67.73 0.305 7.88 10.2 7.79
7/7/2021 2:45:00 AM 19.81 67.658 0.306 7.88 10.36 7.79
7/7/2021 3:00:00 AM 19.77 67.586 0.306 7.88 10.03 7.8
7/7/2021 3:15:00 AM 19.74 67.532 0.307 7.88 10.34 7.81
7/7/2021 3:30:00 AM 19.7 67.46 0.307 7.88 9.92 7.81
7/7/2021 3:45:00 AM 19.67 67.406 0.307 7.88 10.12 7.82
7/7/2021 4:00:00 AM 19.64 67.352 0.308 7.88 10.37 7.83
7/7/2021 4:15:00 AM 19.6 67.28 0.308 7.88 10.07 7.83
7/7/2021 4:30:00 AM 19.57 67.226 0.309 7.88 10.14 7.83
7/7/2021 4:45:00 AM 19.55 67.19 0.31 7.88 10.21 7.83
7/7/2021 5:00:00 AM 19.53 67.154 0.31 7.88 12.03 7.84
7/7/2021 5:15:00 AM 19.5 67.1 0.311 7.88 10.77 7.84
7/7/2021 5:30:00 AM 19.48 67.064 0.312 7.88 10.3 7.85
7/7/2021 5:45:00 AM 19.46 67.028 0.313 7.89 10.33 7.85
7/7/2021 6:00:00 AM 19.46 67.028 0.313 7.89 10.41 7.87
7/7/2021 6:15:00 AM 19.45 67.01 0.314 7.89 10.47 7.89
7/7/2021 6:30:00 AM 19.44 66.992 0.315 7.89 10.26 7.92
7/7/2021 6:45:00 AM 19.44 66.992 0.315 7.9 10.26 7.95
7/7/2021 7:00:00 AM 19.45 67.01 0.316 7.91 10.02 7.98
7/7/2021 7:15:00 AM 19.46 67.028 0.317 7.92 9.94 8.03
7/7/2021 7:30:00 AM 19.49 67.082 0.317 7.93 9.69 8.09
7/7/2021 7:45:00 AM 19.49 67.082 0.318 7.93 9.86 8.11
7/7/2021 8:00:00 AM 19.53 67.154 0.319 7.94 9.39 8.19
7/7/2021 8:15:00 AM 19.56 67.208 0.319 7.96 11.36 8.22
7/7/2021 8:30:00 AM 19.63 67.334 0.32 7.97 8.9 8.29
7/7/2021 8:45:00 AM 19.71 67.478 0.321 7.99 8.51 8.39
7/7/2021 9:00:00 AM 19.8 67.64 0.321 8 8.66 8.48
7/7/2021 9:15:00 AM 19.86 67.748 0.321 8.02 8.45 8.52
7/7/2021 9:30:00 AM 19.94 67.892 0.322 8.03 13.09 8.6
7/7/2021 9:45:00 AM 20.04 68.07201 0.322 8.05 12.53 8.68
7/7/2021 10:00:00 AM 20.14 68.252 0.322 8.07 8.08 8.71
7/7/2021 10:15:00 AM 20.26 68.468 0.322 8.08 7.73 8.75
7/7/2021 10:30:00 AM 20.41 68.738 0.322 8.09 7.68 8.84
7/7/2021 10:45:00 AM 20.58 69.044 0.321 8.11 7.81 8.9
7/7/2021 11:00:00 AM 20.72 69.296 0.321 8.13 7.8 8.97
7/7/2021 11:15:00 AM 20.87 69.566 0.32 8.15 7.66 9.02
7/7/2021 11:30:00 AM 21.02 69.836 0.32 8.16 7.82 9.08
7/7/2021 11:45:00 AM 21.27 70.286 0.319 8.19 7.74 9.18
7/7/2021 12:00:00 PM 21.34 70.412 0.318 8.18 8.91 9.08
7/7/2021 12:15:00 PM 21.4 70.52 0.318 8.18 7.44 8.97
7/7/2021 12:30:00 PM 21.46 70.628 0.318 8.17 7.31 8.89
7/7/2021 12:45:00 PM 21.63 70.934 0.317 8.19 8.24 8.95
7/7/2021 1:00:00 PM 21.76 71.168 0.316 8.2 7.58 8.97
7/7/2021 1:15:00 PM 21.89 71.402 0.316 8.21 7.53 9
7/7/2021 1:30:00 PM 22.08 71.744 0.315 8.23 7.31 9.09
7/7/2021 1:45:00 PM 22.33 72.194 0.315 8.25 7.41 9.17
7/7/2021 2:00:00 PM 22.51 72.518 0.314 8.26 7.52 9.24
7/7/2021 2:15:00 PM 22.72 72.896 0.314 8.28 7.88 9.28
7/7/2021 2:30:00 PM 22.93 73.274 0.313 8.29 7.8 9.31
7/7/2021 2:45:00 PM 23.1 73.58 0.313 8.29 7.61 9.3
7/7/2021 3:00:00 PM 23.24 73.832 0.313 8.3 7.5 9.24
7/7/2021 3:15:00 PM 23.32 73.976 0.313 8.3 7.89 9.19
7/7/2021 3:30:00 PM 23.45 74.21 0.312 8.3 7.92 9.18
7/7/2021 3:45:00 PM 23.6 74.48 0.312 8.31 8.46 9.17
7/7/2021 4:00:00 PM 23.7 74.66 0.312 8.31 7.92 9.12
7/7/2021 4:15:00 PM 23.71 74.67799 0.312 8.3 8.21 9.04
7/7/2021 4:30:00 PM 23.72 74.696 0.312 8.29 8.01 8.97
7/7/2021 4:45:00 PM 23.71 74.67799 0.312 8.28 8.52 8.88
7/7/2021 5:00:00 PM 23.7 74.66 0.312 8.28 8.22 8.81
7/7/2021 5:15:00 PM 23.7 74.66 0.312 8.27 8.58 8.78
7/7/2021 5:30:00 PM 23.65 74.57 0.313 8.27 9.96 8.71
7/7/2021 5:45:00 PM 23.6 74.48 0.313 8.25 9.49 8.64
7/7/2021 6:00:00 PM 23.55 74.39 0.313 8.24 8.29 8.57
7/7/2021 6:15:00 PM 23.49 74.282 0.313 8.23 8.84 8.49
7/7/2021 6:30:00 PM 23.42 74.156 0.314 8.22 8.86 8.39
7/7/2021 6:45:00 PM 23.33 73.994 0.314 8.2 8.36 8.31
7/7/2021 7:00:00 PM 23.23 73.814 0.314 8.18 8.49 8.19
7/7/2021 7:15:00 PM 23.14 73.652 0.315 8.16 8.61 8.1
7/7/2021 7:30:00 PM 23.07 73.526 0.315 8.15 9.09 8.02
7/7/2021 7:45:00 PM 23.01 73.418 0.315 8.13 9.45 7.96
7/7/2021 8:00:00 PM 22.96 73.328 0.315 8.12 9.3 7.9
7/7/2021 8:15:00 PM 22.89 73.202 0.316 8.11 8.9 7.86
7/7/2021 8:30:00 PM 22.81 73.058 0.316 8.09 9.94 7.78
7/7/2021 8:45:00 PM 22.73 72.914 0.316 8.08 9.67 7.74
7/7/2021 9:00:00 PM 22.63 72.734 0.317 8.06 9.85 7.69
7/7/2021 9:15:00 PM 22.55 72.59 0.317 8.06 10.08 7.64
7/7/2021 9:30:00 PM 22.46 72.42799 0.317 8.04 10.39 7.61
7/7/2021 9:45:00 PM 22.37 72.266 0.309 8.03 10.8 7.58
7/7/2021 10:00:00 PM 22.29 72.122 0.318 8.02 10.92 7.57
7/7/2021 10:15:00 PM 22.21 71.978 0.318 8.01 10.57 7.55
7/7/2021 10:30:00 PM 22.13 71.834 0.318 8.01 10.46 7.54
7/7/2021 10:45:00 PM 22.06 71.708 0.319 8 10.46 7.53
7/7/2021 11:00:00 PM 21.99 71.582 0.319 8 10.92 7.52
7/7/2021 11:15:00 PM 21.93 71.474 0.319 7.99 10.65 7.52
7/7/2021 11:30:00 PM 21.84 71.312 0.318 7.99 10.17 7.53
7/7/2021 11:45:00 PM 21.76 71.168 0.316 7.99 12.06 7.54
7/8/2021 12:00:00 AM 21.69 71.042 0.316 7.99 11.14 7.55
7/8/2021 12:15:00 AM 21.61 70.898 0.315 7.99 10.7 7.56
7/8/2021 12:30:00 AM 21.53 70.754 0.314 7.99 11.32 7.58
7/8/2021 12:45:00 AM 21.43 70.574 0.313 7.98 11.12 7.59
7/8/2021 1:00:00 AM 21.34 70.412 0.312 7.99 11.48 7.61
7/8/2021 1:15:00 AM 21.26 70.268 0.312 7.98 11.64 7.61
7/8/2021 1:30:00 AM 21.19 70.142 0.313 7.98 11.36 7.62
7/8/2021 1:45:00 AM 21.13 70.034 0.316 7.98 12.3 7.62
7/8/2021 2:00:00 AM 21.09 69.962 0.318 7.97 11.42 7.61
7/8/2021 2:15:00 AM 21.06 69.908 0.319 7.98 11.34 7.61
7/8/2021 2:30:00 AM 21.01 69.818 0.319 7.97 11.12 7.61
7/8/2021 2:45:00 AM 20.97 69.746 0.319 7.97 11.23 7.61
7/8/2021 3:00:00 AM 20.92 69.656 0.319 7.96 10.97 7.61
7/8/2021 3:15:00 AM 20.87 69.566 0.319 7.96 11.09 7.61
7/8/2021 3:30:00 AM 20.82 69.476 0.319 7.96 11.73 7.61
7/8/2021 3:45:00 AM 20.77 69.386 0.319 7.96 11.88 7.61
7/8/2021 4:00:00 AM 20.72 69.296 0.319 7.96 12.02 7.61
7/8/2021 4:15:00 AM 20.66 69.188 0.319 7.96 11.97 7.61
7/8/2021 4:30:00 AM 20.61 69.098 0.319 7.96 12.07 7.62
7/8/2021 4:45:00 AM 20.57 69.026 0.319 7.95 12.2 7.63
7/8/2021 5:00:00 AM 20.53 68.954 0.319 7.95 12.37 7.64
7/8/2021 5:15:00 AM 20.49 68.882 0.319 7.95 13.73 7.64
7/8/2021 5:30:00 AM 20.46 68.828 0.318 7.95 13.71 7.64
7/8/2021 5:45:00 AM 20.43 68.774 0.318 7.94 13.6 7.65
7/8/2021 6:00:00 AM 20.39 68.702 0.317 7.94 14.26 7.66
7/8/2021 6:15:00 AM 20.36 68.648 0.316 7.94 14.92 7.68
7/8/2021 6:30:00 AM 20.31 68.558 0.313 7.94 14.19 7.71
7/8/2021 6:45:00 AM 20.27 68.486 0.31 7.95 14.97 7.76
7/8/2021 7:00:00 AM 20.23 68.414 0.308 7.95 14.49 7.79
7/8/2021 7:15:00 AM 20.2 68.36 0.306 7.95 13.86 7.82
7/8/2021 7:30:00 AM 20.18 68.324 0.306 7.94 13.59 7.85
7/8/2021 7:45:00 AM 20.17 68.306 0.307 7.95 12.82 7.91
7/8/2021 8:00:00 AM 20.17 68.306 0.307 7.96 12.62 7.95
7/8/2021 8:15:00 AM 20.19 68.342 0.308 7.97 11.4 8.02
7/8/2021 8:30:00 AM 20.2 68.36 0.309 7.98 11.18 8.07
7/8/2021 8:45:00 AM 20.27 68.486 0.31 8 10.87 8.2
7/8/2021 9:00:00 AM 20.32 68.576 0.31 8.01 10.29 8.29
7/8/2021 9:15:00 AM 20.36 68.648 0.311 8.03 10.11 8.35
7/8/2021 9:30:00 AM 20.39 68.702 0.312 8.04 9.25 8.4
7/8/2021 9:45:00 AM 20.46 68.828 0.312 8.05 8.99 8.49
7/8/2021 10:00:00 AM 20.52 68.936 0.312 8.07 9.14 8.53
7/8/2021 10:15:00 AM 20.6 69.08 0.312 8.08 13.59 8.64
7/8/2021 10:30:00 AM 20.69 69.242 0.312 8.1 12.81 8.73
7/8/2021 10:45:00 AM 20.82 69.476 0.312 8.11 8.05 8.81
7/8/2021 11:00:00 AM 20.95 69.71 0.311 8.14 8.29 8.91
7/8/2021 11:15:00 AM 21.04 69.872 0.311 8.16 7.48 8.98
7/8/2021 11:30:00 AM 21.12 70.016 0.311 8.17 7.55 8.99
7/8/2021 11:45:00 AM 21.25 70.25 0.31 8.18 7.34 9.07
7/8/2021 12:00:00 PM 21.33 70.394 0.31 8.2 7.13 9.06
7/8/2021 12:15:00 PM 21.39 70.502 0.31 8.19 12.32 9.04
7/8/2021 12:30:00 PM 21.42 70.556 0.31 8.2 7.05 8.99
7/8/2021 12:45:00 PM 21.44 70.592 0.311 8.19 6.85 8.87
7/8/2021 1:00:00 PM 21.47 70.646 0.311 8.19 6.68 8.85
7/8/2021 1:15:00 PM 21.48 70.664 0.311 8.18 6.68 8.81
7/8/2021 1:30:00 PM 21.5 70.7 0.311 8.19 6.79 8.78
7/8/2021 1:45:00 PM 21.53 70.754 0.312 8.19 6.8 8.81
7/8/2021 2:00:00 PM 21.52 70.736 0.312 8.19 6.32 8.74
7/8/2021 2:15:00 PM 21.52 70.736 0.312 8.19 6.25 8.74
7/8/2021 2:30:00 PM 21.54 70.772 0.313 8.19 6.37 8.76
7/8/2021 2:45:00 PM 21.58 70.844 0.313 8.2 6.71 8.8
7/8/2021 3:00:00 PM 21.67 71.006 0.313 8.21 6.48 8.92
7/8/2021 3:15:00 PM 21.79 71.222 0.313 8.24 6.51 9.05
7/8/2021 3:30:00 PM 21.88 71.384 0.314 8.25 6.69 9.1
7/8/2021 3:45:00 PM 22 71.6 0.314 8.26 7.21 9.15
7/8/2021 4:00:00 PM 22.01 71.618 0.315 8.26 6.9 9.05
7/8/2021 4:15:00 PM 21.98 71.564 0.315 8.24 6.94 8.9
7/8/2021 4:30:00 PM 21.95 71.51 0.316 8.23 6.56 8.78
7/8/2021 4:45:00 PM 21.93 71.474 0.316 8.21 6.79 8.68
7/8/2021 5:00:00 PM 21.93 71.474 0.317 8.2 6.69 8.63
7/8/2021 5:15:00 PM 21.93 71.474 0.317 8.19 7.08 8.59
7/8/2021 5:30:00 PM 21.93 71.474 0.317 8.19 7.02 8.58
7/8/2021 5:45:00 PM 21.92 71.456 0.316 8.19 7.35 8.56
7/8/2021 6:00:00 PM 21.88 71.384 0.316 8.18 7.07 8.48
7/8/2021 6:15:00 PM 21.83 71.294 0.316 8.17 7.15 8.38
7/8/2021 6:30:00 PM 21.77 71.186 0.317 8.15 7.34 8.3
7/8/2021 6:45:00 PM 21.72 71.096 0.316 8.13 7.39 8.21
7/8/2021 7:00:00 PM 21.68 71.024 0.317 8.11 10.27 8.18
7/8/2021 7:15:00 PM 21.65 70.97 0.317 8.12 7.59 8.18
7/8/2021 7:30:00 PM 21.62 70.916 0.317 8.11 8.33 8.17
7/8/2021 7:45:00 PM 21.57 70.826 0.317 8.11 8.77 8.15
7/8/2021 8:00:00 PM 21.52 70.736 0.317 8.09 8.12 8.08
7/8/2021 8:15:00 PM 21.45 70.61 0.317 8.08 8.13 8
7/8/2021 8:30:00 PM 21.4 70.52 0.317 8.06 8.25 7.94
7/8/2021 8:45:00 PM 21.34 70.412 0.317 8.05 9.35 7.89
7/8/2021 9:00:00 PM 21.29 70.32201 0.316 8.04 9.13 7.86
7/8/2021 9:15:00 PM 21.24 70.232 0.315 8.03 9.87 7.83
7/8/2021 9:30:00 PM 21.19 70.142 0.315 8.02 10.57 7.81
7/8/2021 9:45:00 PM 21.14 70.052 0.314 8.01 10.2 7.79
7/8/2021 10:00:00 PM 21.09 69.962 0.314 8 10.29 7.77
7/8/2021 10:15:00 PM 21.04 69.872 0.314 8 10.04 7.75
7/8/2021 10:30:00 PM 21 69.8 0.312 7.99 10.85 7.74
7/8/2021 10:45:00 PM 20.96 69.728 0.312 7.99 11.13 7.73
7/8/2021 11:00:00 PM 20.92 69.656 0.311 7.98 11.11 7.72
7/8/2021 11:15:00 PM 20.88 69.584 0.311 7.98 11.32 7.72
7/8/2021 11:30:00 PM 20.84 69.512 0.31 7.97 11.84 7.71
7/8/2021 11:45:00 PM 20.81 69.458 0.311 7.97 12.75 7.71
7/9/2021 12:00:00 AM 20.77 69.386 0.31 7.96 15.14 7.71
7/9/2021 12:15:00 AM 20.72 69.296 0.31 7.97 11.94 7.71
7/9/2021 12:30:00 AM 20.68 69.224 0.31 7.96 12.04 7.72
7/9/2021 12:45:00 AM 20.64 69.152 0.309 7.96 12.91 7.73
7/9/2021 1:00:00 AM 20.6 69.08 0.309 7.96 12.63 7.73
7/9/2021 1:15:00 AM 20.55 68.99 0.309 7.96 13.47 7.72
7/9/2021 1:30:00 AM 20.51 68.918 0.31 7.95 13.65 7.73
7/9/2021 1:45:00 AM 20.48 68.864 0.311 7.95 14.1 7.72
7/9/2021 2:00:00 AM 20.44 68.792 0.312 7.95 14.52 7.72
7/9/2021 2:15:00 AM 20.41 68.738 0.312 7.95 15.13 7.72
7/9/2021 2:30:00 AM 20.37 68.666 0.311 7.95 14.66 7.72
7/9/2021 2:45:00 AM 20.33 68.594 0.311 7.94 15.22 7.72
7/9/2021 3:00:00 AM 20.29 68.522 0.31 7.94 15.35 7.72
7/9/2021 3:15:00 AM 20.26 68.468 0.309 7.94 15.9 7.73
7/9/2021 3:30:00 AM 20.22 68.396 0.308 7.93 16.26 7.72
7/9/2021 3:45:00 AM 20.19 68.342 0.307 7.93 16.11 7.73
7/9/2021 4:00:00 AM 20.15 68.27 0.305 7.92 15.8 7.73
7/9/2021 4:15:00 AM 20.12 68.216 0.304 7.92 17.31 7.74
7/9/2021 4:30:00 AM 20.08 68.144 0.303 7.92 16.98 7.74
7/9/2021 4:45:00 AM 20.05 68.09 0.303 7.91 17.65 7.74
7/9/2021 5:00:00 AM 20.02 68.036 0.302 7.91 17.53 7.74
7/9/2021 5:15:00 AM 19.99 67.982 0.302 7.91 24.04 7.74
7/9/2021 5:30:00 AM 19.96 67.92799 0.302 7.91 19.49 7.74
7/9/2021 5:45:00 AM 19.94 67.892 0.301 7.9 18.04 7.74
7/9/2021 6:00:00 AM 19.91 67.838 0.301 7.9 17.31 7.76
7/9/2021 6:15:00 AM 19.88 67.784 0.3 7.9 17.96 7.77
7/9/2021 6:30:00 AM 19.86 67.748 0.299 7.9 16.75 7.78
7/9/2021 6:45:00 AM 19.83 67.694 0.298 7.9 16.69 7.79
7/9/2021 7:00:00 AM 19.81 67.658 0.298 7.9 16.75 7.8
7/9/2021 7:15:00 AM 19.8 67.64 0.297 7.9 15.9 7.81
7/9/2021 7:30:00 AM 19.79 67.622 0.297 7.9 15.75 7.84
7/9/2021 7:45:00 AM 19.78 67.604 0.297 7.91 14.88 7.87
7/9/2021 8:00:00 AM 19.77 67.586 0.297 7.91 14.43 7.91
7/9/2021 8:15:00 AM 19.77 67.586 0.297 7.91 14.48 7.94
7/9/2021 8:30:00 AM 19.78 67.604 0.297 7.92 13 7.98
7/9/2021 8:45:00 AM 19.8 67.64 0.297 7.93 13.73 8.05
7/9/2021 9:00:00 AM 19.84 67.712 0.297 7.94 13.01 8.15
7/9/2021 9:15:00 AM 19.89 67.802 0.296 7.95 12.63 8.23
7/9/2021 9:30:00 AM 19.94 67.892 0.296 7.96 12.51 8.32
7/9/2021 9:45:00 AM 20 68 0.295 7.98 12 8.4
7/9/2021 10:00:00 AM 20.08 68.144 0.295 7.99 12.08 8.47
7/9/2021 10:15:00 AM 20.19 68.342 0.295 8.01 11.95 8.55
7/9/2021 10:30:00 AM 20.25 68.45 0.295 8.01 11.69 8.57
7/9/2021 10:45:00 AM 20.27 68.486 0.294 8.01 11.51 8.54
7/9/2021 11:00:00 AM 20.35 68.63 0.294 8.01 14.33 8.6
7/9/2021 11:15:00 AM 20.44 68.792 0.294 8.03 10.91 8.62
7/9/2021 11:30:00 AM 20.56 69.008 0.293 8.04 11.2 8.7
7/9/2021 11:45:00 AM 20.79 69.422 0.293 8.07 10.32 8.85
7/9/2021 12:00:00 PM 20.95 69.71 0.293 8.09 10.19 8.88
7/9/2021 12:15:00 PM 21.17 70.106 0.292 8.11 10.49 8.97
7/9/2021 12:30:00 PM 21.14 70.052 0.292 8.1 9.94 8.86
7/9/2021 12:45:00 PM 21.26 70.268 0.292 8.1 9.73 8.85
7/9/2021 1:00:00 PM 21.39 70.502 0.292 8.11 9.85 8.87
7/9/2021 1:15:00 PM 21.61 70.898 0.292 8.13 9.29 8.96
7/9/2021 1:30:00 PM 21.77 71.186 0.292 8.14 9.45 9
7/9/2021 1:45:00 PM 21.81 71.258 0.292 8.14 10 8.97
7/9/2021 2:00:00 PM 21.74 71.132 0.292 8.13 9.78 8.86
7/9/2021 2:15:00 PM 21.88 71.384 0.292 8.14 9.65 8.87
7/9/2021 2:30:00 PM 22.06 71.708 0.292 8.15 8.97 8.95
7/9/2021 2:45:00 PM 22.15 71.87 0.292 8.16 9.47 8.97
7/9/2021 3:00:00 PM 22.19 71.942 0.292 8.16 9.09 8.93
7/9/2021 3:15:00 PM 22.21 71.978 0.292 8.15 9.25 8.85
7/9/2021 3:30:00 PM 22.19 71.942 0.292 8.14 9.25 8.71
7/9/2021 3:45:00 PM 22.14 71.852 0.292 8.12 9.04 8.59
7/9/2021 4:00:00 PM 22.14 71.852 0.292 8.1 9.17 8.49
7/9/2021 4:15:00 PM 22.14 71.852 0.292 8.1 9.38 8.45
7/9/2021 4:30:00 PM 22.14 71.852 0.292 8.09 9.38 8.43
7/9/2021 4:45:00 PM 22.1 71.78 0.292 8.08 8.94 8.37
7/9/2021 5:00:00 PM 22.05 71.69 0.292 8.07 9.64 8.33
7/9/2021 5:15:00 PM 22.04 71.672 0.292 8.08 9.7 8.33
7/9/2021 5:30:00 PM 22.01 71.618 0.292 8.07 9.5 8.33
7/9/2021 5:45:00 PM 22.01 71.618 0.292 8.07 9.33 8.38
7/9/2021 6:00:00 PM 22.01 71.618 0.292 8.07 9.44 8.37
7/9/2021 6:15:00 PM 21.96 71.528 0.292 8.06 9.5 8.32
7/9/2021 6:30:00 PM 21.93 71.474 0.293 8.06 9.47 8.25
7/9/2021 6:45:00 PM 21.9 71.42 0.293 8.04 9.6 8.17
7/9/2021 7:00:00 PM 21.86 71.348 0.293 8.03 9.89 8.11
7/9/2021 7:15:00 PM 21.83 71.294 0.293 8.02 11.25 8.05
7/9/2021 7:30:00 PM 21.76 71.168 0.293 8.01 10.18 7.99
7/9/2021 7:45:00 PM 21.68 71.024 0.294 7.99 10.03 7.92
7/9/2021 8:00:00 PM 21.6 70.88 0.294 7.98 10.58 7.88
7/9/2021 8:15:00 PM 21.52 70.736 0.294 7.97 10.34 7.83
7/9/2021 8:30:00 PM 21.44 70.592 0.294 7.96 10.39 7.78
7/9/2021 8:45:00 PM 21.36 70.448 0.294 7.95 10.79 7.74
7/9/2021 9:00:00 PM 21.29 70.32201 0.294 7.94 10.97 7.71
7/9/2021 9:15:00 PM 21.21 70.17799 0.294 7.93 14.85 7.69
7/9/2021 9:30:00 PM 21.14 70.052 0.294 7.93 11.84 7.66
7/9/2021 9:45:00 PM 21.07 69.926 0.294 7.92 12.85 7.64
7/9/2021 10:00:00 PM 21 69.8 0.294 7.91 12.31 7.63
7/9/2021 10:15:00 PM 20.94 69.692 0.294 7.9 12.29 7.62
7/9/2021 10:30:00 PM 20.87 69.566 0.294 7.9 12.2 7.61
7/9/2021 10:45:00 PM 20.81 69.458 0.294 7.9 12.73 7.6
7/9/2021 11:00:00 PM 20.75 69.35 0.294 7.89 12.86 7.6
7/9/2021 11:15:00 PM 20.7 69.26 0.294 7.89 12.3 7.6
7/9/2021 11:30:00 PM 20.66 69.188 0.294 7.89 12.44 7.6
7/9/2021 11:45:00 PM 20.61 69.098 0.294 7.88 12.88 7.6
7/10/2021 12:00:00 AM 20.56 69.008 0.294 7.88 12.65 7.6
7/10/2021 12:15:00 AM 20.52 68.936 0.294 7.88 15.71 7.59
7/10/2021 12:30:00 AM 20.49 68.882 0.294 7.87 12.81 7.59
7/10/2021 12:45:00 AM 20.45 68.81 0.294 7.87 12.34 7.6
7/10/2021 1:00:00 AM 20.41 68.738 0.294 7.87 13.25 7.59
7/10/2021 1:15:00 AM 20.38 68.684 0.294 7.87 13.78 7.6
7/10/2021 1:30:00 AM 20.34 68.612 0.294 7.87 13.4 7.61
7/10/2021 1:45:00 AM 20.3 68.54 0.294 7.87 13.22 7.61
7/10/2021 2:00:00 AM 20.26 68.468 0.295 7.87 13.49 7.61
7/10/2021 2:15:00 AM 20.22 68.396 0.294 7.87 12.92 7.61
7/10/2021 2:30:00 AM 20.19 68.342 0.295 7.87 12.92 7.62
7/10/2021 2:45:00 AM 20.15 68.27 0.295 7.86 13.98 7.62
7/10/2021 3:00:00 AM 20.12 68.216 0.294 7.87 12.57 7.63
7/10/2021 3:15:00 AM 20.08 68.144 0.294 7.86 13.41 7.63
7/10/2021 3:30:00 AM 20.05 68.09 0.294 7.86 12.65 7.64
7/10/2021 3:45:00 AM 20.01 68.018 0.294 7.86 12.9 7.65
7/10/2021 4:00:00 AM 19.98 67.964 0.294 7.86 12.53 7.65
7/10/2021 4:15:00 AM 19.95 67.91 0.294 7.86 12.59 7.65
7/10/2021 4:30:00 AM 19.92 67.856 0.294 7.86 13.15 7.66
7/10/2021 4:45:00 AM 19.89 67.802 0.294 7.86 13.47 7.66
7/10/2021 5:00:00 AM 19.85 67.73 0.294 7.86 13.17 7.67
7/10/2021 5:15:00 AM 19.82 67.676 0.294 7.86 13.04 7.67
7/10/2021 5:30:00 AM 19.79 67.622 0.294 7.86 13.26 7.67
7/10/2021 5:45:00 AM 19.76 67.568 0.293 7.86 13.66 7.67
7/10/2021 6:00:00 AM 19.72 67.496 0.293 7.86 25.19 7.69
7/10/2021 6:15:00 AM 19.69 67.442 0.293 7.86 12.92 7.69
7/10/2021 6:30:00 AM 19.67 67.406 0.293 7.86 12.89 7.71
7/10/2021 6:45:00 AM 19.64 67.352 0.293 7.86 12.94 7.73
7/10/2021 7:00:00 AM 19.62 67.316 0.293 7.86 12.42 7.75
7/10/2021 7:15:00 AM 19.6 67.28 0.293 7.86 12.62 7.78
7/10/2021 7:30:00 AM 19.59 67.262 0.292 7.87 12.16 7.81
7/10/2021 7:45:00 AM 19.58 67.244 0.292 7.87 11.84 7.85
7/10/2021 8:00:00 AM 19.56 67.208 0.292 7.87 38.02 7.85
7/10/2021 8:15:00 AM 19.55 67.19 0.292 7.87 11.17 7.89
7/10/2021 8:30:00 AM 19.53 67.154 0.292 7.88 11.04 7.9
7/10/2021 8:45:00 AM 19.52 67.136 0.292 7.88 10.5 7.93
7/10/2021 9:00:00 AM 19.5 67.1 0.292 7.88 10.65 7.96
7/10/2021 9:15:00 AM 19.5 67.1 0.292 7.89 10.01 7.98
7/10/2021 9:30:00 AM 19.49 67.082 0.291 7.89 10.15 8.02
7/10/2021 9:45:00 AM 19.49 67.082 0.291 7.89 9.54 8.05
7/10/2021 10:00:00 AM 19.5 67.1 0.291 7.9 9.34 8.11
7/10/2021 10:15:00 AM 19.52 67.136 0.291 7.91 9.4 8.2
7/10/2021 10:30:00 AM 19.56 67.208 0.291 7.93 9.27 8.3
7/10/2021 10:45:00 AM 19.59 67.262 0.29 7.94 8.86 8.36
7/10/2021 11:00:00 AM 19.61 67.298 0.29 7.95 9.05 8.41
7/10/2021 11:15:00 AM 19.65 67.37 0.29 7.95 8.66 8.45
7/10/2021 11:30:00 AM 19.7 67.46 0.29 7.97 8.34 8.54
7/10/2021 11:45:00 AM 19.75 67.55 0.29 7.98 8.14 8.61
7/10/2021 12:00:00 PM 19.78 67.604 0.29 7.99 8.03 8.64
7/10/2021 12:15:00 PM 19.83 67.694 0.29 8 8.01 8.68
7/10/2021 12:30:00 PM 19.88 67.784 0.29 8.01 8.21 8.72
7/10/2021 12:45:00 PM 19.97 67.946 0.29 8.02 7.74 8.82
7/10/2021 1:00:00 PM 20.08 68.144 0.29 8.05 7.62 8.96
7/10/2021 1:15:00 PM 20.19 68.342 0.29 8.07 7.48 9.04
7/10/2021 1:30:00 PM 20.29 68.522 0.29 8.08 7.85 9.12
7/10/2021 1:45:00 PM 20.37 68.666 0.29 8.1 7.39 9.13
7/10/2021 2:00:00 PM 20.46 68.828 0.29 8.11 7.18 9.19
7/10/2021 2:15:00 PM 20.54 68.972 0.29 8.12 7.24 9.22
7/10/2021 2:30:00 PM 20.62 69.116 0.29 8.12 7.05 9.23
7/10/2021 2:45:00 PM 20.71 69.278 0.29 8.14 7.11 9.27
7/10/2021 3:00:00 PM 20.84 69.512 0.29 8.14 7.04 9.3
7/10/2021 3:15:00 PM 20.89 69.602 0.29 8.15 7.33 9.29
7/10/2021 3:30:00 PM 20.96 69.728 0.29 8.15 7.12 9.26
7/10/2021 3:45:00 PM 21.06 69.908 0.291 8.16 6.94 9.26
7/10/2021 4:00:00 PM 21.19 70.142 0.291 8.16 7.51 9.24
7/10/2021 4:15:00 PM 21.32 70.376 0.291 8.16 6.93 9.24
7/10/2021 4:30:00 PM 21.41 70.538 0.291 8.16 7.26 9.21
7/10/2021 4:45:00 PM 21.45 70.61 0.292 8.16 7.1 9.15
7/10/2021 5:00:00 PM 21.38 70.484 0.292 8.14 6.86 9
7/10/2021 5:15:00 PM 21.28 70.304 0.292 8.12 7.12 8.85
7/10/2021 5:30:00 PM 21.19 70.142 0.293 8.09 7.16 8.68
7/10/2021 5:45:00 PM 21.22 70.196 0.293 8.08 7.24 8.67
7/10/2021 6:00:00 PM 21.23 70.214 0.293 8.07 7.71 8.62
7/10/2021 6:15:00 PM 21.21 70.17799 0.294 8.06 7.84 8.57
7/10/2021 6:30:00 PM 21.14 70.052 0.294 8.05 8.38 8.48
7/10/2021 6:45:00 PM 21.08 69.944 0.295 8.04 7.57 8.39
7/10/2021 7:00:00 PM 21.02 69.836 0.295 8.02 7.44 8.31
7/10/2021 7:15:00 PM 20.97 69.746 0.295 8.01 7.75 8.24
7/10/2021 7:30:00 PM 20.94 69.692 0.296 8 8.22 8.18
7/10/2021 7:45:00 PM 20.91 69.638 0.296 7.99 8.7 8.13
7/10/2021 8:00:00 PM 20.86 69.548 0.296 7.98 8.21 8.09
7/10/2021 8:15:00 PM 20.79 69.422 0.297 7.97 8.55 8.04
7/10/2021 8:30:00 PM 20.7 69.26 0.297 7.96 8.35 7.99
7/10/2021 8:45:00 PM 20.59 69.062 0.298 7.95 8.11 7.95
7/10/2021 9:00:00 PM 20.48 68.864 0.298 7.94 8.76 7.92
7/10/2021 9:15:00 PM 20.37 68.666 0.298 7.93 9.22 7.89
7/10/2021 9:30:00 PM 20.27 68.486 0.299 7.92 13.05 7.86
7/10/2021 9:45:00 PM 20.19 68.342 0.299 7.91 9.48 7.85
7/10/2021 10:00:00 PM 20.12 68.216 0.3 7.91 9.47 7.83
7/10/2021 10:15:00 PM 20.06 68.108 0.3 7.91 9.5 7.82
7/10/2021 10:30:00 PM 19.99 67.982 0.3 7.9 14.12 7.81
7/10/2021 10:45:00 PM 19.93 67.874 0.301 7.9 9.63 7.8
7/10/2021 11:00:00 PM 19.87 67.766 0.301 7.9 9.46 7.8
7/10/2021 11:15:00 PM 19.8 67.64 0.302 7.89 9.43 7.79
7/10/2021 11:30:00 PM 19.73 67.514 0.302 7.89 9.52 7.79
7/10/2021 11:45:00 PM 19.67 67.406 0.303 7.89 9.45 7.79
7/11/2021 12:00:00 AM 19.61 67.298 0.303 7.89 9.6 7.8
7/11/2021 12:15:00 AM 19.54 67.172 0.303 7.88 9.53 7.8
7/11/2021 12:30:00 AM 19.48 67.064 0.304 7.88 9.43 7.81
7/11/2021 12:45:00 AM 19.42 66.956 0.304 7.88 9.52 7.81
7/11/2021 1:00:00 AM 19.36 66.848 0.305 7.88 9.81 7.82
7/11/2021 1:15:00 AM 19.31 66.758 0.305 7.88 10.23 7.82
7/11/2021 1:30:00 AM 19.26 66.668 0.306 7.88 9.95 7.83
7/11/2021 1:45:00 AM 19.2 66.56 0.306 7.88 9.62 7.84
7/11/2021 2:00:00 AM 19.15 66.47 0.306 7.88 9.67 7.84
7/11/2021 2:15:00 AM 19.1 66.38 0.307 7.88 9.71 7.86
7/11/2021 2:30:00 AM 19.05 66.29 0.307 7.88 9.86 7.86
7/11/2021 2:45:00 AM 19.01 66.218 0.308 7.88 10.01 7.87
7/11/2021 3:00:00 AM 18.96 66.128 0.308 7.88 9.76 7.88
7/11/2021 3:15:00 AM 18.91 66.038 0.309 7.88 9.9 7.89
7/11/2021 3:30:00 AM 18.87 65.966 0.309 7.88 9.5 7.9
7/11/2021 3:45:00 AM 18.82 65.876 0.31 7.88 13.35 7.91
7/11/2021 4:00:00 AM 18.78 65.804 0.31 7.88 9.33 7.92
7/11/2021 4:15:00 AM 18.74 65.732 0.31 7.88 9.66 7.93
7/11/2021 4:30:00 AM 18.7 65.66 0.311 7.88 10.25 7.94
7/11/2021 4:45:00 AM 18.67 65.606 0.311 7.88 9.43 7.94
7/11/2021 5:00:00 AM 18.63 65.534 0.312 7.89 9.39 7.95
7/11/2021 5:15:00 AM 18.59 65.462 0.312 7.89 11.05 7.96
7/11/2021 5:30:00 AM 18.55 65.39 0.313 7.89 9.73 7.96
7/11/2021 5:45:00 AM 18.52 65.336 0.313 7.89 10.47 7.97
7/11/2021 6:00:00 AM 18.48 65.264 0.313 7.89 9.11 7.99
7/11/2021 6:15:00 AM 18.45 65.21 0.314 7.89 9.12 8.01
7/11/2021 6:30:00 AM 18.42 65.156 0.314 7.89 9.3 8.03
7/11/2021 6:45:00 AM 18.39 65.102 0.314 7.89 12.88 8.07
7/11/2021 7:00:00 AM 18.37 65.066 0.315 7.9 9.28 8.11
7/11/2021 7:15:00 AM 18.36 65.048 0.315 7.91 9.17 8.17
7/11/2021 7:30:00 AM 18.35 65.03 0.316 7.91 13.73 8.22
7/11/2021 7:45:00 AM 18.34 65.012 0.316 7.92 12.03 8.28
7/11/2021 8:00:00 AM 18.34 65.012 0.316 7.92 11.7 8.32
7/11/2021 8:15:00 AM 18.33 64.994 0.317 7.94 7.97 8.35
7/11/2021 8:30:00 AM 18.33 64.994 0.317 7.95 7.61 8.39
7/11/2021 8:45:00 AM 18.34 65.012 0.317 7.96 7.49 8.43
7/11/2021 9:00:00 AM 18.35 65.03 0.318 7.96 11.36 8.48
7/11/2021 9:15:00 AM 18.37 65.066 0.318 7.97 7.34 8.56
7/11/2021 9:30:00 AM 18.4 65.12 0.318 7.99 7.53 8.65
7/11/2021 9:45:00 AM 18.46 65.228 0.319 8.01 9.67 8.77
7/11/2021 10:00:00 AM 18.55 65.39 0.319 8.03 7.01 8.92
7/11/2021 10:15:00 AM 18.62 65.516 0.319 8.05 6.34 9.04
7/11/2021 10:30:00 AM 18.67 65.606 0.319 8.06 6.22 9.08
7/11/2021 10:45:00 AM 18.72 65.696 0.32 8.07 6.19 9.1
7/11/2021 11:00:00 AM 18.78 65.804 0.32 8.08 5.96 9.1
7/11/2021 11:15:00 AM 18.84 65.912 0.32 8.08 5.79 9.14
7/11/2021 11:30:00 AM 18.92 66.056 0.32 8.1 5.76 9.22
7/11/2021 11:45:00 AM 19.02 66.236 0.321 8.12 5.67 9.32
7/11/2021 12:00:00 PM 19.09 66.362 0.321 8.14 5.53 9.38
7/11/2021 12:15:00 PM 19.15 66.47 0.321 8.15 5.42 9.47
7/11/2021 12:30:00 PM 19.19 66.542 0.321 8.16 5.3 9.46
7/11/2021 12:45:00 PM 19.22 66.596 0.322 8.16 5.4 9.41
7/11/2021 1:00:00 PM 19.23 66.614 0.322 8.16 5.54 9.35
7/11/2021 1:15:00 PM 19.25 66.65 0.322 8.16 4.9 9.33
7/11/2021 1:30:00 PM 19.28 66.704 0.322 8.16 4.8 9.32
7/11/2021 1:45:00 PM 19.29 66.722 0.323 8.15 4.78 9.25
7/11/2021 2:00:00 PM 19.29 66.722 0.323 8.16 4.82 9.22
7/11/2021 2:15:00 PM 19.28 66.704 0.323 8.15 5.6 9.14
7/11/2021 2:30:00 PM 19.26 66.668 0.323 8.14 4.99 9.05
7/11/2021 2:45:00 PM 19.25 66.65 0.324 8.13 4.81 9.01
7/11/2021 3:00:00 PM 19.23 66.614 0.324 8.12 4.66 8.94
7/11/2021 3:15:00 PM 19.22 66.596 0.324 8.11 4.78 8.89
7/11/2021 3:30:00 PM 19.2 66.56 0.324 8.11 4.98 8.87
7/11/2021 3:45:00 PM 19.2 66.56 0.324 8.11 5.16 8.86
7/11/2021 4:00:00 PM 19.2 66.56 0.324 8.11 4.97 8.9
7/11/2021 4:15:00 PM 19.19 66.542 0.325 8.12 4.97 8.92
7/11/2021 4:30:00 PM 19.19 66.542 0.325 8.12 5.2 8.92
7/11/2021 4:45:00 PM 19.18 66.524 0.325 8.12 4.91 8.91
7/11/2021 5:00:00 PM 19.18 66.524 0.325 8.12 5.22 8.91
7/11/2021 5:15:00 PM 19.18 66.524 0.325 8.12 5.2 8.9
7/11/2021 5:30:00 PM 19.16 66.488 0.325 8.12 5.37 8.87
7/11/2021 5:45:00 PM 19.14 66.452 0.325 8.11 4.99 8.81
7/11/2021 6:00:00 PM 19.11 66.398 0.325 8.1 5.3 8.74
7/11/2021 6:15:00 PM 19.08 66.344 0.325 8.09 5.49 8.67
7/11/2021 6:30:00 PM 19.04 66.272 0.325 8.08 5.39 8.62
7/11/2021 6:45:00 PM 19 66.2 0.325 8.07 5.47 8.58
7/11/2021 7:00:00 PM 18.95 66.11 0.325 8.06 5.66 8.55
7/11/2021 7:15:00 PM 18.9 66.02 0.326 8.06 5.89 8.52
7/11/2021 7:30:00 PM 18.85 65.93 0.326 8.05 5.71 8.48
7/11/2021 7:45:00 PM 18.81 65.858 0.326 8.04 5.91 8.45
7/11/2021 8:00:00 PM 18.76 65.768 0.327 8.04 5.95 8.43
7/11/2021 8:15:00 PM 18.71 65.67799 0.328 8.03 6.03 8.4
7/11/2021 8:30:00 PM 18.67 65.606 0.329 8.02 6.49 8.37
7/11/2021 8:45:00 PM 18.62 65.516 0.329 8.02 7.17 8.34
7/11/2021 9:00:00 PM 18.57 65.426 0.329 8.01 6.85 8.32
7/11/2021 9:15:00 PM 18.53 65.354 0.329 8 7.45 8.31
7/11/2021 9:30:00 PM 18.48 65.264 0.329 8 12.31 8.3
7/11/2021 9:45:00 PM 18.43 65.174 0.328 8 7.32 8.29
7/11/2021 10:00:00 PM 18.39 65.102 0.328 7.99 7.83 8.28
7/11/2021 10:15:00 PM 18.35 65.03 0.328 7.99 11.45 8.28
7/11/2021 10:30:00 PM 18.3 64.94 0.328 7.99 7.83 8.27
7/11/2021 10:45:00 PM 18.27 64.886 0.328 7.99 7.62 8.27
7/11/2021 11:00:00 PM 18.23 64.814 0.328 7.97 11.76 8.27
7/11/2021 11:15:00 PM 18.19 64.742 0.328 7.97 11.86 8.27
7/11/2021 11:30:00 PM 18.15 64.67 0.328 7.98 8.2 8.27
7/11/2021 11:45:00 PM 18.12 64.616 0.328 7.98 8.21 8.27
7/12/2021 12:00:00 AM 18.09 64.562 0.328 7.96 11.97 8.27
7/12/2021 12:15:00 AM 18.05 64.49 0.328 7.97 8.55 8.27
7/12/2021 12:30:00 AM 18.02 64.436 0.327 7.98 8.52 8.27
7/12/2021 12:45:00 AM 18 64.4 0.327 7.96 11.86 8.28
7/12/2021 1:00:00 AM 17.97 64.346 0.327 7.97 12 8.28
7/12/2021 1:15:00 AM 17.94 64.292 0.326 7.97 11.77 8.28
7/12/2021 1:30:00 AM 17.91 64.238 0.325 7.97 8.82 8.29
7/12/2021 1:45:00 AM 17.88 64.184 0.323 7.96 13.04 8.31
7/12/2021 2:00:00 AM 17.85 64.13 0.322 7.97 9.22 8.31
7/12/2021 2:15:00 AM 17.82 64.076 0.322 7.96 13.16 8.32
7/12/2021 2:30:00 AM 17.79 64.022 0.321 7.96 10.11 8.32
7/12/2021 2:45:00 AM 17.78 64.004 0.322 7.96 12.94 8.31
7/12/2021 3:00:00 AM 17.76 63.968 0.323 7.96 10.29 8.31
7/12/2021 3:15:00 AM 17.74 63.932 0.324 7.95 13.33 8.31
7/12/2021 3:30:00 AM 17.73 63.914 0.324 7.95 13.24 8.32
7/12/2021 3:45:00 AM 17.71 63.878 0.324 7.95 13.87 8.32
7/12/2021 4:00:00 AM 17.69 63.842 0.323 7.95 9.48 8.32
7/12/2021 4:15:00 AM 17.67 63.806 0.322 7.95 10.16 8.32
7/12/2021 4:30:00 AM 17.65 63.77 0.322 7.95 9.94 8.32
7/12/2021 4:45:00 AM 17.64 63.752 0.321 7.95 10.67 8.31
7/12/2021 5:00:00 AM 17.62 63.716 0.32 7.95 10.95 8.32
7/12/2021 5:15:00 AM 17.61 63.698 0.319 7.94 12.86 8.32
7/12/2021 5:30:00 AM 17.59 63.662 0.318 7.94 23.59 8.3
7/12/2021 5:45:00 AM 17.57 63.626 0.317 7.94 12.04 8.31
7/12/2021 6:00:00 AM 17.55 63.59 0.316 7.94 39.41 8.31
7/12/2021 6:15:00 AM 17.53 63.554 0.314 7.94 12.68 8.32
7/12/2021 6:30:00 AM 17.52 63.536 0.313 7.94 12.76 8.34
7/12/2021 6:45:00 AM 17.5 63.5 0.311 7.94 13.13 8.35
7/12/2021 7:00:00 AM 17.49 63.482 0.31 7.94 13.73 8.36
7/12/2021 7:15:00 AM 17.48 63.464 0.309 7.93 13.25 8.38
7/12/2021 7:30:00 AM 17.46 63.428 0.307 7.93 13.67 8.39
7/12/2021 7:45:00 AM 17.45 63.41 0.306 7.93 13.41 8.41
7/12/2021 8:00:00 AM 17.45 63.41 0.304 7.93 13.35 8.43
7/12/2021 8:15:00 AM 17.45 63.41 0.304 7.93 13.39 8.46
7/12/2021 8:30:00 AM 17.46 63.428 0.303 7.94 12.31 8.51
7/12/2021 8:45:00 AM 17.5 63.5 0.303 7.95 12.17 8.6
7/12/2021 9:00:00 AM 17.52 63.536 0.303 7.96 11.5 8.64
7/12/2021 9:15:00 AM 17.55 63.59 0.304 7.97 10.74 8.69
7/12/2021 9:30:00 AM 17.57 63.626 0.304 7.96 10.61 8.71
7/12/2021 9:45:00 AM 17.59 63.662 0.304 7.97 9.92 8.74
7/12/2021 10:00:00 AM 17.6 63.68 0.303 7.97 13.38 8.75
7/12/2021 10:15:00 AM 17.62 63.716 0.302 7.98 9.28 8.79
7/12/2021 10:30:00 AM 17.63 63.734 0.301 7.99 9.55 8.8
7/12/2021 10:45:00 AM 17.63 63.734 0.299 7.99 9.25 8.81
7/12/2021 11:00:00 AM 17.63 63.734 0.298 7.99 52.86 8.81
7/12/2021 11:15:00 AM 17.66 63.788 0.298 7.99 8.97 8.85
7/12/2021 11:30:00 AM 17.69 63.842 0.297 7.99 12.33 8.9
7/12/2021 11:45:00 AM 17.72 63.896 0.297 8 11.98 8.94
7/12/2021 12:00:00 PM 17.75 63.95 0.297 8.01 8.59 8.97
7/12/2021 12:15:00 PM 17.77 63.986 0.297 8.01 8.31 8.96
7/12/2021 12:30:00 PM 17.8 64.04 0.297 8.01 11.85 8.97
7/12/2021 12:45:00 PM 17.82 64.076 0.297 8.01 8.13 8.98
7/12/2021 1:00:00 PM 17.85 64.13 0.297 8.02 11.4 8.98
7/12/2021 1:15:00 PM 17.87 64.166 0.297 8.02 8.15 9
7/12/2021 1:30:00 PM 17.9 64.22 0.297 8.03 7.74 9.02
7/12/2021 1:45:00 PM 17.93 64.274 0.297 8.03 11.7 9.05
7/12/2021 2:00:00 PM 17.95 64.31 0.298 8.04 7.29 9.08
7/12/2021 2:15:00 PM 17.99 64.382 0.298 8.04 11.03 9.13
7/12/2021 2:30:00 PM 18.03 64.454 0.298 8.06 7.36 9.15
7/12/2021 2:45:00 PM 18.07 64.526 0.299 8.06 7.22 9.18
7/12/2021 3:00:00 PM 18.13 64.634 0.299 8.07 7.17 9.24
7/12/2021 3:15:00 PM 18.2 64.76 0.3 8.09 7.1 9.3
7/12/2021 3:30:00 PM 18.25 64.85 0.3 8.09 10.32 9.33
7/12/2021 3:45:00 PM 18.33 64.994 0.301 8.11 7.09 9.41
7/12/2021 4:00:00 PM 18.38 65.084 0.301 8.12 7.53 9.41
7/12/2021 4:15:00 PM 18.38 65.084 0.302 8.11 7.01 9.31
7/12/2021 4:30:00 PM 18.36 65.048 0.303 8.09 7.34 9.22
7/12/2021 4:45:00 PM 18.37 65.066 0.303 8.09 7.08 9.2
7/12/2021 5:00:00 PM 18.39 65.102 0.304 8.09 7 9.17
7/12/2021 5:15:00 PM 18.4 65.12 0.304 8.09 7.28 9.13
7/12/2021 5:30:00 PM 18.42 65.156 0.304 8.09 7.08 9.1
7/12/2021 5:45:00 PM 18.42 65.156 0.305 8.08 7.59 9.04
7/12/2021 6:00:00 PM 18.42 65.156 0.305 8.07 7.54 9
7/12/2021 6:15:00 PM 18.42 65.156 0.306 8.07 7.61 8.97
7/12/2021 6:30:00 PM 18.43 65.174 0.306 8.07 7.43 8.97
7/12/2021 6:45:00 PM 18.45 65.21 0.306 8.07 7.56 8.96
7/12/2021 7:00:00 PM 18.45 65.21 0.306 8.05 8.04 8.92
7/12/2021 7:15:00 PM 18.44 65.192 0.306 8.05 7.79 8.86
7/12/2021 7:30:00 PM 18.42 65.156 0.306 8.04 8.03 8.8
7/12/2021 7:45:00 PM 18.41 65.138 0.306 8.03 7.84 8.74
7/12/2021 8:00:00 PM 18.39 65.102 0.306 8.02 8.11 8.69
7/12/2021 8:15:00 PM 18.38 65.084 0.306 8.01 8.58 8.64
7/12/2021 8:30:00 PM 18.36 65.048 0.306 8 8.75 8.59
7/12/2021 8:45:00 PM 18.34 65.012 0.307 7.99 9 8.55
7/12/2021 9:00:00 PM 18.32 64.976 0.307 7.97 12.34 8.51
7/12/2021 9:15:00 PM 18.3 64.94 0.307 7.97 9.67 8.48
7/12/2021 9:30:00 PM 18.28 64.904 0.307 7.97 9.79 8.45
7/12/2021 9:45:00 PM 18.27 64.886 0.307 7.96 10.09 8.43
7/12/2021 10:00:00 PM 18.25 64.85 0.307 7.95 10.19 8.4
7/12/2021 10:15:00 PM 18.22 64.796 0.307 7.94 14.4 8.38
7/12/2021 10:30:00 PM 18.2 64.76 0.307 7.94 10.3 8.36
7/12/2021 10:45:00 PM 18.18 64.724 0.307 7.94 11.06 8.34
7/12/2021 11:00:00 PM 18.15 64.67 0.307 7.93 10.73 8.33
7/12/2021 11:15:00 PM 18.13 64.634 0.307 7.92 10.98 8.32
7/12/2021 11:30:00 PM 18.12 64.616 0.307 7.92 11.76 8.31
7/12/2021 11:45:00 PM 18.1 64.58 0.307 7.91 14.75 8.3
7/13/2021 12:00:00 AM 18.09 64.562 0.307 7.91 11.71 8.29
7/13/2021 12:15:00 AM 18.07 64.526 0.307 7.9 12.01 8.28
7/13/2021 12:30:00 AM 18.06 64.508 0.306 7.9 12.4 8.27
7/13/2021 12:45:00 AM 18.05 64.49 0.306 7.9 12.66 8.26
7/13/2021 1:00:00 AM 18.03 64.454 0.306 7.9 13.89 8.26
7/13/2021 1:15:00 AM 18.02 64.436 0.305 7.89 13.34 8.25
7/13/2021 1:30:00 AM 18.01 64.418 0.305 7.89 12.77 8.25
7/13/2021 1:45:00 AM 17.99 64.382 0.304 7.89 12.33 8.24
7/13/2021 2:00:00 AM 17.98 64.364 0.304 7.88 12.57 8.23
7/13/2021 2:15:00 AM 17.97 64.346 0.304 7.88 12.67 8.23
7/13/2021 2:30:00 AM 17.96 64.328 0.303 7.86 11.95 8.22
7/13/2021 2:45:00 AM 17.95 64.31 0.303 7.87 12.54 8.22
7/13/2021 3:00:00 AM 17.95 64.31 0.303 7.86 12.67 8.22
7/13/2021 3:15:00 AM 17.94 64.292 0.302 7.86 12.79 8.21
7/13/2021 3:30:00 AM 17.93 64.274 0.302 7.85 12.5 8.21
7/13/2021 3:45:00 AM 17.92 64.256 0.302 7.85 12.74 8.21
7/13/2021 4:00:00 AM 17.91 64.238 0.301 7.85 12.58 8.2
7/13/2021 4:15:00 AM 17.9 64.22 0.301 7.85 12.7 8.2
7/13/2021 4:30:00 AM 17.9 64.22 0.301 7.84 13.06 8.2
7/13/2021 4:45:00 AM 17.89 64.202 0.3 7.83 12.7 8.19
7/13/2021 5:00:00 AM 17.89 64.202 0.3 7.83 12.51 8.17
7/13/2021 5:15:00 AM 17.88 64.184 0.3 7.83 12.43 8.18
7/13/2021 5:30:00 AM 17.88 64.184 0.3 7.82 11.59 8.17
7/13/2021 5:45:00 AM 17.87 64.166 0.3 7.81 13.07 8.18
7/13/2021 6:00:00 AM 17.87 64.166 0.299 7.82 12.98 8.17
7/13/2021 6:15:00 AM 17.87 64.166 0.299 7.82 12.81 8.18
7/13/2021 6:30:00 AM 17.87 64.166 0.299 7.82 13.2 8.19
7/13/2021 6:45:00 AM 17.87 64.166 0.298 7.82 12.9 8.2
7/13/2021 7:00:00 AM 17.87 64.166 0.298 7.82 12.43 8.2
7/13/2021 7:15:00 AM 17.88 64.184 0.298 7.82 12.08 8.22
7/13/2021 7:30:00 AM 17.89 64.202 0.297 7.81 15.54 8.24
7/13/2021 7:45:00 AM 17.89 64.202 0.297 7.82 12.11 8.24
7/13/2021 8:00:00 AM 17.91 64.238 0.297 7.83 11.52 8.27
7/13/2021 8:15:00 AM 17.92 64.256 0.296 7.83 11.66 8.27
7/13/2021 8:30:00 AM 17.95 64.31 0.296 7.84 10.99 8.31
7/13/2021 8:45:00 AM 17.99 64.382 0.296 7.84 10.88 8.37
7/13/2021 9:00:00 AM 18.04 64.472 0.295 7.85 10.49 8.44
7/13/2021 9:15:00 AM 18.1 64.58 0.295 7.86 10.55 8.49
7/13/2021 9:30:00 AM 18.17 64.706 0.294 7.87 10.42 8.56
7/13/2021 9:45:00 AM 18.26 64.868 0.294 7.88 14.16 8.64
7/13/2021 10:00:00 AM 18.39 65.102 0.294 7.9 9.79 8.74
7/13/2021 10:15:00 AM 18.55 65.39 0.293 7.92 9.83 8.83
7/13/2021 10:30:00 AM 18.77 65.786 0.293 7.94 9.51 8.93
7/13/2021 10:45:00 AM 18.96 66.128 0.293 7.96 9.41 9.02
7/13/2021 11:00:00 AM 19.06 66.308 0.292 7.97 8.82 9.05
7/13/2021 11:15:00 AM 19.07 66.326 0.292 7.97 8.97 9
7/13/2021 11:30:00 AM 19.13 66.434 0.292 7.98 8.7 8.99
7/13/2021 11:45:00 AM 19.18 66.524 0.292 7.97 8.73 8.97
7/13/2021 12:00:00 PM 19.37 66.866 0.292 7.99 8.09 9.09
7/13/2021 12:15:00 PM 19.52 67.136 0.291 8.01 12.62 9.17
7/13/2021 12:30:00 PM 19.64 67.352 0.291 8.03 8.1 9.23
7/13/2021 12:45:00 PM 19.8 67.64 0.291 8.04 15.3 9.28
7/13/2021 1:00:00 PM 19.94 67.892 0.291 8.06 12.75 9.3
7/13/2021 1:15:00 PM 20.1 68.18 0.29 8.07 7.54 9.33
7/13/2021 1:30:00 PM 20.32 68.576 0.29 8.08 7.8 9.39
7/13/2021 1:45:00 PM 20.39 68.702 0.29 8.09 7.56 9.34
7/13/2021 2:00:00 PM 20.48 68.864 0.29 8.09 7.9 9.36
7/13/2021 2:15:00 PM 20.51 68.918 0.29 8.09 7.57 9.3
7/13/2021 2:30:00 PM 20.62 69.116 0.289 8.1 7.36 9.35
7/13/2021 2:45:00 PM 20.73 69.314 0.289 8.11 7.56 9.34
7/13/2021 3:00:00 PM 20.96 69.728 0.289 8.13 7.19 9.41
7/13/2021 3:15:00 PM 21.09 69.962 0.289 8.13 7.67 9.41
7/13/2021 3:30:00 PM 21.18 70.124 0.289 8.13 7.51 9.37
7/13/2021 3:45:00 PM 21.23 70.214 0.289 8.13 7.21 9.31
7/13/2021 4:00:00 PM 21.23 70.214 0.289 8.12 8.15 9.2
7/13/2021 4:15:00 PM 21.16 70.088 0.289 8.09 7.23 9.01
7/13/2021 4:30:00 PM 21.16 70.088 0.289 8.07 7.56 8.86
7/13/2021 4:45:00 PM 21.18 70.124 0.289 8.05 7.81 8.74
7/13/2021 5:00:00 PM 21.22 70.196 0.289 8.04 7.89 8.67
7/13/2021 5:15:00 PM 21.23 70.214 0.29 8.03 7.75 8.62
7/13/2021 5:30:00 PM 21.24 70.232 0.289 8.03 8.13 8.63
7/13/2021 5:45:00 PM 21.23 70.214 0.29 8.03 8.24 8.6
7/13/2021 6:00:00 PM 21.2 70.16 0.29 8.03 8.11 8.58
7/13/2021 6:15:00 PM 21.14 70.052 0.29 8.02 7.98 8.49
7/13/2021 6:30:00 PM 21.09 69.962 0.29 8 8.05 8.42
7/13/2021 6:45:00 PM 21.05 69.89 0.29 7.99 8.1 8.36
7/13/2021 7:00:00 PM 21.01 69.818 0.29 7.98 8.22 8.31
7/13/2021 7:15:00 PM 20.96 69.728 0.29 7.97 8.5 8.24
7/13/2021 7:30:00 PM 20.91 69.638 0.291 7.95 8.44 8.18
7/13/2021 7:45:00 PM 20.87 69.566 0.291 7.95 8.27 8.13
7/13/2021 8:00:00 PM 20.82 69.476 0.291 7.94 8.58 8.07
7/13/2021 8:15:00 PM 20.78 69.404 0.291 7.93 9.15 8.03
7/13/2021 8:30:00 PM 20.73 69.314 0.291 7.91 8.65 7.96
7/13/2021 8:45:00 PM 20.68 69.224 0.292 7.9 8.94 7.92
7/13/2021 9:00:00 PM 20.63 69.134 0.292 7.89 9.13 7.87
7/13/2021 9:15:00 PM 20.58 69.044 0.292 7.88 9.4 7.84
7/13/2021 9:30:00 PM 20.54 68.972 0.292 7.88 9.74 7.82
7/13/2021 9:45:00 PM 20.5 68.9 0.293 7.87 9.94 7.78
7/13/2021 10:00:00 PM 20.47 68.846 0.293 7.87 10.22 7.77
7/13/2021 10:15:00 PM 20.44 68.792 0.293 7.87 11.37 7.75
7/13/2021 10:30:00 PM 20.4 68.72 0.293 7.86 10.33 7.74
7/13/2021 10:45:00 PM 20.36 68.648 0.294 7.85 10.38 7.73
7/13/2021 11:00:00 PM 20.32 68.576 0.294 7.86 10.43 7.72
7/13/2021 11:15:00 PM 20.28 68.504 0.292 7.86 10.55 7.75
7/13/2021 11:30:00 PM 20.24 68.432 0.291 7.86 15.42 7.76
7/13/2021 11:45:00 PM 20.2 68.36 0.291 7.86 10.67 7.77
7/14/2021 12:00:00 AM 20.15 68.27 0.291 7.86 11.05 7.76
7/14/2021 12:15:00 AM 20.12 68.216 0.292 7.86 11.22 7.75
7/14/2021 12:30:00 AM 20.09 68.162 0.292 7.85 11.18 7.75
7/14/2021 12:45:00 AM 20.06 68.108 0.293 7.85 11.74 7.74
7/14/2021 1:00:00 AM 20.02 68.036 0.293 7.85 11.5 7.74
7/14/2021 1:15:00 AM 20 68 0.294 7.85 15.59 7.74
7/14/2021 1:30:00 AM 19.97 67.946 0.294 7.85 11.33 7.74
7/14/2021 1:45:00 AM 19.94 67.892 0.294 7.85 11.33 7.73
7/14/2021 2:00:00 AM 19.91 67.838 0.295 7.84 11.7 7.73
7/14/2021 2:15:00 AM 19.88 67.784 0.295 7.84 15.46 7.73
7/14/2021 2:30:00 AM 19.86 67.748 0.295 7.84 12.02 7.72
7/14/2021 2:45:00 AM 19.83 67.694 0.296 7.84 11.17 7.73
7/14/2021 3:00:00 AM 19.8 67.64 0.296 7.84 11.81 7.73
7/14/2021 3:15:00 AM 19.77 67.586 0.296 7.84 12.45 7.73
7/14/2021 3:30:00 AM 19.74 67.532 0.296 7.84 12.22 7.73
7/14/2021 3:45:00 AM 19.71 67.478 0.297 7.84 10.41 7.73
7/14/2021 4:00:00 AM 19.68 67.424 0.297 7.84 12.17 7.74
7/14/2021 4:15:00 AM 19.64 67.352 0.297 7.84 12.31 7.74
7/14/2021 4:30:00 AM 19.6 67.28 0.296 7.84 12.68 7.75
7/14/2021 4:45:00 AM 19.57 67.226 0.296 7.84 13.01 7.75
7/14/2021 5:00:00 AM 19.54 67.172 0.296 7.83 12.66 7.76
7/14/2021 5:15:00 AM 19.51 67.118 0.295 7.84 13.08 7.76
7/14/2021 5:30:00 AM 19.48 67.064 0.295 7.84 13.49 7.76
7/14/2021 5:45:00 AM 19.45 67.01 0.295 7.84 13.02 7.77
7/14/2021 6:00:00 AM 19.42 66.956 0.294 7.84 13.12 7.77
7/14/2021 6:15:00 AM 19.4 66.92 0.295 7.84 12.79 7.78
7/14/2021 6:30:00 AM 19.38 66.884 0.295 7.84 13.04 7.81
7/14/2021 6:45:00 AM 19.36 66.848 0.295 7.84 12.52 7.84
7/14/2021 7:00:00 AM 19.35 66.83 0.296 7.85 11.85 7.85
7/14/2021 7:15:00 AM 19.34 66.812 0.296 7.85 11.79 7.87
7/14/2021 7:30:00 AM 19.34 66.812 0.297 7.86 10.65 7.94
7/14/2021 7:45:00 AM 19.37 66.866 0.297 7.87 10.96 8
7/14/2021 8:00:00 AM 19.37 66.866 0.297 7.87 9.98 8.02
7/14/2021 8:15:00 AM 19.4 66.92 0.297 7.88 9.79 8.08
7/14/2021 8:30:00 AM 19.45 67.01 0.297 7.89 9.32 8.14
7/14/2021 8:45:00 AM 19.49 67.082 0.297 7.9 9.23 8.2
7/14/2021 9:00:00 AM 19.54 67.172 0.298 7.91 8.78 8.25
7/14/2021 9:15:00 AM 19.62 67.316 0.298 7.92 12.87 8.37
7/14/2021 9:30:00 AM 19.67 67.406 0.298 7.93 8.27 8.43
7/14/2021 9:45:00 AM 19.78 67.604 0.298 7.95 8.17 8.56
7/14/2021 10:00:00 AM 19.87 67.766 0.298 7.97 7.52 8.6
7/14/2021 10:15:00 AM 19.93 67.874 0.298 7.98 7.59 8.64
7/14/2021 10:30:00 AM 20.01 68.018 0.298 7.99 7.07 8.68
7/14/2021 10:45:00 AM 20.11 68.198 0.299 8.01 6.91 8.77
7/14/2021 11:00:00 AM 20.16 68.288 0.299 8.01 6.99 8.76
7/14/2021 11:15:00 AM 20.24 68.432 0.299 8.02 6.78 8.83
7/14/2021 11:30:00 AM 20.33 68.594 0.299 8.03 6.47 8.86
7/14/2021 11:45:00 AM 20.36 68.648 0.299 8.04 6.28 8.87
7/14/2021 12:00:00 PM 20.37 68.666 0.299 8.04 6.11 8.82
7/14/2021 12:15:00 PM 20.38 68.684 0.3 8.03 6.69 8.74
7/14/2021 12:30:00 PM 20.52 68.936 0.3 8.04 10.45 8.85
7/14/2021 12:45:00 PM 20.56 69.008 0.3 8.05 5.8 8.86
7/14/2021 1:00:00 PM 20.62 69.116 0.3 8.06 5.64 8.92
7/14/2021 1:15:00 PM 20.77 69.386 0.3 8.08 5.77 9.03
7/14/2021 1:30:00 PM 20.89 69.602 0.3 8.1 5.4 9.08
7/14/2021 1:45:00 PM 20.97 69.746 0.3 8.1 5.54 9.07
7/14/2021 2:00:00 PM 21.01 69.818 0.3 8.1 5.57 8.95
7/14/2021 2:15:00 PM 20.98 69.764 0.3 8.07 5.86 8.79
7/14/2021 2:30:00 PM 20.92 69.656 0.3 8.05 5.47 8.6
7/14/2021 2:45:00 PM 20.9 69.62 0.301 8.04 5.63 8.52
7/14/2021 3:00:00 PM 20.9 69.62 0.301 8.03 5.28 8.47
7/14/2021 3:15:00 PM 20.89 69.602 0.302 8.02 5.62 8.43
7/14/2021 3:30:00 PM 20.87 69.566 0.302 8.01 4.96 8.39
7/14/2021 3:45:00 PM 20.85 69.53 0.303 8.01 5.21 8.37
7/14/2021 4:00:00 PM 20.84 69.512 0.303 8.02 5.07 8.4
7/14/2021 4:15:00 PM 20.92 69.656 0.303 8.03 5.37 8.54
7/14/2021 4:30:00 PM 20.94 69.692 0.304 8.05 5.98 8.63
7/14/2021 4:45:00 PM 20.95 69.71 0.304 8.06 5.54 8.67
7/14/2021 5:00:00 PM 20.98 69.764 0.305 8.07 5.71 8.72
7/14/2021 5:15:00 PM 20.98 69.764 0.305 8.07 5.62 8.69
7/14/2021 5:30:00 PM 21.01 69.818 0.305 8.07 5.6 8.72
7/14/2021 5:45:00 PM 21 69.8 0.306 8.07 5.78 8.64
7/14/2021 6:00:00 PM 20.99 69.782 0.306 8.05 5.97 8.56
7/14/2021 6:15:00 PM 20.98 69.764 0.307 8.04 5.89 8.44
7/14/2021 6:30:00 PM 20.98 69.764 0.307 8.03 6.09 8.37
7/14/2021 6:45:00 PM 20.97 69.746 0.307 8.02 6.23 8.31
7/14/2021 7:00:00 PM 20.96 69.728 0.308 8.01 5.97 8.27
7/14/2021 7:15:00 PM 20.95 69.71 0.308 8.01 6.32 8.23
7/14/2021 7:30:00 PM 20.93 69.674 0.308 8 6.34 8.21
7/14/2021 7:45:00 PM 20.88 69.584 0.309 7.99 6.46 8.15
7/14/2021 8:00:00 PM 20.83 69.494 0.309 7.99 6.36 8.11
7/14/2021 8:15:00 PM 20.79 69.422 0.31 7.98 6.78 8.03
7/14/2021 8:30:00 PM 20.74 69.332 0.31 7.96 6.61 7.99
7/14/2021 8:45:00 PM 20.69 69.242 0.31 7.96 7.19 7.95
7/14/2021 9:00:00 PM 20.63 69.134 0.311 7.94 8.11 7.92
7/14/2021 9:15:00 PM 20.57 69.026 0.311 7.94 7.64 7.89
7/14/2021 9:30:00 PM 20.52 68.936 0.311 7.93 7.75 7.87
7/14/2021 9:45:00 PM 20.47 68.846 0.311 7.93 7.94 7.85
7/14/2021 10:00:00 PM 20.42 68.756 0.312 7.92 7.97 7.84
7/14/2021 10:15:00 PM 20.37 68.666 0.312 7.92 8.38 7.82
7/14/2021 10:30:00 PM 20.33 68.594 0.312 7.91 8.05 7.8
7/14/2021 10:45:00 PM 20.28 68.504 0.313 7.91 8.23 7.8
7/14/2021 11:00:00 PM 20.24 68.432 0.313 7.91 8.44 7.79
7/14/2021 11:15:00 PM 20.2 68.36 0.313 7.9 8.07 7.79
7/14/2021 11:30:00 PM 20.16 68.288 0.313 7.9 8.12 7.78
7/14/2021 11:45:00 PM 20.12 68.216 0.313 7.9 8.66 7.78
7/15/2021 12:00:00 AM 20.08 68.144 0.314 7.9 9.11 7.78
7/15/2021 12:15:00 AM 20.04 68.07201 0.314 7.9 8.35 7.78
7/15/2021 12:30:00 AM 20 68 0.314 7.89 8.67 7.78
7/15/2021 12:45:00 AM 19.97 67.946 0.314 7.9 8.41 7.78
7/15/2021 1:00:00 AM 19.93 67.874 0.315 7.9 8.74 7.78
7/15/2021 1:15:00 AM 19.88 67.784 0.315 7.89 8.6 7.78
7/15/2021 1:30:00 AM 19.84 67.712 0.315 7.89 8.8 7.79
7/15/2021 1:45:00 AM 19.81 67.658 0.315 7.89 8.94 7.8
7/15/2021 2:00:00 AM 19.79 67.622 0.315 7.88 13.54 7.8
7/15/2021 2:15:00 AM 19.76 67.568 0.315 7.88 12.99 7.8
7/15/2021 2:30:00 AM 19.74 67.532 0.315 7.89 8.86 7.8
7/15/2021 2:45:00 AM 19.72 67.496 0.316 7.89 8.88 7.81
7/15/2021 3:00:00 AM 19.7 67.46 0.316 7.89 13.55 7.81
7/15/2021 3:15:00 AM 19.68 67.424 0.316 7.89 9.11 7.82
7/15/2021 3:30:00 AM 19.66 67.388 0.316 7.89 8.57 7.82
7/15/2021 3:45:00 AM 19.64 67.352 0.316 7.89 13.66 7.82
7/15/2021 4:00:00 AM 19.62 67.316 0.316 7.89 8.67 7.83
7/15/2021 4:15:00 AM 19.6 67.28 0.316 7.89 13.39 7.84
7/15/2021 4:30:00 AM 19.59 67.262 0.317 7.89 14.92 7.84
7/15/2021 4:45:00 AM 19.57 67.226 0.317 7.89 14.89 7.83
7/15/2021 5:00:00 AM 19.55 67.19 0.317 7.9 9.63 7.83
7/15/2021 5:15:00 AM 19.53 67.154 0.317 7.9 9.06 7.83
7/15/2021 5:30:00 AM 19.52 67.136 0.317 7.9 9.25 7.84
7/15/2021 5:45:00 AM 19.51 67.118 0.318 7.9 9.2 7.85
7/15/2021 6:00:00 AM 19.49 67.082 0.318 7.9 8.72 7.86
7/15/2021 6:15:00 AM 19.48 67.064 0.318 7.9 9.2 7.85
7/15/2021 6:30:00 AM 19.47 67.046 0.318 7.9 9.19 7.89
7/15/2021 6:45:00 AM 19.46 67.028 0.318 7.9 9.14 7.91
7/15/2021 7:00:00 AM 19.46 67.028 0.318 7.91 8.73 7.94
7/15/2021 7:15:00 AM 19.46 67.028 0.318 7.92 8.42 7.97
7/15/2021 7:30:00 AM 19.46 67.028 0.319 7.92 8.34 8.01
7/15/2021 7:45:00 AM 19.47 67.046 0.319 7.93 8.03 8.06
7/15/2021 8:00:00 AM 19.48 67.064 0.319 7.94 7.74 8.13
7/15/2021 8:15:00 AM 19.49 67.082 0.319 7.95 7.63 8.17
7/15/2021 8:30:00 AM 19.52 67.136 0.319 7.96 7.5 8.26
7/15/2021 8:45:00 AM 19.55 67.19 0.319 7.97 6.88 8.34
7/15/2021 9:00:00 AM 19.58 67.244 0.319 7.99 6.69 8.4
7/15/2021 9:15:00 AM 19.63 67.334 0.319 8 6.49 8.52
7/15/2021 9:30:00 AM 19.68 67.424 0.319 8.01 6.35 8.59
7/15/2021 9:45:00 AM 19.75 67.55 0.319 8.03 6.19 8.69
7/15/2021 10:00:00 AM 19.84 67.712 0.319 8.04 5.84 8.77
7/15/2021 10:15:00 AM 19.93 67.874 0.319 8.06 6.05 8.86
7/15/2021 10:30:00 AM 20.04 68.07201 0.319 8.08 5.74 8.91
7/15/2021 10:45:00 AM 20.19 68.342 0.319 8.09 5.68 9.01
7/15/2021 11:00:00 AM 20.35 68.63 0.319 8.11 5.43 9.1
7/15/2021 11:15:00 AM 20.54 68.972 0.319 8.14 5.31 9.18
7/15/2021 11:30:00 AM 20.75 69.35 0.319 8.16 5.16 9.3
7/15/2021 11:45:00 AM 20.87 69.566 0.319 8.17 5.09 9.29
7/15/2021 12:00:00 PM 21.06 69.908 0.319 8.2 4.85 9.41
7/15/2021 12:15:00 PM 21.26 70.268 0.319 8.22 4.79 9.48
7/15/2021 12:30:00 PM 21.45 70.61 0.319 8.23 4.89 9.56
7/15/2021 12:45:00 PM 21.62 70.916 0.319 8.25 4.84 9.61
7/15/2021 1:00:00 PM 21.8 71.24 0.319 8.27 4.79 9.63
7/15/2021 1:15:00 PM 21.97 71.546 0.319 8.28 4.38 9.66
7/15/2021 1:30:00 PM 22.22 71.996 0.319 8.3 5.08 9.73
7/15/2021 1:45:00 PM 22.43 72.374 0.319 8.32 4.63 9.76
7/15/2021 2:00:00 PM 22.63 72.734 0.319 8.33 4.78 9.76
7/15/2021 2:15:00 PM 22.79 73.022 0.319 8.34 4.56 9.75
7/15/2021 2:30:00 PM 22.89 73.202 0.319 8.34 4.42 9.74
7/15/2021 2:45:00 PM 23.03 73.454 0.319 8.35 238.39 9.75
7/15/2021 3:00:00 PM 23.11 73.598 0.319 8.35 4.88 9.71
7/15/2021 3:15:00 PM 23.15 73.67 0.32 8.35 4.67 9.65
7/15/2021 3:30:00 PM 23.09 73.562 0.32 8.33 4.91 9.5
7/15/2021 3:45:00 PM 23.17 73.706 0.32 8.33 4.68 9.54
7/15/2021 4:00:00 PM 23.21 73.778 0.32 8.33 4.64 9.48
7/15/2021 4:15:00 PM 23.27 73.886 0.32 8.33 4.8 9.47
7/15/2021 4:30:00 PM 23.36 74.048 0.32 8.33 4.73 9.44
7/15/2021 4:45:00 PM 23.39 74.102 0.32 8.33 5.08 9.36
7/15/2021 5:00:00 PM 23.37 74.066 0.321 8.32 4.8 9.27
7/15/2021 5:15:00 PM 23.35 74.03 0.321 8.3 4.71 9.18
7/15/2021 5:30:00 PM 23.31 73.958 0.321 8.29 5.12 9.09
7/15/2021 5:45:00 PM 23.25 73.85 0.322 8.28 4.86 8.99
7/15/2021 6:00:00 PM 23.19 73.742 0.322 8.26 5.11 8.87
7/15/2021 6:15:00 PM 23.11 73.598 0.322 8.24 5.3 8.73
7/15/2021 6:30:00 PM 23.04 73.472 0.323 8.22 5.14 8.61
7/15/2021 6:45:00 PM 22.98 73.364 0.323 8.2 5.37 8.52
7/15/2021 7:00:00 PM 22.92 73.256 0.323 8.19 5.48 8.41
7/15/2021 7:15:00 PM 22.85 73.13 0.324 8.17 5.65 8.3
7/15/2021 7:30:00 PM 22.78 73.004 0.324 8.15 5.27 8.21
7/15/2021 7:45:00 PM 22.7 72.86 0.324 8.13 5.87 8.12
7/15/2021 8:00:00 PM 22.61 72.698 0.325 8.11 5.75 8.02
7/15/2021 8:15:00 PM 22.52 72.536 0.325 8.1 5.79 7.96
7/15/2021 8:30:00 PM 22.43 72.374 0.325 8.08 5.8 7.89
7/15/2021 8:45:00 PM 22.33 72.194 0.325 8.07 6.44 7.83
7/15/2021 9:00:00 PM 22.24 72.032 0.326 8.05 6.33 7.77
7/15/2021 9:15:00 PM 22.15 71.87 0.326 8.04 6.59 7.71
7/15/2021 9:30:00 PM 22.06 71.708 0.326 8.03 6.99 7.68
7/15/2021 9:45:00 PM 21.98 71.564 0.326 8.02 6.58 7.65
7/15/2021 10:00:00 PM 21.9 71.42 0.326 8.01 7.23 7.62
7/15/2021 10:15:00 PM 21.82 71.276 0.327 8 7.13 7.6
7/15/2021 10:30:00 PM 21.74 71.132 0.327 7.99 7.65 7.58
7/15/2021 10:45:00 PM 21.67 71.006 0.327 7.99 7.13 7.58
7/15/2021 11:00:00 PM 21.6 70.88 0.327 7.98 7.19 7.56
7/15/2021 11:15:00 PM 21.54 70.772 0.327 7.97 7.38 7.55
7/15/2021 11:30:00 PM 21.47 70.646 0.327 7.97 7.3 7.55
7/15/2021 11:45:00 PM 21.42 70.556 0.327 7.97 8.81 7.54
7/16/2021 12:00:00 AM 21.36 70.448 0.328 7.96 7.66 7.54
7/16/2021 12:15:00 AM 21.3 70.34 0.328 7.96 7.08 7.54
7/16/2021 12:30:00 AM 21.25 70.25 0.328 7.96 7.09 7.54
7/16/2021 12:45:00 AM 21.2 70.16 0.328 7.96 7.42 7.54
7/16/2021 1:00:00 AM 21.15 70.07 0.328 7.96 7.11 7.54
7/16/2021 1:15:00 AM 21.11 69.998 0.329 7.96 7.59 7.55
7/16/2021 1:30:00 AM 21.07 69.926 0.329 7.95 7.27 7.55
7/16/2021 1:45:00 AM 21.03 69.854 0.329 7.95 7.35 7.55
7/16/2021 2:00:00 AM 20.99 69.782 0.329 7.95 7.17 7.56
7/16/2021 2:15:00 AM 20.94 69.692 0.329 7.95 7.48 7.56
7/16/2021 2:30:00 AM 20.91 69.638 0.329 7.95 7.14 7.56
7/16/2021 2:45:00 AM 20.87 69.566 0.329 7.95 7.79 7.57
7/16/2021 3:00:00 AM 20.85 69.53 0.33 7.95 7.05 7.57
7/16/2021 3:15:00 AM 20.82 69.476 0.33 7.95 11.49 7.58
7/16/2021 3:30:00 AM 20.79 69.422 0.33 7.95 7.98 7.58
7/16/2021 3:45:00 AM 20.77 69.386 0.33 7.95 7.34 7.59
7/16/2021 4:00:00 AM 20.74 69.332 0.33 7.94 11.99 7.59
7/16/2021 4:15:00 AM 20.71 69.278 0.33 7.95 7.43 7.6
7/16/2021 4:30:00 AM 20.69 69.242 0.33 7.94 7.38 7.6
7/16/2021 4:45:00 AM 20.66 69.188 0.33 7.94 7.6 7.61
7/16/2021 5:00:00 AM 20.64 69.152 0.331 7.95 7.63 7.6
7/16/2021 5:15:00 AM 20.61 69.098 0.331 7.95 9.65 7.61
7/16/2021 5:30:00 AM 20.58 69.044 0.331 7.95 7.99 7.61
7/16/2021 5:45:00 AM 20.56 69.008 0.331 7.95 11.2 7.61
7/16/2021 6:00:00 AM 20.54 68.972 0.331 7.95 7.81 7.62
7/16/2021 6:15:00 AM 20.52 68.936 0.331 7.95 7.35 7.64
7/16/2021 6:30:00 AM 20.5 68.9 0.331 7.95 7.33 7.69
7/16/2021 6:45:00 AM 20.49 68.882 0.331 7.95 12.24 7.72
7/16/2021 7:00:00 AM 20.48 68.864 0.331 7.96 7.19 7.75
7/16/2021 7:15:00 AM 20.47 68.846 0.331 7.97 7.25 7.81
7/16/2021 7:30:00 AM 20.48 68.864 0.332 7.98 6.98 7.88
7/16/2021 7:45:00 AM 20.48 68.864 0.332 7.99 6.71 7.96
7/16/2021 8:00:00 AM 20.5 68.9 0.332 8 10.66 8.05
7/16/2021 8:15:00 AM 20.54 68.972 0.331 8.02 6.19 8.18
7/16/2021 8:30:00 AM 20.56 69.008 0.332 8.03 6.17 8.22
7/16/2021 8:45:00 AM 20.61 69.098 0.332 8.04 5.66 8.31
7/16/2021 9:00:00 AM 20.66 69.188 0.332 8.06 5.53 8.41
7/16/2021 9:15:00 AM 20.73 69.314 0.332 8.08 5.19 8.55
7/16/2021 9:30:00 AM 20.78 69.404 0.332 8.1 5.28 8.65
7/16/2021 9:45:00 AM 20.85 69.53 0.332 8.12 9.25 8.76
7/16/2021 10:00:00 AM 20.88 69.584 0.332 8.14 11.69 8.77
7/16/2021 10:15:00 AM 20.96 69.728 0.332 8.16 4.66